<?xml version='1.0' encoding='UTF-8'?><gpx version="1.1" creator="JPX - https://github.com/jenetics/jpx" xmlns="http://www.topografix.com/GPX/1/1"><trk><trkseg><trkpt lat="44.118335" lon="9.8029083"><ele>36.0</ele><time>2026-04-14T14:25:21.994Z</time></trkpt><trkpt lat="44.118265" lon="9.8028317"><ele>36.0</ele><time>2026-04-14T14:25:50.993Z</time></trkpt><trkpt lat="44.118215" lon="9.8027617"><ele>36.0</ele><time>2026-04-14T14:25:54.994Z</time></trkpt><trkpt lat="44.1181267" lon="9.8027567"><ele>36.0</ele><time>2026-04-14T14:25:56.994Z</time></trkpt><trkpt lat="44.1180517" lon="9.8027567"><ele>36.0</ele><time>2026-04-14T14:25:58.994Z</time></trkpt><trkpt lat="44.1179783" lon="9.8027583"><ele>36.0</ele><time>2026-04-14T14:26:01.993Z</time></trkpt><trkpt lat="44.117915" lon="9.802805"><ele>36.166666666666664</ele><time>2026-04-14T14:26:03.993Z</time></trkpt><trkpt lat="44.1178417" lon="9.8028783"><ele>36.333333333333336</ele><time>2026-04-14T14:26:06.993Z</time></trkpt><trkpt lat="44.1177867" lon="9.8029467"><ele>36.5</ele><time>2026-04-14T14:26:09.993Z</time></trkpt><trkpt lat="44.11772" lon="9.8029817"><ele>36.66666666666667</ele><time>2026-04-14T14:26:11.994Z</time></trkpt><trkpt lat="44.117655" lon="9.8030167"><ele>36.833333333333336</ele><time>2026-04-14T14:26:13.993Z</time></trkpt><trkpt lat="44.1176067" lon="9.8030783"><ele>37.0</ele><time>2026-04-14T14:26:15.993Z</time></trkpt><trkpt lat="44.117535" lon="9.8031283"><ele>37.0</ele><time>2026-04-14T14:26:17.993Z</time></trkpt><trkpt lat="44.1174617" lon="9.803175"><ele>37.0</ele><time>2026-04-14T14:26:19.994Z</time></trkpt><trkpt lat="44.1174017" lon="9.8032333"><ele>37.0</ele><time>2026-04-14T14:26:21.993Z</time></trkpt><trkpt lat="44.117345" lon="9.8032967"><ele>37.0</ele><time>2026-04-14T14:26:23.994Z</time></trkpt><trkpt lat="44.1172817" lon="9.80336"><ele>37.0</ele><time>2026-04-14T14:26:25.993Z</time></trkpt><trkpt lat="44.1172" lon="9.803375"><ele>37.0</ele><time>2026-04-14T14:26:28.993Z</time></trkpt><trkpt lat="44.1171533" lon="9.803445"><ele>36.5</ele><time>2026-04-14T14:26:31.994Z</time></trkpt><trkpt lat="44.11713" lon="9.80356"><ele>36.0</ele><time>2026-04-14T14:26:35.993Z</time></trkpt><trkpt lat="44.1171117" lon="9.803675"><ele>35.5</ele><time>2026-04-14T14:26:38.993Z</time></trkpt><trkpt lat="44.11709" lon="9.80378"><ele>35.0</ele><time>2026-04-14T14:26:41.993Z</time></trkpt><trkpt lat="44.11707" lon="9.8038683"><ele>34.5</ele><time>2026-04-14T14:26:46.993Z</time></trkpt><trkpt lat="44.1169983" lon="9.8038883"><ele>34.0</ele><time>2026-04-14T14:26:52.993Z</time></trkpt><trkpt lat="44.11692" lon="9.80386"><ele>34.0</ele><time>2026-04-14T14:26:54.994Z</time></trkpt><trkpt lat="44.116845" lon="9.8038333"><ele>34.0</ele><time>2026-04-14T14:26:56.993Z</time></trkpt><trkpt lat="44.1167617" lon="9.8037983"><ele>34.0</ele><time>2026-04-14T14:26:58.993Z</time></trkpt><trkpt lat="44.1166633" lon="9.8037733"><ele>34.0</ele><time>2026-04-14T14:27:00.993Z</time></trkpt><trkpt lat="44.1165417" lon="9.80374"><ele>34.0</ele><time>2026-04-14T14:27:02.993Z</time></trkpt><trkpt lat="44.1164217" lon="9.8037183"><ele>33.16666666666667</ele><time>2026-04-14T14:27:04.993Z</time></trkpt><trkpt lat="44.116315" lon="9.8037383"><ele>32.333333333333336</ele><time>2026-04-14T14:27:06.993Z</time></trkpt><trkpt lat="44.1162183" lon="9.8037683"><ele>31.5</ele><time>2026-04-14T14:27:08.994Z</time></trkpt><trkpt lat="44.1161417" lon="9.80379"><ele>30.666666666666664</ele><time>2026-04-14T14:27:10.993Z</time></trkpt><trkpt lat="44.116055" lon="9.8038033"><ele>29.833333333333332</ele><time>2026-04-14T14:27:12.993Z</time></trkpt><trkpt lat="44.11598" lon="9.8038117"><ele>29.0</ele><time>2026-04-14T14:27:14.993Z</time></trkpt><trkpt lat="44.1159483" lon="9.8038933"><ele>29.0</ele><time>2026-04-14T14:27:16.993Z</time></trkpt><trkpt lat="44.115915" lon="9.8039983"><ele>29.0</ele><time>2026-04-14T14:27:18.993Z</time></trkpt><trkpt lat="44.1158533" lon="9.8040717"><ele>29.0</ele><time>2026-04-14T14:27:20.993Z</time></trkpt><trkpt lat="44.1157633" lon="9.80415"><ele>29.0</ele><time>2026-04-14T14:27:22.993Z</time></trkpt><trkpt lat="44.115665" lon="9.8042183"><ele>29.0</ele><time>2026-04-14T14:27:24.994Z</time></trkpt><trkpt lat="44.11558" lon="9.8042783"><ele>28.799999999999997</ele><time>2026-04-14T14:27:26.994Z</time></trkpt><trkpt lat="44.1154867" lon="9.8043467"><ele>28.599999999999998</ele><time>2026-04-14T14:27:28.993Z</time></trkpt><trkpt lat="44.1154033" lon="9.80442"><ele>28.4</ele><time>2026-04-14T14:27:30.993Z</time></trkpt><trkpt lat="44.115325" lon="9.804495"><ele>28.2</ele><time>2026-04-14T14:27:32.993Z</time></trkpt><trkpt lat="44.1152317" lon="9.804575"><ele>28.0</ele><time>2026-04-14T14:27:34.993Z</time></trkpt><trkpt lat="44.1151383" lon="9.8046483"><ele>28.000000000000004</ele><time>2026-04-14T14:27:36.994Z</time></trkpt><trkpt lat="44.1150567" lon="9.804715"><ele>28.0</ele><time>2026-04-14T14:27:38.994Z</time></trkpt><trkpt lat="44.1149833" lon="9.8047833"><ele>28.0</ele><time>2026-04-14T14:27:40.993Z</time></trkpt><trkpt lat="44.1149083" lon="9.8048483"><ele>28.0</ele><time>2026-04-14T14:27:42.994Z</time></trkpt><trkpt lat="44.114855" lon="9.80494"><ele>28.000000000000004</ele><time>2026-04-14T14:27:44.993Z</time></trkpt><trkpt lat="44.1148467" lon="9.8050467"><ele>28.0</ele><time>2026-04-14T14:27:46.993Z</time></trkpt><trkpt lat="44.114865" lon="9.8051517"><ele>28.166666666666668</ele><time>2026-04-14T14:27:48.993Z</time></trkpt><trkpt lat="44.1148867" lon="9.8052583"><ele>28.333333333333336</ele><time>2026-04-14T14:27:50.993Z</time></trkpt><trkpt lat="44.114915" lon="9.8053617"><ele>28.5</ele><time>2026-04-14T14:27:52.994Z</time></trkpt><trkpt lat="44.1149567" lon="9.8054583"><ele>28.666666666666664</ele><time>2026-04-14T14:27:54.993Z</time></trkpt><trkpt lat="44.115" lon="9.80555"><ele>28.833333333333332</ele><time>2026-04-14T14:27:56.993Z</time></trkpt><trkpt lat="44.11504" lon="9.8056483"><ele>29.0</ele><time>2026-04-14T14:27:58.993Z</time></trkpt><trkpt lat="44.1150783" lon="9.8057367"><ele>28.999999999999996</ele><time>2026-04-14T14:28:00.994Z</time></trkpt><trkpt lat="44.1151333" lon="9.8058217"><ele>29.0</ele><time>2026-04-14T14:28:02.993Z</time></trkpt><trkpt lat="44.1151917" lon="9.8059067"><ele>29.0</ele><time>2026-04-14T14:28:04.993Z</time></trkpt><trkpt lat="44.1152533" lon="9.8059867"><ele>29.0</ele><time>2026-04-14T14:28:06.993Z</time></trkpt><trkpt lat="44.1153067" lon="9.8060717"><ele>28.999999999999996</ele><time>2026-04-14T14:28:08.993Z</time></trkpt><trkpt lat="44.1153683" lon="9.8061383"><ele>29.0</ele><time>2026-04-14T14:28:10.993Z</time></trkpt><trkpt lat="44.11543" lon="9.8062083"><ele>30.571428571428577</ele><time>2026-04-14T14:28:12.994Z</time></trkpt><trkpt lat="44.11549" lon="9.80628"><ele>32.142857142857146</ele><time>2026-04-14T14:28:14.993Z</time></trkpt><trkpt lat="44.1155383" lon="9.8063583"><ele>33.714285714285715</ele><time>2026-04-14T14:28:16.993Z</time></trkpt><trkpt lat="44.1155883" lon="9.806425"><ele>35.28571428571429</ele><time>2026-04-14T14:28:18.993Z</time></trkpt><trkpt lat="44.1156367" lon="9.8064933"><ele>36.85714285714286</ele><time>2026-04-14T14:28:20.993Z</time></trkpt><trkpt lat="44.115685" lon="9.80657"><ele>38.42857142857143</ele><time>2026-04-14T14:28:22.993Z</time></trkpt><trkpt lat="44.1157133" lon="9.8066683"><ele>40.0</ele><time>2026-04-14T14:28:24.993Z</time></trkpt><trkpt lat="44.1157283" lon="9.8067817"><ele>40.5</ele><time>2026-04-14T14:28:26.994Z</time></trkpt><trkpt lat="44.115745" lon="9.8069"><ele>41.0</ele><time>2026-04-14T14:28:28.993Z</time></trkpt><trkpt lat="44.11575" lon="9.8070183"><ele>41.5</ele><time>2026-04-14T14:28:30.994Z</time></trkpt><trkpt lat="44.11574" lon="9.8071433"><ele>42.0</ele><time>2026-04-14T14:28:32.993Z</time></trkpt><trkpt lat="44.1157283" lon="9.8072717"><ele>42.5</ele><time>2026-04-14T14:28:34.993Z</time></trkpt><trkpt lat="44.1157033" lon="9.80739"><ele>43.0</ele><time>2026-04-14T14:28:36.993Z</time></trkpt><trkpt lat="44.11567" lon="9.8075017"><ele>43.0</ele><time>2026-04-14T14:28:38.993Z</time></trkpt><trkpt lat="44.1156383" lon="9.8076067"><ele>43.0</ele><time>2026-04-14T14:28:40.993Z</time></trkpt><trkpt lat="44.115585" lon="9.8076983"><ele>43.0</ele><time>2026-04-14T14:28:42.993Z</time></trkpt><trkpt lat="44.1155167" lon="9.8077517"><ele>43.0</ele><time>2026-04-14T14:28:44.993Z</time></trkpt><trkpt lat="44.1154367" lon="9.8077817"><ele>43.0</ele><time>2026-04-14T14:28:46.994Z</time></trkpt><trkpt lat="44.1153583" lon="9.8078117"><ele>43.0</ele><time>2026-04-14T14:28:48.993Z</time></trkpt><trkpt lat="44.115285" lon="9.8078267"><ele>41.28571428571429</ele><time>2026-04-14T14:28:50.993Z</time></trkpt><trkpt lat="44.1152067" lon="9.8078533"><ele>39.57142857142857</ele><time>2026-04-14T14:28:52.993Z</time></trkpt><trkpt lat="44.1151433" lon="9.8078767"><ele>37.85714285714286</ele><time>2026-04-14T14:28:54.993Z</time></trkpt><trkpt lat="44.1150717" lon="9.8078767"><ele>36.142857142857146</ele><time>2026-04-14T14:28:56.994Z</time></trkpt><trkpt lat="44.1150083" lon="9.807885"><ele>34.42857142857143</ele><time>2026-04-14T14:28:58.993Z</time></trkpt><trkpt lat="44.11494" lon="9.807905"><ele>32.714285714285715</ele><time>2026-04-14T14:29:00.993Z</time></trkpt><trkpt lat="44.1148733" lon="9.8079033"><ele>31.0</ele><time>2026-04-14T14:29:02.993Z</time></trkpt><trkpt lat="44.114795" lon="9.807855"><ele>30.166666666666668</ele><time>2026-04-14T14:29:05.993Z</time></trkpt><trkpt lat="44.1147383" lon="9.8078117"><ele>29.333333333333336</ele><time>2026-04-14T14:29:07.993Z</time></trkpt><trkpt lat="44.1146867" lon="9.8077433"><ele>28.5</ele><time>2026-04-14T14:29:09.993Z</time></trkpt><trkpt lat="44.1146283" lon="9.8076533"><ele>27.666666666666664</ele><time>2026-04-14T14:29:11.993Z</time></trkpt><trkpt lat="44.1145883" lon="9.8075467"><ele>26.833333333333332</ele><time>2026-04-14T14:29:13.993Z</time></trkpt><trkpt lat="44.11455" lon="9.8074533"><ele>26.0</ele><time>2026-04-14T14:29:15.993Z</time></trkpt><trkpt lat="44.1145017" lon="9.80736"><ele>27.666666666666664</ele><time>2026-04-14T14:29:17.993Z</time></trkpt><trkpt lat="44.114455" lon="9.807285"><ele>29.333333333333332</ele><time>2026-04-14T14:29:19.994Z</time></trkpt><trkpt lat="44.1144033" lon="9.8072267"><ele>31.0</ele><time>2026-04-14T14:29:21.993Z</time></trkpt><trkpt lat="44.1143383" lon="9.8071817"><ele>32.666666666666664</ele><time>2026-04-14T14:29:23.993Z</time></trkpt><trkpt lat="44.1142833" lon="9.8071183"><ele>34.333333333333336</ele><time>2026-04-14T14:29:25.993Z</time></trkpt><trkpt lat="44.1142233" lon="9.8070283"><ele>36.0</ele><time>2026-04-14T14:29:28.994Z</time></trkpt><trkpt lat="44.1141467" lon="9.806945"><ele>36.0</ele><time>2026-04-14T14:29:31.993Z</time></trkpt><trkpt lat="44.1140783" lon="9.8068867"><ele>36.0</ele><time>2026-04-14T14:29:33.993Z</time></trkpt><trkpt lat="44.1140033" lon="9.8068283"><ele>36.0</ele><time>2026-04-14T14:29:35.993Z</time></trkpt><trkpt lat="44.11393" lon="9.8067633"><ele>36.0</ele><time>2026-04-14T14:29:37.993Z</time></trkpt><trkpt lat="44.1138467" lon="9.8067"><ele>36.0</ele><time>2026-04-14T14:29:39.994Z</time></trkpt><trkpt lat="44.1137667" lon="9.80664"><ele>36.0</ele><time>2026-04-14T14:29:41.993Z</time></trkpt><trkpt lat="44.1137033" lon="9.80661"><ele>35.166666666666664</ele><time>2026-04-14T14:29:42.993Z</time></trkpt><trkpt lat="44.1136017" lon="9.80654"><ele>34.333333333333336</ele><time>2026-04-14T14:29:44.993Z</time></trkpt><trkpt lat="44.113495" lon="9.80647"><ele>33.5</ele><time>2026-04-14T14:29:46.994Z</time></trkpt><trkpt lat="44.113435" lon="9.806435"><ele>32.66666666666667</ele><time>2026-04-14T14:29:47.993Z</time></trkpt><trkpt lat="44.1133717" lon="9.8064017"><ele>31.833333333333336</ele><time>2026-04-14T14:29:48.993Z</time></trkpt><trkpt lat="44.1133133" lon="9.8063683"><ele>31.0</ele><time>2026-04-14T14:29:49.993Z</time></trkpt><trkpt lat="44.1131833" lon="9.8063533"><ele>31.0</ele><time>2026-04-14T14:29:51.993Z</time></trkpt><trkpt lat="44.11312" lon="9.806365"><ele>31.000000000000004</ele><time>2026-04-14T14:29:52.993Z</time></trkpt><trkpt lat="44.1130533" lon="9.8063917"><ele>31.0</ele><time>2026-04-14T14:29:53.993Z</time></trkpt><trkpt lat="44.1129883" lon="9.8064317"><ele>31.0</ele><time>2026-04-14T14:29:54.993Z</time></trkpt><trkpt lat="44.112925" lon="9.8064767"><ele>31.000000000000004</ele><time>2026-04-14T14:29:55.993Z</time></trkpt><trkpt lat="44.1128633" lon="9.8065317"><ele>31.0</ele><time>2026-04-14T14:29:56.993Z</time></trkpt><trkpt lat="44.1127967" lon="9.8065933"><ele>31.0</ele><time>2026-04-14T14:29:57.993Z</time></trkpt><trkpt lat="44.1127283" lon="9.8066283"><ele>31.000000000000004</ele><time>2026-04-14T14:29:58.994Z</time></trkpt><trkpt lat="44.112655" lon="9.8066833"><ele>31.0</ele><time>2026-04-14T14:29:59.993Z</time></trkpt><trkpt lat="44.11259" lon="9.8067333"><ele>31.0</ele><time>2026-04-14T14:30:00.993Z</time></trkpt><trkpt lat="44.11252" lon="9.8067767"><ele>31.0</ele><time>2026-04-14T14:30:01.993Z</time></trkpt><trkpt lat="44.1124567" lon="9.8068083"><ele>31.000000000000004</ele><time>2026-04-14T14:30:02.993Z</time></trkpt><trkpt lat="44.11238" lon="9.806835"><ele>31.0</ele><time>2026-04-14T14:30:03.993Z</time></trkpt><trkpt lat="44.112305" lon="9.8068467"><ele>30.0</ele><time>2026-04-14T14:30:04.993Z</time></trkpt><trkpt lat="44.112225" lon="9.8068483"><ele>29.000000000000004</ele><time>2026-04-14T14:30:05.993Z</time></trkpt><trkpt lat="44.112155" lon="9.806855"><ele>28.0</ele><time>2026-04-14T14:30:06.993Z</time></trkpt><trkpt lat="44.1120833" lon="9.80686"><ele>27.0</ele><time>2026-04-14T14:30:07.994Z</time></trkpt><trkpt lat="44.1120133" lon="9.8068583"><ele>26.0</ele><time>2026-04-14T14:30:08.993Z</time></trkpt><trkpt lat="44.1119383" lon="9.806845"><ele>25.0</ele><time>2026-04-14T14:30:09.994Z</time></trkpt><trkpt lat="44.1118633" lon="9.8068133"><ele>24.0</ele><time>2026-04-14T14:30:10.993Z</time></trkpt><trkpt lat="44.1117833" lon="9.8067733"><ele>24.0</ele><time>2026-04-14T14:30:11.993Z</time></trkpt><trkpt lat="44.1117133" lon="9.80673"><ele>24.0</ele><time>2026-04-14T14:30:12.993Z</time></trkpt><trkpt lat="44.1116483" lon="9.8066717"><ele>24.0</ele><time>2026-04-14T14:30:13.993Z</time></trkpt><trkpt lat="44.1115833" lon="9.806605"><ele>24.0</ele><time>2026-04-14T14:30:14.994Z</time></trkpt><trkpt lat="44.1115233" lon="9.80653"><ele>24.0</ele><time>2026-04-14T14:30:15.993Z</time></trkpt><trkpt lat="44.1114533" lon="9.80646"><ele>24.0</ele><time>2026-04-14T14:30:16.994Z</time></trkpt><trkpt lat="44.1113917" lon="9.8063817"><ele>23.5</ele><time>2026-04-14T14:30:17.993Z</time></trkpt><trkpt lat="44.1113233" lon="9.806335"><ele>23.0</ele><time>2026-04-14T14:30:18.993Z</time></trkpt><trkpt lat="44.111245" lon="9.806295"><ele>22.5</ele><time>2026-04-14T14:30:19.993Z</time></trkpt><trkpt lat="44.1111667" lon="9.80626"><ele>22.0</ele><time>2026-04-14T14:30:20.993Z</time></trkpt><trkpt lat="44.111085" lon="9.806255"><ele>21.5</ele><time>2026-04-14T14:30:21.993Z</time></trkpt><trkpt lat="44.11099" lon="9.8062633"><ele>21.0</ele><time>2026-04-14T14:30:22.993Z</time></trkpt><trkpt lat="44.110895" lon="9.80629"><ele>21.0</ele><time>2026-04-14T14:30:23.993Z</time></trkpt><trkpt lat="44.1108233" lon="9.8063383"><ele>21.0</ele><time>2026-04-14T14:30:24.993Z</time></trkpt><trkpt lat="44.1107617" lon="9.806415"><ele>21.0</ele><time>2026-04-14T14:30:25.993Z</time></trkpt><trkpt lat="44.1106967" lon="9.8065033"><ele>21.0</ele><time>2026-04-14T14:30:26.993Z</time></trkpt><trkpt lat="44.11063" lon="9.8065967"><ele>21.0</ele><time>2026-04-14T14:30:27.993Z</time></trkpt><trkpt lat="44.11056" lon="9.8066717"><ele>21.0</ele><time>2026-04-14T14:30:28.993Z</time></trkpt><trkpt lat="44.1104783" lon="9.806705"><ele>20.666666666666668</ele><time>2026-04-14T14:30:29.993Z</time></trkpt><trkpt lat="44.1103983" lon="9.8067233"><ele>20.333333333333332</ele><time>2026-04-14T14:30:30.993Z</time></trkpt><trkpt lat="44.11032" lon="9.8067133"><ele>20.0</ele><time>2026-04-14T14:30:31.994Z</time></trkpt><trkpt lat="44.1102383" lon="9.8066917"><ele>19.666666666666664</ele><time>2026-04-14T14:30:32.993Z</time></trkpt><trkpt lat="44.1101617" lon="9.80665"><ele>19.333333333333332</ele><time>2026-04-14T14:30:33.993Z</time></trkpt><trkpt lat="44.110085" lon="9.8065967"><ele>19.0</ele><time>2026-04-14T14:30:34.993Z</time></trkpt><trkpt lat="44.11001" lon="9.8065433"><ele>19.0</ele><time>2026-04-14T14:30:35.993Z</time></trkpt><trkpt lat="44.109935" lon="9.80649"><ele>19.0</ele><time>2026-04-14T14:30:36.993Z</time></trkpt><trkpt lat="44.1098533" lon="9.8064267"><ele>19.0</ele><time>2026-04-14T14:30:37.993Z</time></trkpt><trkpt lat="44.1097783" lon="9.80636"><ele>19.0</ele><time>2026-04-14T14:30:38.993Z</time></trkpt><trkpt lat="44.1097017" lon="9.8062883"><ele>19.0</ele><time>2026-04-14T14:30:39.994Z</time></trkpt><trkpt lat="44.10963" lon="9.80622"><ele>19.0</ele><time>2026-04-14T14:30:40.993Z</time></trkpt><trkpt lat="44.1095583" lon="9.8061467"><ele>18.333333333333332</ele><time>2026-04-14T14:30:41.993Z</time></trkpt><trkpt lat="44.1094867" lon="9.80608"><ele>17.666666666666664</ele><time>2026-04-14T14:30:42.993Z</time></trkpt><trkpt lat="44.109415" lon="9.8060117"><ele>17.0</ele><time>2026-04-14T14:30:43.993Z</time></trkpt><trkpt lat="44.10935" lon="9.805935"><ele>16.333333333333332</ele><time>2026-04-14T14:30:44.993Z</time></trkpt><trkpt lat="44.1092867" lon="9.80587"><ele>15.666666666666666</ele><time>2026-04-14T14:30:45.993Z</time></trkpt><trkpt lat="44.1092217" lon="9.80582"><ele>15.0</ele><time>2026-04-14T14:30:46.993Z</time></trkpt><trkpt lat="44.10916" lon="9.8057733"><ele>15.0</ele><time>2026-04-14T14:30:47.993Z</time></trkpt><trkpt lat="44.1090733" lon="9.80567"><ele>15.0</ele><time>2026-04-14T14:30:49.993Z</time></trkpt><trkpt lat="44.1090267" lon="9.8055517"><ele>15.0</ele><time>2026-04-14T14:30:51.994Z</time></trkpt><trkpt lat="44.1090583" lon="9.8054233"><ele>15.0</ele><time>2026-04-14T14:30:53.993Z</time></trkpt><trkpt lat="44.1091367" lon="9.8053317"><ele>15.0</ele><time>2026-04-14T14:30:55.994Z</time></trkpt><trkpt lat="44.10921" lon="9.8052317"><ele>15.0</ele><time>2026-04-14T14:30:57.993Z</time></trkpt><trkpt lat="44.1092633" lon="9.80513"><ele>15.0</ele><time>2026-04-14T14:30:59.993Z</time></trkpt><trkpt lat="44.1093067" lon="9.8050233"><ele>15.0</ele><time>2026-04-14T14:31:01.993Z</time></trkpt><trkpt lat="44.1093467" lon="9.8049183"><ele>15.0</ele><time>2026-04-14T14:31:03.994Z</time></trkpt><trkpt lat="44.1093967" lon="9.8048333"><ele>15.0</ele><time>2026-04-14T14:31:05.993Z</time></trkpt><trkpt lat="44.109435" lon="9.8047417"><ele>15.0</ele><time>2026-04-14T14:31:07.994Z</time></trkpt><trkpt lat="44.1095033" lon="9.8046383"><ele>15.0</ele><time>2026-04-14T14:31:09.993Z</time></trkpt><trkpt lat="44.1095733" lon="9.8045167"><ele>15.0</ele><time>2026-04-14T14:31:11.993Z</time></trkpt><trkpt lat="44.1096467" lon="9.80439"><ele>15.0</ele><time>2026-04-14T14:31:13.993Z</time></trkpt><trkpt lat="44.10972" lon="9.8042817"><ele>15.0</ele><time>2026-04-14T14:31:15.994Z</time></trkpt><trkpt lat="44.1097983" lon="9.8041833"><ele>15.0</ele><time>2026-04-14T14:31:17.993Z</time></trkpt><trkpt lat="44.1098667" lon="9.804065"><ele>15.0</ele><time>2026-04-14T14:31:19.993Z</time></trkpt><trkpt lat="44.1099317" lon="9.8039383"><ele>15.0</ele><time>2026-04-14T14:31:21.993Z</time></trkpt><trkpt lat="44.1099883" lon="9.8038083"><ele>15.0</ele><time>2026-04-14T14:31:23.994Z</time></trkpt><trkpt lat="44.110045" lon="9.803675"><ele>15.0</ele><time>2026-04-14T14:31:25.993Z</time></trkpt><trkpt lat="44.1100883" lon="9.80353"><ele>15.0</ele><time>2026-04-14T14:31:27.993Z</time></trkpt><trkpt lat="44.1101333" lon="9.803395"><ele>14.8</ele><time>2026-04-14T14:31:29.994Z</time></trkpt><trkpt lat="44.11019" lon="9.8032767"><ele>14.6</ele><time>2026-04-14T14:31:31.994Z</time></trkpt><trkpt lat="44.1102617" lon="9.8031533"><ele>14.399999999999999</ele><time>2026-04-14T14:31:33.994Z</time></trkpt><trkpt lat="44.11033" lon="9.80304"><ele>14.2</ele><time>2026-04-14T14:31:35.993Z</time></trkpt><trkpt lat="44.1103933" lon="9.8029317"><ele>14.0</ele><time>2026-04-14T14:31:37.993Z</time></trkpt><trkpt lat="44.110455" lon="9.8028183"><ele>14.0</ele><time>2026-04-14T14:31:39.993Z</time></trkpt><trkpt lat="44.11053" lon="9.802695"><ele>13.999999999999998</ele><time>2026-04-14T14:31:41.993Z</time></trkpt><trkpt lat="44.1105883" lon="9.8025717"><ele>13.999999999999998</ele><time>2026-04-14T14:31:43.993Z</time></trkpt><trkpt lat="44.1106517" lon="9.8024617"><ele>14.0</ele><time>2026-04-14T14:31:45.993Z</time></trkpt><trkpt lat="44.1107183" lon="9.802345"><ele>14.0</ele><time>2026-04-14T14:31:47.993Z</time></trkpt><trkpt lat="44.1107917" lon="9.8022467"><ele>14.799999999999999</ele><time>2026-04-14T14:31:49.993Z</time></trkpt><trkpt lat="44.1108783" lon="9.802155"><ele>15.599999999999998</ele><time>2026-04-14T14:31:51.993Z</time></trkpt><trkpt lat="44.1109733" lon="9.8020867"><ele>16.4</ele><time>2026-04-14T14:31:53.994Z</time></trkpt><trkpt lat="44.1110717" lon="9.8020333"><ele>17.2</ele><time>2026-04-14T14:31:55.993Z</time></trkpt><trkpt lat="44.111175" lon="9.8019967"><ele>18.0</ele><time>2026-04-14T14:31:57.993Z</time></trkpt><trkpt lat="44.111275" lon="9.8019767"><ele>18.0</ele><time>2026-04-14T14:31:59.993Z</time></trkpt><trkpt lat="44.1113683" lon="9.8019733"><ele>18.0</ele><time>2026-04-14T14:32:01.993Z</time></trkpt><trkpt lat="44.111465" lon="9.80197"><ele>18.0</ele><time>2026-04-14T14:32:03.994Z</time></trkpt><trkpt lat="44.11156" lon="9.802"><ele>18.0</ele><time>2026-04-14T14:32:05.993Z</time></trkpt><trkpt lat="44.111655" lon="9.80205"><ele>18.0</ele><time>2026-04-14T14:32:07.993Z</time></trkpt><trkpt lat="44.111755" lon="9.8020967"><ele>18.4</ele><time>2026-04-14T14:32:09.993Z</time></trkpt><trkpt lat="44.1118683" lon="9.8021267"><ele>18.8</ele><time>2026-04-14T14:32:11.993Z</time></trkpt><trkpt lat="44.11196" lon="9.8021767"><ele>19.2</ele><time>2026-04-14T14:32:13.993Z</time></trkpt><trkpt lat="44.1120483" lon="9.8022233"><ele>19.6</ele><time>2026-04-14T14:32:15.994Z</time></trkpt><trkpt lat="44.112135" lon="9.80228"><ele>20.0</ele><time>2026-04-14T14:32:17.993Z</time></trkpt><trkpt lat="44.1122167" lon="9.802345"><ele>20.0</ele><time>2026-04-14T14:32:19.994Z</time></trkpt><trkpt lat="44.1122833" lon="9.8023883"><ele>20.0</ele><time>2026-04-14T14:32:21.993Z</time></trkpt><trkpt lat="44.1123583" lon="9.80243"><ele>20.0</ele><time>2026-04-14T14:32:23.993Z</time></trkpt><trkpt lat="44.1124433" lon="9.8024733"><ele>20.0</ele><time>2026-04-14T14:32:25.994Z</time></trkpt><trkpt lat="44.1125333" lon="9.80251"><ele>20.0</ele><time>2026-04-14T14:32:27.994Z</time></trkpt><trkpt lat="44.1126267" lon="9.8025517"><ele>20.0</ele><time>2026-04-14T14:32:29.993Z</time></trkpt><trkpt lat="44.1127033" lon="9.8025883"><ele>20.2</ele><time>2026-04-14T14:32:31.993Z</time></trkpt><trkpt lat="44.1127983" lon="9.8026117"><ele>20.4</ele><time>2026-04-14T14:32:33.993Z</time></trkpt><trkpt lat="44.112895" lon="9.8026417"><ele>20.6</ele><time>2026-04-14T14:32:35.993Z</time></trkpt><trkpt lat="44.112985" lon="9.8026817"><ele>20.8</ele><time>2026-04-14T14:32:37.994Z</time></trkpt><trkpt lat="44.1130883" lon="9.802705"><ele>21.0</ele><time>2026-04-14T14:32:39.993Z</time></trkpt><trkpt lat="44.11319" lon="9.802725"><ele>21.8</ele><time>2026-04-14T14:32:41.994Z</time></trkpt><trkpt lat="44.1132883" lon="9.8027417"><ele>22.6</ele><time>2026-04-14T14:32:43.993Z</time></trkpt><trkpt lat="44.1133817" lon="9.8027583"><ele>23.4</ele><time>2026-04-14T14:32:45.993Z</time></trkpt><trkpt lat="44.1134767" lon="9.8027567"><ele>24.2</ele><time>2026-04-14T14:32:47.993Z</time></trkpt><trkpt lat="44.113575" lon="9.8027617"><ele>25.0</ele><time>2026-04-14T14:32:49.993Z</time></trkpt><trkpt lat="44.1136733" lon="9.80276"><ele>25.0</ele><time>2026-04-14T14:32:51.993Z</time></trkpt><trkpt lat="44.11378" lon="9.8027717"><ele>25.0</ele><time>2026-04-14T14:32:53.993Z</time></trkpt><trkpt lat="44.1138917" lon="9.802795"><ele>25.0</ele><time>2026-04-14T14:32:55.993Z</time></trkpt><trkpt lat="44.1139867" lon="9.8028367"><ele>25.0</ele><time>2026-04-14T14:32:57.994Z</time></trkpt><trkpt lat="44.1140583" lon="9.8028767"><ele>25.0</ele><time>2026-04-14T14:32:59.993Z</time></trkpt><trkpt lat="44.11413" lon="9.8028917"><ele>25.0</ele><time>2026-04-14T14:33:01.994Z</time></trkpt><trkpt lat="44.1142233" lon="9.8029067"><ele>25.0</ele><time>2026-04-14T14:33:03.993Z</time></trkpt><trkpt lat="44.1143167" lon="9.8029333"><ele>25.0</ele><time>2026-04-14T14:33:05.993Z</time></trkpt><trkpt lat="44.1144167" lon="9.8029733"><ele>25.0</ele><time>2026-04-14T14:33:07.994Z</time></trkpt><trkpt lat="44.1145083" lon="9.803015"><ele>25.0</ele><time>2026-04-14T14:33:09.993Z</time></trkpt><trkpt lat="44.114595" lon="9.803065"><ele>25.0</ele><time>2026-04-14T14:33:11.993Z</time></trkpt><trkpt lat="44.114685" lon="9.80312"><ele>25.0</ele><time>2026-04-14T14:33:13.993Z</time></trkpt><trkpt lat="44.1147667" lon="9.803185"><ele>25.0</ele><time>2026-04-14T14:33:15.993Z</time></trkpt><trkpt lat="44.1148367" lon="9.803235"><ele>25.0</ele><time>2026-04-14T14:33:17.993Z</time></trkpt><trkpt lat="44.114935" lon="9.80325"><ele>25.0</ele><time>2026-04-14T14:33:19.993Z</time></trkpt><trkpt lat="44.1150267" lon="9.8032917"><ele>25.4</ele><time>2026-04-14T14:33:21.994Z</time></trkpt><trkpt lat="44.11512" lon="9.803355"><ele>25.8</ele><time>2026-04-14T14:33:23.994Z</time></trkpt><trkpt lat="44.11521" lon="9.8034133"><ele>26.200000000000003</ele><time>2026-04-14T14:33:25.993Z</time></trkpt><trkpt lat="44.1153" lon="9.8034667"><ele>26.6</ele><time>2026-04-14T14:33:27.993Z</time></trkpt><trkpt lat="44.115395" lon="9.8035283"><ele>27.0</ele><time>2026-04-14T14:33:29.992Z</time></trkpt><trkpt lat="44.115475" lon="9.80359"><ele>27.0</ele><time>2026-04-14T14:33:31.993Z</time></trkpt><trkpt lat="44.1155483" lon="9.80364"><ele>27.000000000000004</ele><time>2026-04-14T14:33:33.993Z</time></trkpt><trkpt lat="44.1156467" lon="9.8036583"><ele>27.000000000000004</ele><time>2026-04-14T14:33:35.993Z</time></trkpt><trkpt lat="44.1157383" lon="9.8036617"><ele>27.0</ele><time>2026-04-14T14:33:37.992Z</time></trkpt><trkpt lat="44.1158383" lon="9.803665"><ele>27.0</ele><time>2026-04-14T14:33:39.993Z</time></trkpt><trkpt lat="44.115935" lon="9.80366"><ele>27.333333333333332</ele><time>2026-04-14T14:33:41.993Z</time></trkpt><trkpt lat="44.116025" lon="9.8036567"><ele>27.666666666666664</ele><time>2026-04-14T14:33:43.993Z</time></trkpt><trkpt lat="44.1161067" lon="9.8036517"><ele>28.0</ele><time>2026-04-14T14:33:45.992Z</time></trkpt><trkpt lat="44.1161917" lon="9.8036133"><ele>28.333333333333332</ele><time>2026-04-14T14:33:47.993Z</time></trkpt><trkpt lat="44.11628" lon="9.8035833"><ele>28.666666666666664</ele><time>2026-04-14T14:33:49.992Z</time></trkpt><trkpt lat="44.1163717" lon="9.8035383"><ele>29.0</ele><time>2026-04-14T14:33:51.993Z</time></trkpt><trkpt lat="44.11645" lon="9.803515"><ele>28.999999999999996</ele><time>2026-04-14T14:33:53.992Z</time></trkpt><trkpt lat="44.11654" lon="9.80352"><ele>29.0</ele><time>2026-04-14T14:33:55.992Z</time></trkpt><trkpt lat="44.11661" lon="9.803485"><ele>29.0</ele><time>2026-04-14T14:33:57.992Z</time></trkpt><trkpt lat="44.1166533" lon="9.8034017"><ele>29.0</ele><time>2026-04-14T14:33:59.992Z</time></trkpt><trkpt lat="44.11669" lon="9.803285"><ele>28.999999999999996</ele><time>2026-04-14T14:34:01.992Z</time></trkpt><trkpt lat="44.11673" lon="9.8031817"><ele>29.0</ele><time>2026-04-14T14:34:03.992Z</time></trkpt><trkpt lat="44.116765" lon="9.803065"><ele>29.666666666666664</ele><time>2026-04-14T14:34:05.992Z</time></trkpt><trkpt lat="44.1168067" lon="9.8029667"><ele>30.333333333333332</ele><time>2026-04-14T14:34:07.992Z</time></trkpt><trkpt lat="44.116865" lon="9.8029133"><ele>31.0</ele><time>2026-04-14T14:34:09.992Z</time></trkpt><trkpt lat="44.11696" lon="9.8028833"><ele>31.666666666666664</ele><time>2026-04-14T14:34:11.993Z</time></trkpt><trkpt lat="44.11704" lon="9.8028317"><ele>32.333333333333336</ele><time>2026-04-14T14:34:13.992Z</time></trkpt><trkpt lat="44.11712" lon="9.8027833"><ele>33.0</ele><time>2026-04-14T14:34:15.992Z</time></trkpt><trkpt lat="44.1171933" lon="9.8027083"><ele>33.8</ele><time>2026-04-14T14:34:17.992Z</time></trkpt><trkpt lat="44.1172783" lon="9.802655"><ele>34.599999999999994</ele><time>2026-04-14T14:34:19.992Z</time></trkpt><trkpt lat="44.11736" lon="9.8026133"><ele>35.400000000000006</ele><time>2026-04-14T14:34:21.993Z</time></trkpt><trkpt lat="44.1174383" lon="9.802555"><ele>36.2</ele><time>2026-04-14T14:34:23.992Z</time></trkpt><trkpt lat="44.1175217" lon="9.8024917"><ele>37.0</ele><time>2026-04-14T14:34:25.992Z</time></trkpt><trkpt lat="44.1176017" lon="9.80244"><ele>37.0</ele><time>2026-04-14T14:34:27.992Z</time></trkpt><trkpt lat="44.1176783" lon="9.80239"><ele>37.0</ele><time>2026-04-14T14:34:29.992Z</time></trkpt><trkpt lat="44.1177533" lon="9.8023283"><ele>37.0</ele><time>2026-04-14T14:34:31.992Z</time></trkpt><trkpt lat="44.11784" lon="9.8022733"><ele>37.0</ele><time>2026-04-14T14:34:33.992Z</time></trkpt><trkpt lat="44.11792" lon="9.8022233"><ele>37.0</ele><time>2026-04-14T14:34:35.993Z</time></trkpt><trkpt lat="44.1179983" lon="9.80218"><ele>37.0</ele><time>2026-04-14T14:34:37.992Z</time></trkpt><trkpt lat="44.11807" lon="9.8021383"><ele>37.0</ele><time>2026-04-14T14:34:39.992Z</time></trkpt><trkpt lat="44.11815" lon="9.80209"><ele>37.0</ele><time>2026-04-14T14:34:41.992Z</time></trkpt><trkpt lat="44.1182267" lon="9.8020417"><ele>37.0</ele><time>2026-04-14T14:34:43.993Z</time></trkpt><trkpt lat="44.1183" lon="9.8019933"><ele>37.0</ele><time>2026-04-14T14:34:45.992Z</time></trkpt><trkpt lat="44.11838" lon="9.8019433"><ele>37.0</ele><time>2026-04-14T14:34:47.992Z</time></trkpt><trkpt lat="44.118455" lon="9.801895"><ele>37.0</ele><time>2026-04-14T14:34:49.992Z</time></trkpt><trkpt lat="44.11853" lon="9.8018633"><ele>37.833333333333336</ele><time>2026-04-14T14:34:51.992Z</time></trkpt><trkpt lat="44.1185983" lon="9.8018233"><ele>38.66666666666667</ele><time>2026-04-14T14:34:53.993Z</time></trkpt><trkpt lat="44.118685" lon="9.801775"><ele>39.5</ele><time>2026-04-14T14:34:56.992Z</time></trkpt><trkpt lat="44.1187467" lon="9.801725"><ele>40.333333333333336</ele><time>2026-04-14T14:35:00.992Z</time></trkpt><trkpt lat="44.1188017" lon="9.8016483"><ele>41.166666666666664</ele><time>2026-04-14T14:35:03.993Z</time></trkpt><trkpt lat="44.1188567" lon="9.8015917"><ele>42.0</ele><time>2026-04-14T14:35:05.993Z</time></trkpt><trkpt lat="44.1189283" lon="9.8015383"><ele>42.0</ele><time>2026-04-14T14:35:07.992Z</time></trkpt><trkpt lat="44.11901" lon="9.8014767"><ele>42.0</ele><time>2026-04-14T14:35:09.993Z</time></trkpt><trkpt lat="44.119095" lon="9.8014183"><ele>42.0</ele><time>2026-04-14T14:35:11.992Z</time></trkpt><trkpt lat="44.1191783" lon="9.801365"><ele>42.0</ele><time>2026-04-14T14:35:13.992Z</time></trkpt><trkpt lat="44.1192583" lon="9.801315"><ele>42.0</ele><time>2026-04-14T14:35:15.992Z</time></trkpt><trkpt lat="44.1193317" lon="9.8012617"><ele>41.5</ele><time>2026-04-14T14:35:17.992Z</time></trkpt><trkpt lat="44.1194033" lon="9.8012"><ele>41.0</ele><time>2026-04-14T14:35:19.992Z</time></trkpt><trkpt lat="44.1194667" lon="9.8011383"><ele>40.5</ele><time>2026-04-14T14:35:21.992Z</time></trkpt><trkpt lat="44.11954" lon="9.8010867"><ele>40.0</ele><time>2026-04-14T14:35:23.992Z</time></trkpt><trkpt lat="44.1196183" lon="9.8010433"><ele>39.5</ele><time>2026-04-14T14:35:25.992Z</time></trkpt><trkpt lat="44.1196917" lon="9.8009933"><ele>39.0</ele><time>2026-04-14T14:35:27.992Z</time></trkpt><trkpt lat="44.1197683" lon="9.800955"><ele>40.0</ele><time>2026-04-14T14:35:29.992Z</time></trkpt><trkpt lat="44.1198467" lon="9.80092"><ele>41.0</ele><time>2026-04-14T14:35:31.992Z</time></trkpt><trkpt lat="44.119925" lon="9.8008867"><ele>42.0</ele><time>2026-04-14T14:35:33.992Z</time></trkpt><trkpt lat="44.119995" lon="9.8008483"><ele>43.0</ele><time>2026-04-14T14:35:35.993Z</time></trkpt><trkpt lat="44.1200717" lon="9.8007883"><ele>44.0</ele><time>2026-04-14T14:35:37.993Z</time></trkpt><trkpt lat="44.1201483" lon="9.8007367"><ele>45.0</ele><time>2026-04-14T14:35:39.993Z</time></trkpt><trkpt lat="44.1202167" lon="9.8006983"><ele>45.0</ele><time>2026-04-14T14:35:41.992Z</time></trkpt><trkpt lat="44.1203067" lon="9.8006617"><ele>45.0</ele><time>2026-04-14T14:35:43.992Z</time></trkpt><trkpt lat="44.1203833" lon="9.8006117"><ele>45.0</ele><time>2026-04-14T14:35:45.992Z</time></trkpt><trkpt lat="44.120465" lon="9.8005217"><ele>45.0</ele><time>2026-04-14T14:35:47.992Z</time></trkpt><trkpt lat="44.12054" lon="9.8004483"><ele>45.0</ele><time>2026-04-14T14:35:49.992Z</time></trkpt><trkpt lat="44.1206067" lon="9.8003933"><ele>45.0</ele><time>2026-04-14T14:35:51.992Z</time></trkpt><trkpt lat="44.12068" lon="9.8003667"><ele>45.0</ele><time>2026-04-14T14:35:53.992Z</time></trkpt><trkpt lat="44.1207517" lon="9.8003333"><ele>45.0</ele><time>2026-04-14T14:35:55.993Z</time></trkpt><trkpt lat="44.1208133" lon="9.80029"><ele>45.0</ele><time>2026-04-14T14:35:57.993Z</time></trkpt><trkpt lat="44.1208617" lon="9.8002333"><ele>45.0</ele><time>2026-04-14T14:35:59.993Z</time></trkpt><trkpt lat="44.1209067" lon="9.800155"><ele>45.0</ele><time>2026-04-14T14:36:01.992Z</time></trkpt><trkpt lat="44.1209617" lon="9.8000767"><ele>45.0</ele><time>2026-04-14T14:36:03.992Z</time></trkpt><trkpt lat="44.1210367" lon="9.8000333"><ele>45.666666666666664</ele><time>2026-04-14T14:36:05.992Z</time></trkpt><trkpt lat="44.12112" lon="9.80003"><ele>46.33333333333333</ele><time>2026-04-14T14:36:07.992Z</time></trkpt><trkpt lat="44.121205" lon="9.80004"><ele>47.0</ele><time>2026-04-14T14:36:09.992Z</time></trkpt><trkpt lat="44.1213017" lon="9.8000317"><ele>47.666666666666664</ele><time>2026-04-14T14:36:11.993Z</time></trkpt><trkpt lat="44.1213833" lon="9.8000433"><ele>48.33333333333333</ele><time>2026-04-14T14:36:13.993Z</time></trkpt><trkpt lat="44.12147" lon="9.8000617"><ele>49.0</ele><time>2026-04-14T14:36:15.992Z</time></trkpt><trkpt lat="44.1215483" lon="9.8000583"><ele>49.33333333333333</ele><time>2026-04-14T14:36:17.992Z</time></trkpt><trkpt lat="44.12163" lon="9.8000433"><ele>49.666666666666664</ele><time>2026-04-14T14:36:19.992Z</time></trkpt><trkpt lat="44.1217117" lon="9.8000333"><ele>50.0</ele><time>2026-04-14T14:36:21.993Z</time></trkpt><trkpt lat="44.1217983" lon="9.8000283"><ele>50.33333333333333</ele><time>2026-04-14T14:36:23.993Z</time></trkpt><trkpt lat="44.1218817" lon="9.8000267"><ele>50.666666666666664</ele><time>2026-04-14T14:36:25.992Z</time></trkpt><trkpt lat="44.1219633" lon="9.80003"><ele>51.0</ele><time>2026-04-14T14:36:27.992Z</time></trkpt><trkpt lat="44.122045" lon="9.8000367"><ele>51.0</ele><time>2026-04-14T14:36:29.992Z</time></trkpt><trkpt lat="44.122115" lon="9.8000367"><ele>51.0</ele><time>2026-04-14T14:36:31.992Z</time></trkpt><trkpt lat="44.122195" lon="9.8000417"><ele>51.0</ele><time>2026-04-14T14:36:33.992Z</time></trkpt><trkpt lat="44.1222733" lon="9.8000383"><ele>51.0</ele><time>2026-04-14T14:36:35.993Z</time></trkpt><trkpt lat="44.1223467" lon="9.800055"><ele>51.0</ele><time>2026-04-14T14:36:37.992Z</time></trkpt><trkpt lat="44.12242" lon="9.8000783"><ele>51.0</ele><time>2026-04-14T14:36:39.992Z</time></trkpt><trkpt lat="44.1224917" lon="9.8000817"><ele>51.42857142857143</ele><time>2026-04-14T14:36:41.993Z</time></trkpt><trkpt lat="44.1225567" lon="9.8000917"><ele>51.85714285714286</ele><time>2026-04-14T14:36:43.993Z</time></trkpt><trkpt lat="44.1226267" lon="9.80008"><ele>52.285714285714285</ele><time>2026-04-14T14:36:45.992Z</time></trkpt><trkpt lat="44.1226967" lon="9.8000733"><ele>52.714285714285715</ele><time>2026-04-14T14:36:47.992Z</time></trkpt><trkpt lat="44.1227967" lon="9.800065"><ele>53.14285714285714</ele><time>2026-04-14T14:36:50.992Z</time></trkpt><trkpt lat="44.1228733" lon="9.8000567"><ele>53.57142857142857</ele><time>2026-04-14T14:36:52.992Z</time></trkpt><trkpt lat="44.1229383" lon="9.8000467"><ele>54.0</ele><time>2026-04-14T14:36:54.992Z</time></trkpt><trkpt lat="44.1230067" lon="9.79998"><ele>54.0</ele><time>2026-04-14T14:36:57.992Z</time></trkpt><trkpt lat="44.12303" lon="9.7998667"><ele>54.0</ele><time>2026-04-14T14:37:00.992Z</time></trkpt><trkpt lat="44.1230183" lon="9.799755"><ele>54.0</ele><time>2026-04-14T14:37:03.992Z</time></trkpt><trkpt lat="44.12298" lon="9.79967"><ele>54.0</ele><time>2026-04-14T14:37:06.992Z</time></trkpt><trkpt lat="44.1229167" lon="9.799575"><ele>54.0</ele><time>2026-04-14T14:37:09.993Z</time></trkpt><trkpt lat="44.1228617" lon="9.7994767"><ele>54.0</ele><time>2026-04-14T14:37:12.992Z</time></trkpt><trkpt lat="44.1228133" lon="9.7993633"><ele>54.5</ele><time>2026-04-14T14:37:15.992Z</time></trkpt><trkpt lat="44.122765" lon="9.7992567"><ele>55.0</ele><time>2026-04-14T14:37:18.992Z</time></trkpt><trkpt lat="44.1227333" lon="9.79916"><ele>55.5</ele><time>2026-04-14T14:37:21.992Z</time></trkpt><trkpt lat="44.1226967" lon="9.79906"><ele>56.0</ele><time>2026-04-14T14:37:24.993Z</time></trkpt><trkpt lat="44.1226783" lon="9.7989367"><ele>56.5</ele><time>2026-04-14T14:37:27.992Z</time></trkpt><trkpt lat="44.1226633" lon="9.7988233"><ele>57.0</ele><time>2026-04-14T14:37:30.993Z</time></trkpt><trkpt lat="44.1226567" lon="9.7986983"><ele>57.0</ele><time>2026-04-14T14:37:33.992Z</time></trkpt><trkpt lat="44.122645" lon="9.7985767"><ele>57.0</ele><time>2026-04-14T14:37:36.992Z</time></trkpt><trkpt lat="44.12263" lon="9.79849"><ele>57.0</ele><time>2026-04-14T14:37:38.993Z</time></trkpt><trkpt lat="44.122605" lon="9.7983767"><ele>57.0</ele><time>2026-04-14T14:37:41.993Z</time></trkpt><trkpt lat="44.1225867" lon="9.7982533"><ele>57.0</ele><time>2026-04-14T14:37:44.992Z</time></trkpt><trkpt lat="44.1225633" lon="9.7981717"><ele>57.0</ele><time>2026-04-14T14:37:46.992Z</time></trkpt><trkpt lat="44.122535" lon="9.798085"><ele>58.0</ele><time>2026-04-14T14:37:48.993Z</time></trkpt><trkpt lat="44.122525" lon="9.7979633"><ele>59.0</ele><time>2026-04-14T14:37:51.992Z</time></trkpt><trkpt lat="44.12257" lon="9.7978633"><ele>60.0</ele><time>2026-04-14T14:37:54.992Z</time></trkpt><trkpt lat="44.12265" lon="9.7978367"><ele>61.0</ele><time>2026-04-14T14:37:57.992Z</time></trkpt><trkpt lat="44.122715" lon="9.79791"><ele>62.0</ele><time>2026-04-14T14:38:00.992Z</time></trkpt><trkpt lat="44.1227567" lon="9.7979867"><ele>63.0</ele><time>2026-04-14T14:38:02.992Z</time></trkpt><trkpt lat="44.1227933" lon="9.7980883"><ele>63.0</ele><time>2026-04-14T14:38:05.992Z</time></trkpt><trkpt lat="44.1228283" lon="9.79818"><ele>63.0</ele><time>2026-04-14T14:38:08.992Z</time></trkpt><trkpt lat="44.1228567" lon="9.79827"><ele>63.0</ele><time>2026-04-14T14:38:11.992Z</time></trkpt><trkpt lat="44.1228883" lon="9.798375"><ele>63.0</ele><time>2026-04-14T14:38:14.992Z</time></trkpt><trkpt lat="44.1229183" lon="9.7984617"><ele>63.0</ele><time>2026-04-14T14:38:17.992Z</time></trkpt><trkpt lat="44.1229467" lon="9.7985467"><ele>63.0</ele><time>2026-04-14T14:38:20.992Z</time></trkpt><trkpt lat="44.1229767" lon="9.7986567"><ele>63.0</ele><time>2026-04-14T14:38:23.992Z</time></trkpt><trkpt lat="44.1230117" lon="9.7987583"><ele>62.14285714285714</ele><time>2026-04-14T14:38:26.992Z</time></trkpt><trkpt lat="44.1230283" lon="9.7988533"><ele>61.285714285714285</ele><time>2026-04-14T14:38:29.992Z</time></trkpt><trkpt lat="44.12308" lon="9.7989133"><ele>60.42857142857143</ele><time>2026-04-14T14:38:33.993Z</time></trkpt><trkpt lat="44.123145" lon="9.7988733"><ele>59.57142857142857</ele><time>2026-04-14T14:38:36.992Z</time></trkpt><trkpt lat="44.1232083" lon="9.7988167"><ele>58.71428571428571</ele><time>2026-04-14T14:38:39.992Z</time></trkpt><trkpt lat="44.1232383" lon="9.7987383"><ele>57.857142857142854</ele><time>2026-04-14T14:38:42.992Z</time></trkpt><trkpt lat="44.1232517" lon="9.7986083"><ele>57.0</ele><time>2026-04-14T14:38:45.993Z</time></trkpt><trkpt lat="44.1232517" lon="9.79848"><ele>58.0</ele><time>2026-04-14T14:38:48.992Z</time></trkpt><trkpt lat="44.1232483" lon="9.7983767"><ele>59.0</ele><time>2026-04-14T14:38:51.992Z</time></trkpt><trkpt lat="44.123225" lon="9.79827"><ele>60.0</ele><time>2026-04-14T14:38:54.992Z</time></trkpt><trkpt lat="44.1231883" lon="9.79816"><ele>61.0</ele><time>2026-04-14T14:38:57.993Z</time></trkpt><trkpt lat="44.1231233" lon="9.7980833"><ele>62.0</ele><time>2026-04-14T14:39:01.993Z</time></trkpt><trkpt lat="44.1230383" lon="9.7980333"><ele>63.0</ele><time>2026-04-14T14:39:04.992Z</time></trkpt><trkpt lat="44.1229617" lon="9.7979717"><ele>63.0</ele><time>2026-04-14T14:39:07.992Z</time></trkpt><trkpt lat="44.1228983" lon="9.7978817"><ele>63.0</ele><time>2026-04-14T14:39:10.993Z</time></trkpt><trkpt lat="44.12289" lon="9.7977733"><ele>63.0</ele><time>2026-04-14T14:39:12.992Z</time></trkpt><trkpt lat="44.12292" lon="9.7976817"><ele>63.0</ele><time>2026-04-14T14:39:14.992Z</time></trkpt><trkpt lat="44.1229917" lon="9.7976083"><ele>63.0</ele><time>2026-04-14T14:39:17.993Z</time></trkpt><trkpt lat="44.1230783" lon="9.7976117"><ele>63.0</ele><time>2026-04-14T14:39:20.992Z</time></trkpt><trkpt lat="44.1231417" lon="9.79768"><ele>63.0</ele><time>2026-04-14T14:39:23.992Z</time></trkpt><trkpt lat="44.1232133" lon="9.797755"><ele>63.0</ele><time>2026-04-14T14:39:26.992Z</time></trkpt><trkpt lat="44.1232733" lon="9.797835"><ele>63.0</ele><time>2026-04-14T14:39:29.992Z</time></trkpt><trkpt lat="44.1233233" lon="9.7979067"><ele>63.0</ele><time>2026-04-14T14:39:32.992Z</time></trkpt><trkpt lat="44.1233833" lon="9.797995"><ele>63.0</ele><time>2026-04-14T14:39:35.992Z</time></trkpt><trkpt lat="44.123445" lon="9.798085"><ele>63.0</ele><time>2026-04-14T14:39:38.992Z</time></trkpt><trkpt lat="44.123495" lon="9.7981933"><ele>64.57142857142857</ele><time>2026-04-14T14:39:41.992Z</time></trkpt><trkpt lat="44.1235367" lon="9.79826"><ele>66.14285714285714</ele><time>2026-04-14T14:39:43.992Z</time></trkpt><trkpt lat="44.1235833" lon="9.7983383"><ele>67.71428571428572</ele><time>2026-04-14T14:39:46.993Z</time></trkpt><trkpt lat="44.123645" lon="9.7983683"><ele>69.28571428571428</ele><time>2026-04-14T14:39:48.992Z</time></trkpt><trkpt lat="44.1236817" lon="9.7984483"><ele>70.85714285714286</ele><time>2026-04-14T14:39:51.992Z</time></trkpt><trkpt lat="44.1237333" lon="9.7985033"><ele>72.42857142857143</ele><time>2026-04-14T14:39:54.992Z</time></trkpt><trkpt lat="44.1238033" lon="9.7984817"><ele>74.0</ele><time>2026-04-14T14:39:57.992Z</time></trkpt><trkpt lat="44.1238683" lon="9.7984383"><ele>75.66666666666667</ele><time>2026-04-14T14:40:00.992Z</time></trkpt><trkpt lat="44.123895" lon="9.7983517"><ele>77.33333333333334</ele><time>2026-04-14T14:40:03.992Z</time></trkpt><trkpt lat="44.12387" lon="9.7982483"><ele>79.0</ele><time>2026-04-14T14:40:07.991Z</time></trkpt><trkpt lat="44.123825" lon="9.7981633"><ele>80.66666666666667</ele><time>2026-04-14T14:40:10.991Z</time></trkpt><trkpt lat="44.123775" lon="9.7980717"><ele>82.33333333333333</ele><time>2026-04-14T14:40:13.991Z</time></trkpt><trkpt lat="44.1237333" lon="9.7979583"><ele>84.0</ele><time>2026-04-14T14:40:16.991Z</time></trkpt><trkpt lat="44.1237" lon="9.7978583"><ele>84.0</ele><time>2026-04-14T14:40:19.991Z</time></trkpt><trkpt lat="44.1236783" lon="9.7977517"><ele>84.0</ele><time>2026-04-14T14:40:22.991Z</time></trkpt><trkpt lat="44.1236633" lon="9.7976383"><ele>84.0</ele><time>2026-04-14T14:40:25.991Z</time></trkpt><trkpt lat="44.1236583" lon="9.79754"><ele>84.0</ele><time>2026-04-14T14:40:28.991Z</time></trkpt><trkpt lat="44.1236583" lon="9.79744"><ele>84.0</ele><time>2026-04-14T14:40:31.991Z</time></trkpt><trkpt lat="44.1236667" lon="9.797345"><ele>84.0</ele><time>2026-04-14T14:40:34.991Z</time></trkpt><trkpt lat="44.1236783" lon="9.7972517"><ele>84.0</ele><time>2026-04-14T14:40:37.991Z</time></trkpt><trkpt lat="44.1237033" lon="9.7971533"><ele>84.71428571428571</ele><time>2026-04-14T14:40:40.991Z</time></trkpt><trkpt lat="44.1237233" lon="9.7970633"><ele>85.42857142857143</ele><time>2026-04-14T14:40:43.992Z</time></trkpt><trkpt lat="44.12375" lon="9.7969733"><ele>86.14285714285714</ele><time>2026-04-14T14:40:46.992Z</time></trkpt><trkpt lat="44.1237767" lon="9.7968883"><ele>86.85714285714286</ele><time>2026-04-14T14:40:49.991Z</time></trkpt><trkpt lat="44.1238133" lon="9.796805"><ele>87.57142857142857</ele><time>2026-04-14T14:40:52.991Z</time></trkpt><trkpt lat="44.1238317" lon="9.7966967"><ele>88.28571428571428</ele><time>2026-04-14T14:40:55.991Z</time></trkpt><trkpt lat="44.1238517" lon="9.7966033"><ele>89.0</ele><time>2026-04-14T14:40:58.991Z</time></trkpt><trkpt lat="44.1238817" lon="9.7965217"><ele>90.0</ele><time>2026-04-14T14:41:01.991Z</time></trkpt><trkpt lat="44.1239033" lon="9.7964183"><ele>91.0</ele><time>2026-04-14T14:41:04.992Z</time></trkpt><trkpt lat="44.1239267" lon="9.7963167"><ele>92.0</ele><time>2026-04-14T14:41:07.991Z</time></trkpt><trkpt lat="44.1239583" lon="9.7962167"><ele>93.0</ele><time>2026-04-14T14:41:10.992Z</time></trkpt><trkpt lat="44.1239817" lon="9.796105"><ele>94.0</ele><time>2026-04-14T14:41:14.991Z</time></trkpt><trkpt lat="44.1240017" lon="9.796005"><ele>95.0</ele><time>2026-04-14T14:41:18.991Z</time></trkpt><trkpt lat="44.1240283" lon="9.7959233"><ele>97.57142857142857</ele><time>2026-04-14T14:41:21.992Z</time></trkpt><trkpt lat="44.1240383" lon="9.795835"><ele>100.14285714285714</ele><time>2026-04-14T14:41:24.991Z</time></trkpt><trkpt lat="44.1240133" lon="9.7957483"><ele>102.71428571428572</ele><time>2026-04-14T14:41:27.992Z</time></trkpt><trkpt lat="44.123965" lon="9.79567"><ele>105.28571428571428</ele><time>2026-04-14T14:41:31.991Z</time></trkpt><trkpt lat="44.1239083" lon="9.7955983"><ele>107.85714285714285</ele><time>2026-04-14T14:41:35.991Z</time></trkpt><trkpt lat="44.12384" lon="9.7955683"><ele>110.42857142857143</ele><time>2026-04-14T14:41:38.992Z</time></trkpt><trkpt lat="44.1237733" lon="9.7955567"><ele>113.0</ele><time>2026-04-14T14:41:41.991Z</time></trkpt><trkpt lat="44.1237" lon="9.79557"><ele>113.0</ele><time>2026-04-14T14:41:44.991Z</time></trkpt><trkpt lat="44.1236317" lon="9.7955783"><ele>113.0</ele><time>2026-04-14T14:41:47.992Z</time></trkpt><trkpt lat="44.12356" lon="9.7955833"><ele>113.0</ele><time>2026-04-14T14:41:50.991Z</time></trkpt><trkpt lat="44.1234817" lon="9.79563"><ele>113.0</ele><time>2026-04-14T14:41:54.992Z</time></trkpt><trkpt lat="44.1234133" lon="9.7956383"><ele>113.0</ele><time>2026-04-14T14:41:57.991Z</time></trkpt><trkpt lat="44.1233633" lon="9.7955667"><ele>113.0</ele><time>2026-04-14T14:42:01.991Z</time></trkpt><trkpt lat="44.1233883" lon="9.7954667"><ele>113.0</ele><time>2026-04-14T14:42:05.991Z</time></trkpt><trkpt lat="44.1234617" lon="9.795395"><ele>113.0</ele><time>2026-04-14T14:42:09.991Z</time></trkpt><trkpt lat="44.1235267" lon="9.7953633"><ele>113.0</ele><time>2026-04-14T14:42:12.991Z</time></trkpt><trkpt lat="44.1236017" lon="9.7953033"><ele>113.0</ele><time>2026-04-14T14:42:16.991Z</time></trkpt><trkpt lat="44.1236717" lon="9.7952533"><ele>113.0</ele><time>2026-04-14T14:42:20.991Z</time></trkpt><trkpt lat="44.1237367" lon="9.7952117"><ele>113.0</ele><time>2026-04-14T14:42:23.991Z</time></trkpt><trkpt lat="44.1237983" lon="9.79517"><ele>113.0</ele><time>2026-04-14T14:42:26.991Z</time></trkpt><trkpt lat="44.123865" lon="9.7951267"><ele>113.0</ele><time>2026-04-14T14:42:29.991Z</time></trkpt><trkpt lat="44.1239283" lon="9.7950567"><ele>114.85714285714286</ele><time>2026-04-14T14:42:33.991Z</time></trkpt><trkpt lat="44.1239267" lon="9.7949583"><ele>116.71428571428571</ele><time>2026-04-14T14:42:37.992Z</time></trkpt><trkpt lat="44.1238517" lon="9.7949117"><ele>118.57142857142857</ele><time>2026-04-14T14:42:42.991Z</time></trkpt><trkpt lat="44.1237867" lon="9.794925"><ele>120.42857142857143</ele><time>2026-04-14T14:42:45.991Z</time></trkpt><trkpt lat="44.1237267" lon="9.7949533"><ele>122.28571428571428</ele><time>2026-04-14T14:42:48.991Z</time></trkpt><trkpt lat="44.1236483" lon="9.794975"><ele>124.14285714285714</ele><time>2026-04-14T14:42:52.991Z</time></trkpt><trkpt lat="44.123585" lon="9.7949767"><ele>126.0</ele><time>2026-04-14T14:42:55.991Z</time></trkpt><trkpt lat="44.123515" lon="9.7949933"><ele>126.0</ele><time>2026-04-14T14:42:58.991Z</time></trkpt><trkpt lat="44.1234617" lon="9.7949167"><ele>126.0</ele><time>2026-04-14T14:43:02.991Z</time></trkpt><trkpt lat="44.1234883" lon="9.7948217"><ele>126.0</ele><time>2026-04-14T14:43:05.991Z</time></trkpt><trkpt lat="44.12355" lon="9.79478"><ele>126.0</ele><time>2026-04-14T14:43:08.991Z</time></trkpt><trkpt lat="44.1236117" lon="9.7947617"><ele>126.0</ele><time>2026-04-14T14:43:11.992Z</time></trkpt><trkpt lat="44.1236883" lon="9.7947333"><ele>126.0</ele><time>2026-04-14T14:43:15.991Z</time></trkpt><trkpt lat="44.12375" lon="9.7946983"><ele>126.0</ele><time>2026-04-14T14:43:18.992Z</time></trkpt><trkpt lat="44.1238083" lon="9.7946633"><ele>126.0</ele><time>2026-04-14T14:43:21.991Z</time></trkpt><trkpt lat="44.123875" lon="9.7946217"><ele>126.0</ele><time>2026-04-14T14:43:24.991Z</time></trkpt><trkpt lat="44.1239417" lon="9.7946067"><ele>126.0</ele><time>2026-04-14T14:43:27.991Z</time></trkpt><trkpt lat="44.12402" lon="9.7946"><ele>126.0</ele><time>2026-04-14T14:43:30.991Z</time></trkpt><trkpt lat="44.1240833" lon="9.79462"><ele>126.0</ele><time>2026-04-14T14:43:33.991Z</time></trkpt><trkpt lat="44.1241567" lon="9.79466"><ele>126.0</ele><time>2026-04-14T14:43:36.991Z</time></trkpt><trkpt lat="44.1242317" lon="9.7947267"><ele>125.16666666666667</ele><time>2026-04-14T14:43:39.991Z</time></trkpt><trkpt lat="44.1242883" lon="9.7948117"><ele>124.33333333333334</ele><time>2026-04-14T14:43:42.991Z</time></trkpt><trkpt lat="44.1243117" lon="9.7949183"><ele>123.5</ele><time>2026-04-14T14:43:45.991Z</time></trkpt><trkpt lat="44.1243033" lon="9.7950183"><ele>122.66666666666667</ele><time>2026-04-14T14:43:48.991Z</time></trkpt><trkpt lat="44.124305" lon="9.7951267"><ele>121.83333333333334</ele><time>2026-04-14T14:43:51.991Z</time></trkpt><trkpt lat="44.12428" lon="9.7952283"><ele>121.0</ele><time>2026-04-14T14:43:54.991Z</time></trkpt><trkpt lat="44.1242667" lon="9.795335"><ele>121.0</ele><time>2026-04-14T14:43:57.992Z</time></trkpt><trkpt lat="44.124265" lon="9.7954383"><ele>120.99999999999999</ele><time>2026-04-14T14:44:00.992Z</time></trkpt><trkpt lat="44.124285" lon="9.795525"><ele>121.0</ele><time>2026-04-14T14:44:03.992Z</time></trkpt><trkpt lat="44.1243317" lon="9.7956033"><ele>121.0</ele><time>2026-04-14T14:44:06.991Z</time></trkpt><trkpt lat="44.1244" lon="9.7956083"><ele>120.99999999999999</ele><time>2026-04-14T14:44:09.992Z</time></trkpt><trkpt lat="44.1244683" lon="9.7955483"><ele>121.0</ele><time>2026-04-14T14:44:12.992Z</time></trkpt><trkpt lat="44.1245067" lon="9.79545"><ele>121.0</ele><time>2026-04-14T14:44:15.991Z</time></trkpt><trkpt lat="44.1245167" lon="9.7953383"><ele>121.00000000000001</ele><time>2026-04-14T14:44:18.991Z</time></trkpt><trkpt lat="44.124525" lon="9.795235"><ele>121.0</ele><time>2026-04-14T14:44:21.991Z</time></trkpt><trkpt lat="44.1245267" lon="9.7951267"><ele>121.0</ele><time>2026-04-14T14:44:24.992Z</time></trkpt><trkpt lat="44.1245333" lon="9.795025"><ele>121.0</ele><time>2026-04-14T14:44:27.991Z</time></trkpt><trkpt lat="44.1245567" lon="9.7949233"><ele>121.00000000000001</ele><time>2026-04-14T14:44:30.991Z</time></trkpt><trkpt lat="44.12457" lon="9.7948083"><ele>121.0</ele><time>2026-04-14T14:44:33.991Z</time></trkpt><trkpt lat="44.1245633" lon="9.7947067"><ele>123.16666666666667</ele><time>2026-04-14T14:44:36.991Z</time></trkpt><trkpt lat="44.1245233" lon="9.794595"><ele>125.33333333333334</ele><time>2026-04-14T14:44:39.991Z</time></trkpt><trkpt lat="44.1245" lon="9.79451"><ele>127.5</ele><time>2026-04-14T14:44:42.992Z</time></trkpt><trkpt lat="44.124465" lon="9.7944083"><ele>129.66666666666666</ele><time>2026-04-14T14:44:45.991Z</time></trkpt><trkpt lat="44.1244183" lon="9.79433"><ele>131.83333333333331</ele><time>2026-04-14T14:44:48.991Z</time></trkpt><trkpt lat="44.1243733" lon="9.7942483"><ele>134.0</ele><time>2026-04-14T14:44:51.991Z</time></trkpt><trkpt lat="44.12433" lon="9.7941767"><ele>135.71428571428572</ele><time>2026-04-14T14:44:54.991Z</time></trkpt><trkpt lat="44.1242817" lon="9.7941167"><ele>137.42857142857142</ele><time>2026-04-14T14:44:57.991Z</time></trkpt><trkpt lat="44.12422" lon="9.794065"><ele>139.14285714285714</ele><time>2026-04-14T14:45:00.991Z</time></trkpt><trkpt lat="44.1241667" lon="9.7940017"><ele>140.85714285714286</ele><time>2026-04-14T14:45:03.991Z</time></trkpt><trkpt lat="44.1240983" lon="9.7939367"><ele>142.57142857142858</ele><time>2026-04-14T14:45:07.991Z</time></trkpt><trkpt lat="44.1240633" lon="9.7938567"><ele>144.28571428571428</ele><time>2026-04-14T14:45:10.991Z</time></trkpt><trkpt lat="44.1240683" lon="9.7937467"><ele>146.0</ele><time>2026-04-14T14:45:13.991Z</time></trkpt><trkpt lat="44.1241" lon="9.7936517"><ele>146.0</ele><time>2026-04-14T14:45:16.991Z</time></trkpt><trkpt lat="44.1241467" lon="9.7935567"><ele>146.0</ele><time>2026-04-14T14:45:19.991Z</time></trkpt><trkpt lat="44.124195" lon="9.7934733"><ele>146.0</ele><time>2026-04-14T14:45:22.991Z</time></trkpt><trkpt lat="44.1242333" lon="9.7933933"><ele>146.0</ele><time>2026-04-14T14:45:25.991Z</time></trkpt><trkpt lat="44.1242783" lon="9.7932967"><ele>146.0</ele><time>2026-04-14T14:45:29.991Z</time></trkpt><trkpt lat="44.1243117" lon="9.7932117"><ele>146.0</ele><time>2026-04-14T14:45:32.992Z</time></trkpt><trkpt lat="44.1243483" lon="9.7931217"><ele>147.28571428571428</ele><time>2026-04-14T14:45:35.992Z</time></trkpt><trkpt lat="44.124385" lon="9.793035"><ele>148.57142857142858</ele><time>2026-04-14T14:45:38.991Z</time></trkpt><trkpt lat="44.124385" lon="9.792925"><ele>149.85714285714286</ele><time>2026-04-14T14:45:42.991Z</time></trkpt><trkpt lat="44.124385" lon="9.79282"><ele>151.14285714285714</ele><time>2026-04-14T14:45:45.991Z</time></trkpt><trkpt lat="44.1243933" lon="9.7927133"><ele>152.42857142857142</ele><time>2026-04-14T14:45:48.992Z</time></trkpt><trkpt lat="44.1243867" lon="9.7926167"><ele>153.71428571428572</ele><time>2026-04-14T14:45:51.991Z</time></trkpt><trkpt lat="44.1243867" lon="9.792515"><ele>155.0</ele><time>2026-04-14T14:45:54.99Z</time></trkpt><trkpt lat="44.1243933" lon="9.792415"><ele>156.28571428571428</ele><time>2026-04-14T14:45:57.99Z</time></trkpt><trkpt lat="44.1244067" lon="9.7923117"><ele>157.57142857142856</ele><time>2026-04-14T14:46:00.991Z</time></trkpt><trkpt lat="44.1244033" lon="9.7922133"><ele>158.85714285714283</ele><time>2026-04-14T14:46:03.991Z</time></trkpt><trkpt lat="44.1243967" lon="9.7921217"><ele>160.14285714285714</ele><time>2026-04-14T14:46:06.99Z</time></trkpt><trkpt lat="44.1243883" lon="9.7920317"><ele>161.42857142857142</ele><time>2026-04-14T14:46:09.99Z</time></trkpt><trkpt lat="44.1243883" lon="9.791925"><ele>162.7142857142857</ele><time>2026-04-14T14:46:12.99Z</time></trkpt><trkpt lat="44.124385" lon="9.79181"><ele>164.0</ele><time>2026-04-14T14:46:16.991Z</time></trkpt><trkpt lat="44.1243867" lon="9.7917067"><ele>165.7142857142857</ele><time>2026-04-14T14:46:19.99Z</time></trkpt><trkpt lat="44.1244083" lon="9.7916133"><ele>167.42857142857142</ele><time>2026-04-14T14:46:22.991Z</time></trkpt><trkpt lat="44.124425" lon="9.7915217"><ele>169.14285714285714</ele><time>2026-04-14T14:46:25.99Z</time></trkpt><trkpt lat="44.12444" lon="9.791425"><ele>170.85714285714283</ele><time>2026-04-14T14:46:28.991Z</time></trkpt><trkpt lat="44.12445" lon="9.791315"><ele>172.57142857142856</ele><time>2026-04-14T14:46:31.99Z</time></trkpt><trkpt lat="44.1244383" lon="9.7912117"><ele>174.28571428571428</ele><time>2026-04-14T14:46:34.99Z</time></trkpt><trkpt lat="44.1244067" lon="9.7911017"><ele>176.0</ele><time>2026-04-14T14:46:38.99Z</time></trkpt><trkpt lat="44.12434" lon="9.7910717"><ele>176.0</ele><time>2026-04-14T14:46:41.991Z</time></trkpt><trkpt lat="44.12427" lon="9.791095"><ele>176.0</ele><time>2026-04-14T14:46:44.99Z</time></trkpt><trkpt lat="44.124205" lon="9.7911383"><ele>176.0</ele><time>2026-04-14T14:46:47.99Z</time></trkpt><trkpt lat="44.1241433" lon="9.7911633"><ele>176.0</ele><time>2026-04-14T14:46:50.99Z</time></trkpt><trkpt lat="44.1240833" lon="9.791195"><ele>176.0</ele><time>2026-04-14T14:46:53.991Z</time></trkpt><trkpt lat="44.1240033" lon="9.791235"><ele>176.0</ele><time>2026-04-14T14:46:57.99Z</time></trkpt><trkpt lat="44.1239467" lon="9.7912933"><ele>176.0</ele><time>2026-04-14T14:47:00.99Z</time></trkpt><trkpt lat="44.1238867" lon="9.791365"><ele>177.57142857142858</ele><time>2026-04-14T14:47:03.99Z</time></trkpt><trkpt lat="44.1238383" lon="9.7914233"><ele>179.14285714285714</ele><time>2026-04-14T14:47:06.99Z</time></trkpt><trkpt lat="44.1237883" lon="9.7915083"><ele>180.71428571428572</ele><time>2026-04-14T14:47:10.991Z</time></trkpt><trkpt lat="44.1237333" lon="9.7915583"><ele>182.28571428571428</ele><time>2026-04-14T14:47:13.99Z</time></trkpt><trkpt lat="44.1236667" lon="9.7916183"><ele>183.85714285714286</ele><time>2026-04-14T14:47:17.99Z</time></trkpt><trkpt lat="44.12361" lon="9.7916633"><ele>185.42857142857142</ele><time>2026-04-14T14:47:20.991Z</time></trkpt><trkpt lat="44.12354" lon="9.7916983"><ele>187.0</ele><time>2026-04-14T14:47:23.99Z</time></trkpt><trkpt lat="44.1234583" lon="9.7917333"><ele>187.0</ele><time>2026-04-14T14:47:26.99Z</time></trkpt><trkpt lat="44.1233867" lon="9.7917533"><ele>187.0</ele><time>2026-04-14T14:47:29.991Z</time></trkpt><trkpt lat="44.1233083" lon="9.7917733"><ele>187.0</ele><time>2026-04-14T14:47:32.991Z</time></trkpt><trkpt lat="44.12324" lon="9.7918083"><ele>187.0</ele><time>2026-04-14T14:47:35.99Z</time></trkpt><trkpt lat="44.123165" lon="9.7918317"><ele>187.0</ele><time>2026-04-14T14:47:38.99Z</time></trkpt><trkpt lat="44.1230933" lon="9.7918467"><ele>187.0</ele><time>2026-04-14T14:47:41.99Z</time></trkpt><trkpt lat="44.123025" lon="9.7918517"><ele>187.0</ele><time>2026-04-14T14:47:44.991Z</time></trkpt><trkpt lat="44.1229583" lon="9.7918567"><ele>186.0</ele><time>2026-04-14T14:47:47.99Z</time></trkpt><trkpt lat="44.1228867" lon="9.7918483"><ele>185.0</ele><time>2026-04-14T14:47:50.99Z</time></trkpt><trkpt lat="44.1228117" lon="9.7918617"><ele>184.0</ele><time>2026-04-14T14:47:53.99Z</time></trkpt><trkpt lat="44.1227383" lon="9.7918783"><ele>183.0</ele><time>2026-04-14T14:47:56.991Z</time></trkpt><trkpt lat="44.12267" lon="9.7918917"><ele>182.0</ele><time>2026-04-14T14:47:59.99Z</time></trkpt><trkpt lat="44.1226" lon="9.79189"><ele>181.0</ele><time>2026-04-14T14:48:02.99Z</time></trkpt><trkpt lat="44.1225167" lon="9.7918983"><ele>180.0</ele><time>2026-04-14T14:48:05.991Z</time></trkpt><trkpt lat="44.122445" lon="9.7919317"><ele>183.0</ele><time>2026-04-14T14:48:08.99Z</time></trkpt><trkpt lat="44.1223817" lon="9.7919783"><ele>186.0</ele><time>2026-04-14T14:48:11.99Z</time></trkpt><trkpt lat="44.1223117" lon="9.79203"><ele>189.0</ele><time>2026-04-14T14:48:14.99Z</time></trkpt><trkpt lat="44.122245" lon="9.7920767"><ele>192.0</ele><time>2026-04-14T14:48:17.991Z</time></trkpt><trkpt lat="44.12219" lon="9.7921283"><ele>195.0</ele><time>2026-04-14T14:48:20.99Z</time></trkpt><trkpt lat="44.1221267" lon="9.79222"><ele>198.0</ele><time>2026-04-14T14:48:23.99Z</time></trkpt><trkpt lat="44.1220817" lon="9.7922817"><ele>201.0</ele><time>2026-04-14T14:48:25.99Z</time></trkpt><trkpt lat="44.12204" lon="9.7923917"><ele>201.0</ele><time>2026-04-14T14:48:28.99Z</time></trkpt><trkpt lat="44.1220067" lon="9.79248"><ele>201.0</ele><time>2026-04-14T14:48:31.99Z</time></trkpt><trkpt lat="44.12198" lon="9.7925717"><ele>201.0</ele><time>2026-04-14T14:48:34.99Z</time></trkpt><trkpt lat="44.121955" lon="9.7926733"><ele>201.0</ele><time>2026-04-14T14:48:37.991Z</time></trkpt><trkpt lat="44.1219383" lon="9.792775"><ele>201.0</ele><time>2026-04-14T14:48:40.99Z</time></trkpt><trkpt lat="44.1219267" lon="9.7928683"><ele>201.0</ele><time>2026-04-14T14:48:43.99Z</time></trkpt><trkpt lat="44.1218717" lon="9.792935"><ele>201.0</ele><time>2026-04-14T14:48:47.99Z</time></trkpt><trkpt lat="44.1217767" lon="9.7929417"><ele>201.0</ele><time>2026-04-14T14:48:50.99Z</time></trkpt><trkpt lat="44.1217083" lon="9.79294"><ele>201.0</ele><time>2026-04-14T14:48:52.991Z</time></trkpt><trkpt lat="44.1216517" lon="9.7928683"><ele>201.0</ele><time>2026-04-14T14:48:55.99Z</time></trkpt><trkpt lat="44.1216183" lon="9.792775"><ele>201.0</ele><time>2026-04-14T14:48:58.99Z</time></trkpt><trkpt lat="44.1216283" lon="9.79267"><ele>201.0</ele><time>2026-04-14T14:49:01.991Z</time></trkpt><trkpt lat="44.1216517" lon="9.792565"><ele>201.0</ele><time>2026-04-14T14:49:04.991Z</time></trkpt><trkpt lat="44.121685" lon="9.792465"><ele>201.0</ele><time>2026-04-14T14:49:07.99Z</time></trkpt><trkpt lat="44.1217083" lon="9.792355"><ele>201.0</ele><time>2026-04-14T14:49:10.99Z</time></trkpt><trkpt lat="44.1217283" lon="9.7922583"><ele>201.0</ele><time>2026-04-14T14:49:13.99Z</time></trkpt><trkpt lat="44.1217417" lon="9.7921417"><ele>201.0</ele><time>2026-04-14T14:49:17.991Z</time></trkpt><trkpt lat="44.12176" lon="9.7920217"><ele>201.0</ele><time>2026-04-14T14:49:21.99Z</time></trkpt><trkpt lat="44.12175" lon="9.7919217"><ele>201.0</ele><time>2026-04-14T14:49:24.99Z</time></trkpt><trkpt lat="44.121755" lon="9.7918033"><ele>202.42857142857142</ele><time>2026-04-14T14:49:27.99Z</time></trkpt><trkpt lat="44.121755" lon="9.7917"><ele>203.85714285714286</ele><time>2026-04-14T14:49:30.99Z</time></trkpt><trkpt lat="44.121755" lon="9.7916067"><ele>205.28571428571428</ele><time>2026-04-14T14:49:33.991Z</time></trkpt><trkpt lat="44.1217917" lon="9.7915117"><ele>206.71428571428572</ele><time>2026-04-14T14:49:36.99Z</time></trkpt><trkpt lat="44.1218333" lon="9.7914317"><ele>208.14285714285717</ele><time>2026-04-14T14:49:39.99Z</time></trkpt><trkpt lat="44.1218783" lon="9.7913533"><ele>209.57142857142858</ele><time>2026-04-14T14:49:42.99Z</time></trkpt><trkpt lat="44.1219233" lon="9.7912633"><ele>211.0</ele><time>2026-04-14T14:49:45.99Z</time></trkpt><trkpt lat="44.12198" lon="9.7911883"><ele>211.0</ele><time>2026-04-14T14:49:48.99Z</time></trkpt><trkpt lat="44.1220283" lon="9.7911233"><ele>211.0</ele><time>2026-04-14T14:49:51.991Z</time></trkpt><trkpt lat="44.1220767" lon="9.79105"><ele>211.0</ele><time>2026-04-14T14:49:54.99Z</time></trkpt><trkpt lat="44.122135" lon="9.7909933"><ele>211.0</ele><time>2026-04-14T14:49:57.99Z</time></trkpt><trkpt lat="44.12219" lon="9.79095"><ele>211.0</ele><time>2026-04-14T14:50:00.99Z</time></trkpt><trkpt lat="44.1222567" lon="9.7909267"><ele>211.0</ele><time>2026-04-14T14:50:03.991Z</time></trkpt><trkpt lat="44.1223283" lon="9.790905"><ele>211.0</ele><time>2026-04-14T14:50:06.99Z</time></trkpt><trkpt lat="44.1224" lon="9.7908817"><ele>211.14285714285714</ele><time>2026-04-14T14:50:09.99Z</time></trkpt><trkpt lat="44.1224633" lon="9.7908383"><ele>211.28571428571428</ele><time>2026-04-14T14:50:12.99Z</time></trkpt><trkpt lat="44.1225383" lon="9.790805"><ele>211.42857142857144</ele><time>2026-04-14T14:50:15.99Z</time></trkpt><trkpt lat="44.1226" lon="9.7907533"><ele>211.57142857142856</ele><time>2026-04-14T14:50:18.99Z</time></trkpt><trkpt lat="44.122655" lon="9.7906967"><ele>211.7142857142857</ele><time>2026-04-14T14:50:21.99Z</time></trkpt><trkpt lat="44.1227083" lon="9.7906333"><ele>211.85714285714286</ele><time>2026-04-14T14:50:24.991Z</time></trkpt><trkpt lat="44.1227683" lon="9.79056"><ele>212.0</ele><time>2026-04-14T14:50:28.991Z</time></trkpt><trkpt lat="44.1228133" lon="9.7904833"><ele>212.0</ele><time>2026-04-14T14:50:31.99Z</time></trkpt><trkpt lat="44.122865" lon="9.7904183"><ele>212.0</ele><time>2026-04-14T14:50:34.991Z</time></trkpt><trkpt lat="44.1229217" lon="9.79035"><ele>212.0</ele><time>2026-04-14T14:50:37.991Z</time></trkpt><trkpt lat="44.122975" lon="9.7902917"><ele>212.0</ele><time>2026-04-14T14:50:40.99Z</time></trkpt><trkpt lat="44.1230383" lon="9.7902567"><ele>212.0</ele><time>2026-04-14T14:50:43.991Z</time></trkpt><trkpt lat="44.12312" lon="9.7902217"><ele>212.0</ele><time>2026-04-14T14:50:47.991Z</time></trkpt><trkpt lat="44.123185" lon="9.7902067"><ele>212.0</ele><time>2026-04-14T14:50:50.99Z</time></trkpt><trkpt lat="44.1232583" lon="9.790185"><ele>210.71428571428572</ele><time>2026-04-14T14:50:54.991Z</time></trkpt><trkpt lat="44.1233217" lon="9.7901767"><ele>209.42857142857142</ele><time>2026-04-14T14:50:57.99Z</time></trkpt><trkpt lat="44.1233933" lon="9.7901717"><ele>208.14285714285714</ele><time>2026-04-14T14:51:00.99Z</time></trkpt><trkpt lat="44.123455" lon="9.7901533"><ele>206.85714285714286</ele><time>2026-04-14T14:51:03.991Z</time></trkpt><trkpt lat="44.1235317" lon="9.7901383"><ele>205.57142857142856</ele><time>2026-04-14T14:51:06.99Z</time></trkpt><trkpt lat="44.1235983" lon="9.7901183"><ele>204.28571428571428</ele><time>2026-04-14T14:51:09.991Z</time></trkpt><trkpt lat="44.12368" lon="9.7900917"><ele>203.0</ele><time>2026-04-14T14:51:13.99Z</time></trkpt><trkpt lat="44.1237417" lon="9.79005"><ele>204.85714285714286</ele><time>2026-04-14T14:51:16.99Z</time></trkpt><trkpt lat="44.1237967" lon="9.78997"><ele>206.71428571428572</ele><time>2026-04-14T14:51:19.99Z</time></trkpt><trkpt lat="44.1238617" lon="9.7899233"><ele>208.57142857142856</ele><time>2026-04-14T14:51:22.99Z</time></trkpt><trkpt lat="44.1239283" lon="9.7898567"><ele>210.42857142857144</ele><time>2026-04-14T14:51:25.991Z</time></trkpt><trkpt lat="44.1239867" lon="9.7897933"><ele>212.28571428571428</ele><time>2026-04-14T14:51:28.99Z</time></trkpt><trkpt lat="44.124025" lon="9.7897117"><ele>214.14285714285714</ele><time>2026-04-14T14:51:31.99Z</time></trkpt><trkpt lat="44.12407" lon="9.78965"><ele>216.0</ele><time>2026-04-14T14:51:34.989Z</time></trkpt><trkpt lat="44.1241317" lon="9.789605"><ele>216.0</ele><time>2026-04-14T14:51:37.99Z</time></trkpt><trkpt lat="44.1241883" lon="9.789555"><ele>216.0</ele><time>2026-04-14T14:51:40.989Z</time></trkpt><trkpt lat="44.1242533" lon="9.7894967"><ele>216.0</ele><time>2026-04-14T14:51:44.989Z</time></trkpt><trkpt lat="44.1243183" lon="9.7894367"><ele>216.0</ele><time>2026-04-14T14:51:48.99Z</time></trkpt><trkpt lat="44.1243683" lon="9.7893633"><ele>216.0</ele><time>2026-04-14T14:51:51.989Z</time></trkpt><trkpt lat="44.1244067" lon="9.7892917"><ele>216.0</ele><time>2026-04-14T14:51:54.989Z</time></trkpt><trkpt lat="44.1244617" lon="9.789215"><ele>216.0</ele><time>2026-04-14T14:51:58.99Z</time></trkpt><trkpt lat="44.1245117" lon="9.7891517"><ele>219.66666666666666</ele><time>2026-04-14T14:52:03.989Z</time></trkpt><trkpt lat="44.1245533" lon="9.78906"><ele>223.33333333333331</ele><time>2026-04-14T14:52:08.99Z</time></trkpt><trkpt lat="44.1245933" lon="9.7889667"><ele>227.0</ele><time>2026-04-14T14:52:12.99Z</time></trkpt><trkpt lat="44.12464" lon="9.7888617"><ele>230.66666666666666</ele><time>2026-04-14T14:52:15.989Z</time></trkpt><trkpt lat="44.1246833" lon="9.78876"><ele>234.33333333333331</ele><time>2026-04-14T14:52:18.99Z</time></trkpt><trkpt lat="44.124725" lon="9.7886833"><ele>238.0</ele><time>2026-04-14T14:52:21.989Z</time></trkpt><trkpt lat="44.1247783" lon="9.788625"><ele>237.99999999999997</ele><time>2026-04-14T14:52:24.989Z</time></trkpt><trkpt lat="44.1248317" lon="9.7885633"><ele>238.0</ele><time>2026-04-14T14:52:28.989Z</time></trkpt><trkpt lat="44.1248983" lon="9.7884883"><ele>238.0</ele><time>2026-04-14T14:52:32.989Z</time></trkpt><trkpt lat="44.1249667" lon="9.7884217"><ele>238.0</ele><time>2026-04-14T14:52:36.989Z</time></trkpt><trkpt lat="44.1250367" lon="9.788375"><ele>237.99999999999997</ele><time>2026-04-14T14:52:40.99Z</time></trkpt><trkpt lat="44.1251117" lon="9.7883617"><ele>238.0</ele><time>2026-04-14T14:52:44.99Z</time></trkpt><trkpt lat="44.1251833" lon="9.7884083"><ele>238.0</ele><time>2026-04-14T14:52:48.989Z</time></trkpt><trkpt lat="44.12526" lon="9.7884433"><ele>238.0</ele><time>2026-04-14T14:52:52.99Z</time></trkpt><trkpt lat="44.1253233" lon="9.7884717"><ele>238.0</ele><time>2026-04-14T14:52:55.989Z</time></trkpt><trkpt lat="44.1253883" lon="9.7884817"><ele>238.0</ele><time>2026-04-14T14:52:58.989Z</time></trkpt><trkpt lat="44.1254517" lon="9.7885083"><ele>238.0</ele><time>2026-04-14T14:53:01.989Z</time></trkpt><trkpt lat="44.1255317" lon="9.7885283"><ele>238.0</ele><time>2026-04-14T14:53:05.989Z</time></trkpt><trkpt lat="44.1255917" lon="9.788555"><ele>238.0</ele><time>2026-04-14T14:53:08.989Z</time></trkpt><trkpt lat="44.1256567" lon="9.788605"><ele>239.0</ele><time>2026-04-14T14:53:12.989Z</time></trkpt><trkpt lat="44.1257" lon="9.7886833"><ele>240.0</ele><time>2026-04-14T14:53:16.989Z</time></trkpt><trkpt lat="44.125735" lon="9.78876"><ele>241.0</ele><time>2026-04-14T14:53:21.99Z</time></trkpt><trkpt lat="44.125795" lon="9.7888367"><ele>242.0</ele><time>2026-04-14T14:53:25.989Z</time></trkpt><trkpt lat="44.12585" lon="9.7888967"><ele>243.0</ele><time>2026-04-14T14:53:28.99Z</time></trkpt><trkpt lat="44.125905" lon="9.7889617"><ele>244.0</ele><time>2026-04-14T14:53:31.989Z</time></trkpt><trkpt lat="44.1259467" lon="9.7890417"><ele>245.0</ele><time>2026-04-14T14:53:34.989Z</time></trkpt><trkpt lat="44.1259717" lon="9.7891533"><ele>245.00000000000003</ele><time>2026-04-14T14:53:38.99Z</time></trkpt><trkpt lat="44.1259967" lon="9.7892533"><ele>245.0</ele><time>2026-04-14T14:53:42.989Z</time></trkpt><trkpt lat="44.12602" lon="9.7893383"><ele>245.0</ele><time>2026-04-14T14:53:45.989Z</time></trkpt><trkpt lat="44.1260583" lon="9.7894467"><ele>245.0</ele><time>2026-04-14T14:53:48.99Z</time></trkpt><trkpt lat="44.1260933" lon="9.7895517"><ele>245.00000000000003</ele><time>2026-04-14T14:53:52.989Z</time></trkpt><trkpt lat="44.1261217" lon="9.7896567"><ele>245.0</ele><time>2026-04-14T14:53:55.989Z</time></trkpt><trkpt lat="44.1261433" lon="9.789745"><ele>243.57142857142856</ele><time>2026-04-14T14:53:57.989Z</time></trkpt><trkpt lat="44.126165" lon="9.7898583"><ele>242.14285714285714</ele><time>2026-04-14T14:54:00.99Z</time></trkpt><trkpt lat="44.1261933" lon="9.7899633"><ele>240.71428571428572</ele><time>2026-04-14T14:54:03.989Z</time></trkpt><trkpt lat="44.1262217" lon="9.7900667"><ele>239.28571428571428</ele><time>2026-04-14T14:54:06.989Z</time></trkpt><trkpt lat="44.126255" lon="9.7901567"><ele>237.85714285714283</ele><time>2026-04-14T14:54:09.989Z</time></trkpt><trkpt lat="44.12629" lon="9.79023"><ele>236.42857142857142</ele><time>2026-04-14T14:54:12.989Z</time></trkpt><trkpt lat="44.1263283" lon="9.7903033"><ele>235.0</ele><time>2026-04-14T14:54:15.989Z</time></trkpt><trkpt lat="44.1263767" lon="9.7903733"><ele>234.14285714285714</ele><time>2026-04-14T14:54:18.989Z</time></trkpt><trkpt lat="44.1264067" lon="9.7904617"><ele>233.28571428571428</ele><time>2026-04-14T14:54:21.989Z</time></trkpt><trkpt lat="44.126445" lon="9.790535"><ele>232.42857142857142</ele><time>2026-04-14T14:54:24.99Z</time></trkpt><trkpt lat="44.1265" lon="9.790625"><ele>231.57142857142856</ele><time>2026-04-14T14:54:28.99Z</time></trkpt><trkpt lat="44.1265417" lon="9.7906967"><ele>230.71428571428572</ele><time>2026-04-14T14:54:31.989Z</time></trkpt><trkpt lat="44.1266" lon="9.7907717"><ele>229.85714285714283</ele><time>2026-04-14T14:54:35.989Z</time></trkpt><trkpt lat="44.12665" lon="9.7908317"><ele>229.0</ele><time>2026-04-14T14:54:38.989Z</time></trkpt><trkpt lat="44.1267117" lon="9.79088"><ele>232.99999999999997</ele><time>2026-04-14T14:54:41.989Z</time></trkpt><trkpt lat="44.1267917" lon="9.7909217"><ele>237.0</ele><time>2026-04-14T14:54:45.989Z</time></trkpt><trkpt lat="44.1268683" lon="9.79096"><ele>241.0</ele><time>2026-04-14T14:54:48.989Z</time></trkpt><trkpt lat="44.1269383" lon="9.7909567"><ele>245.0</ele><time>2026-04-14T14:54:51.989Z</time></trkpt><trkpt lat="44.12699" lon="9.7908767"><ele>248.99999999999997</ele><time>2026-04-14T14:54:54.989Z</time></trkpt><trkpt lat="44.126965" lon="9.7907833"><ele>253.0</ele><time>2026-04-14T14:54:57.989Z</time></trkpt><trkpt lat="44.1269017" lon="9.79075"><ele>252.99999999999997</ele><time>2026-04-14T14:55:00.989Z</time></trkpt><trkpt lat="44.1268367" lon="9.7907217"><ele>253.0</ele><time>2026-04-14T14:55:03.989Z</time></trkpt><trkpt lat="44.12677" lon="9.7906783"><ele>253.0</ele><time>2026-04-14T14:55:06.99Z</time></trkpt><trkpt lat="44.1267317" lon="9.790585"><ele>253.0</ele><time>2026-04-14T14:55:09.99Z</time></trkpt><trkpt lat="44.1267117" lon="9.790475"><ele>252.99999999999997</ele><time>2026-04-14T14:55:12.989Z</time></trkpt><trkpt lat="44.12673" lon="9.7903683"><ele>253.0</ele><time>2026-04-14T14:55:15.989Z</time></trkpt><trkpt lat="44.1267367" lon="9.7902683"><ele>254.71428571428575</ele><time>2026-04-14T14:55:18.989Z</time></trkpt><trkpt lat="44.12675" lon="9.790155"><ele>256.42857142857144</ele><time>2026-04-14T14:55:22.989Z</time></trkpt><trkpt lat="44.1267717" lon="9.7900683"><ele>258.1428571428571</ele><time>2026-04-14T14:55:25.989Z</time></trkpt><trkpt lat="44.1268133" lon="9.7899867"><ele>259.8571428571429</ele><time>2026-04-14T14:55:29.989Z</time></trkpt><trkpt lat="44.1268733" lon="9.7899317"><ele>261.57142857142856</ele><time>2026-04-14T14:55:32.989Z</time></trkpt><trkpt lat="44.1269467" lon="9.7899017"><ele>263.2857142857143</ele><time>2026-04-14T14:55:36.989Z</time></trkpt><trkpt lat="44.1270167" lon="9.7899517"><ele>265.0</ele><time>2026-04-14T14:55:40.989Z</time></trkpt><trkpt lat="44.1270683" lon="9.7900083"><ele>265.0</ele><time>2026-04-14T14:55:43.989Z</time></trkpt><trkpt lat="44.1271267" lon="9.7900883"><ele>265.0</ele><time>2026-04-14T14:55:46.989Z</time></trkpt><trkpt lat="44.127175" lon="9.790155"><ele>265.0</ele><time>2026-04-14T14:55:49.989Z</time></trkpt><trkpt lat="44.1272233" lon="9.7902133"><ele>265.0</ele><time>2026-04-14T14:55:52.99Z</time></trkpt><trkpt lat="44.1272817" lon="9.7902767"><ele>265.0</ele><time>2026-04-14T14:55:55.989Z</time></trkpt><trkpt lat="44.1273467" lon="9.790345"><ele>265.0</ele><time>2026-04-14T14:55:59.989Z</time></trkpt><trkpt lat="44.1274183" lon="9.7903983"><ele>264.99999999999994</ele><time>2026-04-14T14:56:03.99Z</time></trkpt><trkpt lat="44.1274933" lon="9.7904267"><ele>265.0</ele><time>2026-04-14T14:56:06.99Z</time></trkpt><trkpt lat="44.1275567" lon="9.79045"><ele>265.0</ele><time>2026-04-14T14:56:09.989Z</time></trkpt><trkpt lat="44.127635" lon="9.7904467"><ele>265.0</ele><time>2026-04-14T14:56:12.989Z</time></trkpt><trkpt lat="44.1277083" lon="9.7904333"><ele>265.0</ele><time>2026-04-14T14:56:15.989Z</time></trkpt><trkpt lat="44.12778" lon="9.790435"><ele>264.99999999999994</ele><time>2026-04-14T14:56:18.989Z</time></trkpt><trkpt lat="44.12785" lon="9.7904467"><ele>265.0</ele><time>2026-04-14T14:56:21.989Z</time></trkpt><trkpt lat="44.1279333" lon="9.7904467"><ele>264.99999999999994</ele><time>2026-04-14T14:56:25.99Z</time></trkpt><trkpt lat="44.1279983" lon="9.790455"><ele>265.0</ele><time>2026-04-14T14:56:28.989Z</time></trkpt><trkpt lat="44.1280767" lon="9.79048"><ele>265.0</ele><time>2026-04-14T14:56:31.989Z</time></trkpt><trkpt lat="44.1281517" lon="9.79052"><ele>265.0</ele><time>2026-04-14T14:56:34.989Z</time></trkpt><trkpt lat="44.12822" lon="9.7905617"><ele>265.0</ele><time>2026-04-14T14:56:37.989Z</time></trkpt><trkpt lat="44.12829" lon="9.790605"><ele>264.99999999999994</ele><time>2026-04-14T14:56:41.988Z</time></trkpt><trkpt lat="44.1283567" lon="9.7906433"><ele>265.0</ele><time>2026-04-14T14:56:44.989Z</time></trkpt><trkpt lat="44.128415" lon="9.7906833"><ele>266.5</ele><time>2026-04-14T14:56:47.988Z</time></trkpt><trkpt lat="44.128465" lon="9.79076"><ele>268.0</ele><time>2026-04-14T14:56:51.988Z</time></trkpt><trkpt lat="44.12852" lon="9.7908333"><ele>269.5</ele><time>2026-04-14T14:56:55.989Z</time></trkpt><trkpt lat="44.1285517" lon="9.7909367"><ele>271.0</ele><time>2026-04-14T14:57:26.988Z</time></trkpt><trkpt lat="44.128605" lon="9.79104"><ele>272.5</ele><time>2026-04-14T14:57:29.988Z</time></trkpt><trkpt lat="44.1286583" lon="9.79113"><ele>274.0</ele><time>2026-04-14T14:57:31.988Z</time></trkpt><trkpt lat="44.12875" lon="9.7912067"><ele>273.8333333333333</ele><time>2026-04-14T14:57:33.988Z</time></trkpt><trkpt lat="44.128815" lon="9.79123"><ele>273.66666666666663</ele><time>2026-04-14T14:57:34.988Z</time></trkpt><trkpt lat="44.1288783" lon="9.7912617"><ele>273.5</ele><time>2026-04-14T14:57:35.988Z</time></trkpt><trkpt lat="44.128945" lon="9.7913"><ele>273.3333333333333</ele><time>2026-04-14T14:57:36.989Z</time></trkpt><trkpt lat="44.1290233" lon="9.7913383"><ele>273.1666666666667</ele><time>2026-04-14T14:57:37.988Z</time></trkpt><trkpt lat="44.1291033" lon="9.791375"><ele>273.0</ele><time>2026-04-14T14:57:38.988Z</time></trkpt><trkpt lat="44.129185" lon="9.791425"><ele>273.0</ele><time>2026-04-14T14:57:39.988Z</time></trkpt><trkpt lat="44.12927" lon="9.7914783"><ele>273.0</ele><time>2026-04-14T14:57:40.988Z</time></trkpt><trkpt lat="44.12936" lon="9.7915333"><ele>273.0</ele><time>2026-04-14T14:57:41.988Z</time></trkpt><trkpt lat="44.12945" lon="9.7915833"><ele>273.0</ele><time>2026-04-14T14:57:42.988Z</time></trkpt><trkpt lat="44.1295383" lon="9.791635"><ele>273.0</ele><time>2026-04-14T14:57:43.988Z</time></trkpt><trkpt lat="44.12963" lon="9.7916717"><ele>273.0</ele><time>2026-04-14T14:57:44.988Z</time></trkpt><trkpt lat="44.1297233" lon="9.791715"><ele>273.0</ele><time>2026-04-14T14:57:45.988Z</time></trkpt><trkpt lat="44.129825" lon="9.79174"><ele>273.0</ele><time>2026-04-14T14:57:46.988Z</time></trkpt><trkpt lat="44.12993" lon="9.79175"><ele>273.0</ele><time>2026-04-14T14:57:47.988Z</time></trkpt><trkpt lat="44.130035" lon="9.7917583"><ele>273.0</ele><time>2026-04-14T14:57:48.989Z</time></trkpt><trkpt lat="44.1301383" lon="9.7917667"><ele>274.1666666666667</ele><time>2026-04-14T14:57:49.988Z</time></trkpt><trkpt lat="44.1302383" lon="9.79179"><ele>275.3333333333333</ele><time>2026-04-14T14:57:50.988Z</time></trkpt><trkpt lat="44.1303267" lon="9.791815"><ele>276.5</ele><time>2026-04-14T14:57:51.988Z</time></trkpt><trkpt lat="44.1304083" lon="9.7918317"><ele>277.66666666666663</ele><time>2026-04-14T14:57:52.988Z</time></trkpt><trkpt lat="44.1304817" lon="9.79183"><ele>278.8333333333333</ele><time>2026-04-14T14:57:53.989Z</time></trkpt><trkpt lat="44.1305467" lon="9.79183"><ele>280.0</ele><time>2026-04-14T14:57:54.988Z</time></trkpt><trkpt lat="44.1306333" lon="9.7918517"><ele>275.16666666666663</ele><time>2026-04-14T14:57:56.988Z</time></trkpt><trkpt lat="44.1306533" lon="9.7919433"><ele>270.3333333333333</ele><time>2026-04-14T14:57:58.989Z</time></trkpt><trkpt lat="44.13057" lon="9.7919867"><ele>265.5</ele><time>2026-04-14T14:58:00.988Z</time></trkpt><trkpt lat="44.130445" lon="9.79195"><ele>260.6666666666667</ele><time>2026-04-14T14:58:02.989Z</time></trkpt><trkpt lat="44.13038" lon="9.79195"><ele>255.83333333333334</ele><time>2026-04-14T14:58:03.988Z</time></trkpt><trkpt lat="44.1303083" lon="9.7919617"><ele>251.0</ele><time>2026-04-14T14:58:04.989Z</time></trkpt><trkpt lat="44.13023" lon="9.792"><ele>251.0</ele><time>2026-04-14T14:58:05.988Z</time></trkpt><trkpt lat="44.1301483" lon="9.7920517"><ele>251.00000000000003</ele><time>2026-04-14T14:58:06.989Z</time></trkpt><trkpt lat="44.1300683" lon="9.7921067"><ele>251.00000000000003</ele><time>2026-04-14T14:58:07.988Z</time></trkpt><trkpt lat="44.12999" lon="9.7921517"><ele>251.0</ele><time>2026-04-14T14:58:08.988Z</time></trkpt><trkpt lat="44.1299" lon="9.7922067"><ele>251.0</ele><time>2026-04-14T14:58:09.989Z</time></trkpt><trkpt lat="44.1298067" lon="9.792255"><ele>250.20000000000002</ele><time>2026-04-14T14:58:10.988Z</time></trkpt><trkpt lat="44.129705" lon="9.792275"><ele>249.40000000000003</ele><time>2026-04-14T14:58:11.988Z</time></trkpt><trkpt lat="44.1296117" lon="9.792305"><ele>248.6</ele><time>2026-04-14T14:58:12.988Z</time></trkpt><trkpt lat="44.129505" lon="9.7923367"><ele>247.8</ele><time>2026-04-14T14:58:13.988Z</time></trkpt><trkpt lat="44.1294017" lon="9.7923667"><ele>247.0</ele><time>2026-04-14T14:58:14.989Z</time></trkpt><trkpt lat="44.1292967" lon="9.792405"><ele>247.0</ele><time>2026-04-14T14:58:15.989Z</time></trkpt><trkpt lat="44.12919" lon="9.792435"><ele>247.0</ele><time>2026-04-14T14:58:16.988Z</time></trkpt><trkpt lat="44.1290783" lon="9.7924633"><ele>247.0</ele><time>2026-04-14T14:58:17.989Z</time></trkpt><trkpt lat="44.12897" lon="9.7925167"><ele>247.0</ele><time>2026-04-14T14:58:18.989Z</time></trkpt><trkpt lat="44.1288667" lon="9.79258"><ele>244.0</ele><time>2026-04-14T14:58:19.988Z</time></trkpt><trkpt lat="44.1287717" lon="9.7926567"><ele>241.0</ele><time>2026-04-14T14:58:20.988Z</time></trkpt><trkpt lat="44.12868" lon="9.79276"><ele>238.0</ele><time>2026-04-14T14:58:21.989Z</time></trkpt><trkpt lat="44.128595" lon="9.792885"><ele>235.0</ele><time>2026-04-14T14:58:22.988Z</time></trkpt><trkpt lat="44.1285183" lon="9.7930217"><ele>234.0</ele><time>2026-04-14T14:58:23.989Z</time></trkpt><trkpt lat="44.1284567" lon="9.793165"><ele>233.0</ele><time>2026-04-14T14:58:24.988Z</time></trkpt><trkpt lat="44.1284117" lon="9.7933333"><ele>232.0</ele><time>2026-04-14T14:58:25.988Z</time></trkpt><trkpt lat="44.128365" lon="9.793495"><ele>231.0</ele><time>2026-04-14T14:58:26.988Z</time></trkpt><trkpt lat="44.1283283" lon="9.7936633"><ele>231.0</ele><time>2026-04-14T14:58:27.988Z</time></trkpt><trkpt lat="44.1283067" lon="9.79384"><ele>231.0</ele><time>2026-04-14T14:58:28.988Z</time></trkpt><trkpt lat="44.1282983" lon="9.7939933"><ele>231.0</ele><time>2026-04-14T14:58:29.988Z</time></trkpt><trkpt lat="44.1282867" lon="9.794145"><ele>231.0</ele><time>2026-04-14T14:58:30.988Z</time></trkpt><trkpt lat="44.1282667" lon="9.7942833"><ele>226.4</ele><time>2026-04-14T14:58:31.988Z</time></trkpt><trkpt lat="44.128215" lon="9.794395"><ele>221.8</ele><time>2026-04-14T14:58:32.988Z</time></trkpt><trkpt lat="44.1281417" lon="9.7944933"><ele>217.20000000000002</ele><time>2026-04-14T14:58:33.988Z</time></trkpt><trkpt lat="44.1280567" lon="9.794555"><ele>212.60000000000002</ele><time>2026-04-14T14:58:34.989Z</time></trkpt><trkpt lat="44.127965" lon="9.7946033"><ele>208.0</ele><time>2026-04-14T14:58:35.988Z</time></trkpt><trkpt lat="44.1278767" lon="9.794655"><ele>208.0</ele><time>2026-04-14T14:58:36.988Z</time></trkpt><trkpt lat="44.127795" lon="9.7947383"><ele>208.0</ele><time>2026-04-14T14:58:37.988Z</time></trkpt><trkpt lat="44.1277317" lon="9.794855"><ele>208.0</ele><time>2026-04-14T14:58:38.988Z</time></trkpt><trkpt lat="44.12771" lon="9.7949933"><ele>208.0</ele><time>2026-04-14T14:58:39.988Z</time></trkpt><trkpt lat="44.1277267" lon="9.7951383"><ele>208.0</ele><time>2026-04-14T14:58:40.988Z</time></trkpt><trkpt lat="44.1277567" lon="9.795295"><ele>205.75</ele><time>2026-04-14T14:58:41.988Z</time></trkpt><trkpt lat="44.1277933" lon="9.79545"><ele>203.5</ele><time>2026-04-14T14:58:42.988Z</time></trkpt><trkpt lat="44.1278233" lon="9.7956183"><ele>201.25</ele><time>2026-04-14T14:58:43.988Z</time></trkpt><trkpt lat="44.1278433" lon="9.7957817"><ele>199.0</ele><time>2026-04-14T14:58:44.988Z</time></trkpt><trkpt lat="44.1278683" lon="9.795945"><ele>197.5</ele><time>2026-04-14T14:58:45.988Z</time></trkpt><trkpt lat="44.1278917" lon="9.7961067"><ele>196.0</ele><time>2026-04-14T14:58:46.988Z</time></trkpt><trkpt lat="44.1279233" lon="9.7962633"><ele>194.5</ele><time>2026-04-14T14:58:47.988Z</time></trkpt><trkpt lat="44.1279583" lon="9.796425"><ele>193.0</ele><time>2026-04-14T14:58:48.988Z</time></trkpt><trkpt lat="44.127975" lon="9.7965967"><ele>193.0</ele><time>2026-04-14T14:58:49.988Z</time></trkpt><trkpt lat="44.1280033" lon="9.7967717"><ele>193.0</ele><time>2026-04-14T14:58:50.989Z</time></trkpt><trkpt lat="44.12805" lon="9.7969267"><ele>193.0</ele><time>2026-04-14T14:58:51.988Z</time></trkpt><trkpt lat="44.1281133" lon="9.7970667"><ele>193.0</ele><time>2026-04-14T14:58:52.989Z</time></trkpt><trkpt lat="44.1281833" lon="9.7971933"><ele>195.8</ele><time>2026-04-14T14:58:53.988Z</time></trkpt><trkpt lat="44.1282433" lon="9.7973067"><ele>198.60000000000002</ele><time>2026-04-14T14:58:54.989Z</time></trkpt><trkpt lat="44.1282767" lon="9.797435"><ele>201.39999999999998</ele><time>2026-04-14T14:58:55.988Z</time></trkpt><trkpt lat="44.128295" lon="9.797575"><ele>204.2</ele><time>2026-04-14T14:58:56.989Z</time></trkpt><trkpt lat="44.1282733" lon="9.797715"><ele>207.0</ele><time>2026-04-14T14:58:57.989Z</time></trkpt><trkpt lat="44.1282283" lon="9.7978467"><ele>200.0</ele><time>2026-04-14T14:58:58.988Z</time></trkpt><trkpt lat="44.1281733" lon="9.7979767"><ele>193.0</ele><time>2026-04-14T14:58:59.989Z</time></trkpt><trkpt lat="44.128125" lon="9.79812"><ele>186.0</ele><time>2026-04-14T14:59:00.988Z</time></trkpt><trkpt lat="44.1281083" lon="9.79828"><ele>179.0</ele><time>2026-04-14T14:59:01.989Z</time></trkpt><trkpt lat="44.12812" lon="9.798435"><ele>175.5</ele><time>2026-04-14T14:59:02.988Z</time></trkpt><trkpt lat="44.12814" lon="9.7986"><ele>172.0</ele><time>2026-04-14T14:59:03.988Z</time></trkpt><trkpt lat="44.12815" lon="9.7987817"><ele>168.5</ele><time>2026-04-14T14:59:04.988Z</time></trkpt><trkpt lat="44.128165" lon="9.7989517"><ele>165.0</ele><time>2026-04-14T14:59:05.988Z</time></trkpt><trkpt lat="44.1281817" lon="9.79912"><ele>165.0</ele><time>2026-04-14T14:59:06.989Z</time></trkpt><trkpt lat="44.1281917" lon="9.7992983"><ele>165.0</ele><time>2026-04-14T14:59:07.988Z</time></trkpt><trkpt lat="44.128205" lon="9.7994817"><ele>165.0</ele><time>2026-04-14T14:59:08.988Z</time></trkpt><trkpt lat="44.12822" lon="9.799665"><ele>165.0</ele><time>2026-04-14T14:59:09.989Z</time></trkpt><trkpt lat="44.1282433" lon="9.7998483"><ele>168.5</ele><time>2026-04-14T14:59:10.988Z</time></trkpt><trkpt lat="44.1282967" lon="9.80002"><ele>172.0</ele><time>2026-04-14T14:59:11.989Z</time></trkpt><trkpt lat="44.1283583" lon="9.8001817"><ele>175.5</ele><time>2026-04-14T14:59:12.988Z</time></trkpt><trkpt lat="44.12843" lon="9.8003417"><ele>179.0</ele><time>2026-04-14T14:59:13.988Z</time></trkpt><trkpt lat="44.1284933" lon="9.80049"><ele>179.0</ele><time>2026-04-14T14:59:14.988Z</time></trkpt><trkpt lat="44.12853" lon="9.8006583"><ele>179.0</ele><time>2026-04-14T14:59:15.988Z</time></trkpt><trkpt lat="44.1285367" lon="9.8008217"><ele>179.0</ele><time>2026-04-14T14:59:16.988Z</time></trkpt><trkpt lat="44.12852" lon="9.8009917"><ele>179.0</ele><time>2026-04-14T14:59:17.988Z</time></trkpt><trkpt lat="44.128485" lon="9.80115"><ele>179.79999999999998</ele><time>2026-04-14T14:59:18.988Z</time></trkpt><trkpt lat="44.1284583" lon="9.801295"><ele>180.6</ele><time>2026-04-14T14:59:19.988Z</time></trkpt><trkpt lat="44.1284267" lon="9.8014283"><ele>181.4</ele><time>2026-04-14T14:59:20.988Z</time></trkpt><trkpt lat="44.1284167" lon="9.801555"><ele>182.2</ele><time>2026-04-14T14:59:21.988Z</time></trkpt><trkpt lat="44.128405" lon="9.801675"><ele>183.0</ele><time>2026-04-14T14:59:22.988Z</time></trkpt><trkpt lat="44.1283933" lon="9.80179"><ele>185.0</ele><time>2026-04-14T14:59:23.988Z</time></trkpt><trkpt lat="44.1283817" lon="9.801895"><ele>187.0</ele><time>2026-04-14T14:59:24.988Z</time></trkpt><trkpt lat="44.1283733" lon="9.8019867"><ele>189.0</ele><time>2026-04-14T14:59:25.989Z</time></trkpt><trkpt lat="44.1283517" lon="9.802135"><ele>191.0</ele><time>2026-04-14T14:59:27.988Z</time></trkpt><trkpt lat="44.128325" lon="9.8022783"><ele>193.0</ele><time>2026-04-14T14:59:29.988Z</time></trkpt><trkpt lat="44.1282883" lon="9.8024117"><ele>192.99999999999997</ele><time>2026-04-14T14:59:31.989Z</time></trkpt><trkpt lat="44.1282717" lon="9.802535"><ele>193.0</ele><time>2026-04-14T14:59:33.989Z</time></trkpt><trkpt lat="44.1282417" lon="9.8026517"><ele>193.0</ele><time>2026-04-14T14:59:35.989Z</time></trkpt><trkpt lat="44.128225" lon="9.802765"><ele>193.0</ele><time>2026-04-14T14:59:37.988Z</time></trkpt><trkpt lat="44.1282133" lon="9.802875"><ele>192.99999999999997</ele><time>2026-04-14T14:59:39.988Z</time></trkpt><trkpt lat="44.1281817" lon="9.8029833"><ele>193.0</ele><time>2026-04-14T14:59:41.988Z</time></trkpt><trkpt lat="44.12814" lon="9.8030883"><ele>190.99999999999997</ele><time>2026-04-14T14:59:43.988Z</time></trkpt><trkpt lat="44.1280933" lon="9.8031933"><ele>189.0</ele><time>2026-04-14T14:59:45.988Z</time></trkpt><trkpt lat="44.1280667" lon="9.8033217"><ele>187.0</ele><time>2026-04-14T14:59:47.988Z</time></trkpt><trkpt lat="44.1280367" lon="9.80344"><ele>185.0</ele><time>2026-04-14T14:59:49.988Z</time></trkpt><trkpt lat="44.1280083" lon="9.8035467"><ele>183.0</ele><time>2026-04-14T14:59:51.988Z</time></trkpt><trkpt lat="44.1279883" lon="9.8036567"><ele>181.0</ele><time>2026-04-14T14:59:53.988Z</time></trkpt><trkpt lat="44.127975" lon="9.8037567"><ele>181.0</ele><time>2026-04-14T14:59:55.988Z</time></trkpt><trkpt lat="44.1279833" lon="9.8038717"><ele>181.0</ele><time>2026-04-14T14:59:57.988Z</time></trkpt><trkpt lat="44.127995" lon="9.80398"><ele>181.0</ele><time>2026-04-14T14:59:59.989Z</time></trkpt><trkpt lat="44.1280217" lon="9.8040783"><ele>181.0</ele><time>2026-04-14T15:00:01.988Z</time></trkpt><trkpt lat="44.128045" lon="9.8041867"><ele>181.0</ele><time>2026-04-14T15:00:03.989Z</time></trkpt><trkpt lat="44.1280583" lon="9.8042917"><ele>181.0</ele><time>2026-04-14T15:00:05.988Z</time></trkpt><trkpt lat="44.128065" lon="9.8043967"><ele>182.33333333333334</ele><time>2026-04-14T15:00:07.988Z</time></trkpt><trkpt lat="44.12806" lon="9.80451"><ele>183.66666666666669</ele><time>2026-04-14T15:00:09.988Z</time></trkpt><trkpt lat="44.12804" lon="9.8046217"><ele>185.0</ele><time>2026-04-14T15:00:11.989Z</time></trkpt><trkpt lat="44.1280267" lon="9.804725"><ele>186.33333333333334</ele><time>2026-04-14T15:00:13.988Z</time></trkpt><trkpt lat="44.128005" lon="9.8048367"><ele>187.66666666666666</ele><time>2026-04-14T15:00:15.988Z</time></trkpt><trkpt lat="44.1279817" lon="9.80495"><ele>189.0</ele><time>2026-04-14T15:00:17.989Z</time></trkpt><trkpt lat="44.1279467" lon="9.8050583"><ele>189.0</ele><time>2026-04-14T15:00:19.988Z</time></trkpt><trkpt lat="44.1279183" lon="9.805145"><ele>189.0</ele><time>2026-04-14T15:00:21.988Z</time></trkpt><trkpt lat="44.1278933" lon="9.8052433"><ele>189.0</ele><time>2026-04-14T15:00:23.988Z</time></trkpt><trkpt lat="44.1278733" lon="9.80533"><ele>189.0</ele><time>2026-04-14T15:00:25.988Z</time></trkpt><trkpt lat="44.1278417" lon="9.8054283"><ele>189.0</ele><time>2026-04-14T15:00:27.988Z</time></trkpt><trkpt lat="44.1278067" lon="9.8055367"><ele>189.0</ele><time>2026-04-14T15:00:29.989Z</time></trkpt><trkpt lat="44.127755" lon="9.80563"><ele>188.85714285714286</ele><time>2026-04-14T15:00:31.988Z</time></trkpt><trkpt lat="44.1277" lon="9.8056983"><ele>188.71428571428572</ele><time>2026-04-14T15:00:33.988Z</time></trkpt><trkpt lat="44.127635" lon="9.8057383"><ele>188.57142857142856</ele><time>2026-04-14T15:00:35.989Z</time></trkpt><trkpt lat="44.1275733" lon="9.80578"><ele>188.42857142857144</ele><time>2026-04-14T15:00:37.989Z</time></trkpt><trkpt lat="44.127515" lon="9.8058217"><ele>188.28571428571428</ele><time>2026-04-14T15:00:39.988Z</time></trkpt><trkpt lat="44.12745" lon="9.8058617"><ele>188.14285714285714</ele><time>2026-04-14T15:00:41.988Z</time></trkpt><trkpt lat="44.1274017" lon="9.8059267"><ele>188.0</ele><time>2026-04-14T15:00:43.988Z</time></trkpt><trkpt lat="44.1273467" lon="9.8060167"><ele>188.0</ele><time>2026-04-14T15:00:46.989Z</time></trkpt><trkpt lat="44.1273183" lon="9.8061017"><ele>188.0</ele><time>2026-04-14T15:00:48.988Z</time></trkpt><trkpt lat="44.1273133" lon="9.8062317"><ele>188.0</ele><time>2026-04-14T15:00:51.989Z</time></trkpt><trkpt lat="44.1273233" lon="9.8063233"><ele>188.0</ele><time>2026-04-14T15:00:53.988Z</time></trkpt><trkpt lat="44.1273317" lon="9.8064183"><ele>188.0</ele><time>2026-04-14T15:00:55.988Z</time></trkpt><trkpt lat="44.1273533" lon="9.8065117"><ele>188.0</ele><time>2026-04-14T15:00:57.988Z</time></trkpt><trkpt lat="44.127395" lon="9.806625"><ele>190.14285714285714</ele><time>2026-04-14T15:01:00.988Z</time></trkpt><trkpt lat="44.1274383" lon="9.8067267"><ele>192.28571428571428</ele><time>2026-04-14T15:01:03.988Z</time></trkpt><trkpt lat="44.1274533" lon="9.8068267"><ele>194.42857142857144</ele><time>2026-04-14T15:01:06.988Z</time></trkpt><trkpt lat="44.1274617" lon="9.8069483"><ele>196.57142857142856</ele><time>2026-04-14T15:01:09.988Z</time></trkpt><trkpt lat="44.1274383" lon="9.80703"><ele>198.71428571428572</ele><time>2026-04-14T15:01:11.988Z</time></trkpt><trkpt lat="44.1274" lon="9.8071"><ele>200.85714285714286</ele><time>2026-04-14T15:01:13.989Z</time></trkpt><trkpt lat="44.12735" lon="9.8071567"><ele>203.0</ele><time>2026-04-14T15:01:15.988Z</time></trkpt><trkpt lat="44.1272983" lon="9.80721"><ele>203.0</ele><time>2026-04-14T15:01:17.988Z</time></trkpt><trkpt lat="44.127225" lon="9.8072867"><ele>203.0</ele><time>2026-04-14T15:01:20.988Z</time></trkpt><trkpt lat="44.1271817" lon="9.8073533"><ele>203.0</ele><time>2026-04-14T15:01:22.988Z</time></trkpt><trkpt lat="44.1271333" lon="9.8074217"><ele>203.0</ele><time>2026-04-14T15:01:24.988Z</time></trkpt><trkpt lat="44.1270917" lon="9.8075033"><ele>203.0</ele><time>2026-04-14T15:01:26.989Z</time></trkpt><trkpt lat="44.1270467" lon="9.807565"><ele>203.0</ele><time>2026-04-14T15:01:28.988Z</time></trkpt><trkpt lat="44.1270033" lon="9.8076417"><ele>203.0</ele><time>2026-04-14T15:01:30.988Z</time></trkpt><trkpt lat="44.1269567" lon="9.8077217"><ele>204.0</ele><time>2026-04-14T15:01:32.988Z</time></trkpt><trkpt lat="44.1269117" lon="9.8077917"><ele>205.0</ele><time>2026-04-14T15:01:34.989Z</time></trkpt><trkpt lat="44.1268617" lon="9.807865"><ele>206.0</ele><time>2026-04-14T15:01:36.988Z</time></trkpt><trkpt lat="44.1268167" lon="9.80795"><ele>207.0</ele><time>2026-04-14T15:01:38.988Z</time></trkpt><trkpt lat="44.1267917" lon="9.808045"><ele>208.0</ele><time>2026-04-14T15:01:40.987Z</time></trkpt><trkpt lat="44.126775" lon="9.80814"><ele>209.0</ele><time>2026-04-14T15:01:42.987Z</time></trkpt><trkpt lat="44.126775" lon="9.80826"><ele>210.0</ele><time>2026-04-14T15:01:45.987Z</time></trkpt><trkpt lat="44.1267817" lon="9.808375"><ele>210.0</ele><time>2026-04-14T15:01:48.987Z</time></trkpt><trkpt lat="44.1267917" lon="9.808475"><ele>210.0</ele><time>2026-04-14T15:01:51.987Z</time></trkpt><trkpt lat="44.126795" lon="9.8086017"><ele>210.0</ele><time>2026-04-14T15:01:54.987Z</time></trkpt><trkpt lat="44.12679" lon="9.80871"><ele>210.0</ele><time>2026-04-14T15:01:57.987Z</time></trkpt><trkpt lat="44.1267817" lon="9.808815"><ele>210.0</ele><time>2026-04-14T15:01:59.987Z</time></trkpt><trkpt lat="44.1267583" lon="9.8089067"><ele>210.0</ele><time>2026-04-14T15:02:01.988Z</time></trkpt><trkpt lat="44.1267317" lon="9.8090083"><ele>210.14285714285714</ele><time>2026-04-14T15:02:03.988Z</time></trkpt><trkpt lat="44.1267083" lon="9.8090983"><ele>210.28571428571428</ele><time>2026-04-14T15:02:05.987Z</time></trkpt><trkpt lat="44.1266833" lon="9.8091833"><ele>210.42857142857144</ele><time>2026-04-14T15:02:07.987Z</time></trkpt><trkpt lat="44.1266417" lon="9.809265"><ele>210.57142857142856</ele><time>2026-04-14T15:02:09.987Z</time></trkpt><trkpt lat="44.126575" lon="9.8093517"><ele>210.71428571428572</ele><time>2026-04-14T15:02:12.987Z</time></trkpt><trkpt lat="44.1264983" lon="9.8094033"><ele>210.85714285714286</ele><time>2026-04-14T15:02:15.988Z</time></trkpt><trkpt lat="44.1264333" lon="9.809415"><ele>211.0</ele><time>2026-04-14T15:02:17.987Z</time></trkpt><trkpt lat="44.1263567" lon="9.8094267"><ele>211.0</ele><time>2026-04-14T15:02:19.988Z</time></trkpt><trkpt lat="44.1262867" lon="9.8093983"><ele>211.0</ele><time>2026-04-14T15:02:21.987Z</time></trkpt><trkpt lat="44.1262233" lon="9.809365"><ele>211.0</ele><time>2026-04-14T15:02:23.987Z</time></trkpt><trkpt lat="44.1261483" lon="9.80935"><ele>211.0</ele><time>2026-04-14T15:02:25.987Z</time></trkpt><trkpt lat="44.1260817" lon="9.8093633"><ele>211.0</ele><time>2026-04-14T15:02:27.987Z</time></trkpt><trkpt lat="44.1260183" lon="9.80939"><ele>211.0</ele><time>2026-04-14T15:02:29.987Z</time></trkpt><trkpt lat="44.1259583" lon="9.8094283"><ele>211.0</ele><time>2026-04-14T15:02:31.987Z</time></trkpt><trkpt lat="44.12589" lon="9.8095083"><ele>210.99999999999997</ele><time>2026-04-14T15:02:34.987Z</time></trkpt><trkpt lat="44.12584" lon="9.8096267"><ele>211.0</ele><time>2026-04-14T15:02:37.988Z</time></trkpt><trkpt lat="44.1258183" lon="9.809725"><ele>211.0</ele><time>2026-04-14T15:02:39.987Z</time></trkpt><trkpt lat="44.1258383" lon="9.809825"><ele>211.0</ele><time>2026-04-14T15:02:41.987Z</time></trkpt><trkpt lat="44.1258717" lon="9.8099033"><ele>210.99999999999997</ele><time>2026-04-14T15:02:43.988Z</time></trkpt><trkpt lat="44.125905" lon="9.8099983"><ele>211.0</ele><time>2026-04-14T15:02:45.987Z</time></trkpt><trkpt lat="44.1259417" lon="9.810085"><ele>211.14285714285714</ele><time>2026-04-14T15:02:47.987Z</time></trkpt><trkpt lat="44.1259733" lon="9.8101733"><ele>211.28571428571428</ele><time>2026-04-14T15:02:49.987Z</time></trkpt><trkpt lat="44.12599" lon="9.8102717"><ele>211.42857142857144</ele><time>2026-04-14T15:02:51.987Z</time></trkpt><trkpt lat="44.1259967" lon="9.8103683"><ele>211.57142857142856</ele><time>2026-04-14T15:02:53.988Z</time></trkpt><trkpt lat="44.1260017" lon="9.8104717"><ele>211.7142857142857</ele><time>2026-04-14T15:02:55.987Z</time></trkpt><trkpt lat="44.12601" lon="9.81057"><ele>211.85714285714286</ele><time>2026-04-14T15:02:57.987Z</time></trkpt><trkpt lat="44.1260283" lon="9.810665"><ele>212.0</ele><time>2026-04-14T15:02:59.987Z</time></trkpt><trkpt lat="44.126055" lon="9.8107483"><ele>212.0</ele><time>2026-04-14T15:03:01.987Z</time></trkpt><trkpt lat="44.1260917" lon="9.81084"><ele>212.0</ele><time>2026-04-14T15:03:03.987Z</time></trkpt><trkpt lat="44.1261267" lon="9.8109333"><ele>212.0</ele><time>2026-04-14T15:03:05.988Z</time></trkpt><trkpt lat="44.1261517" lon="9.81103"><ele>212.0</ele><time>2026-04-14T15:03:07.987Z</time></trkpt><trkpt lat="44.1261717" lon="9.8111133"><ele>212.0</ele><time>2026-04-14T15:03:09.987Z</time></trkpt><trkpt lat="44.12619" lon="9.8112083"><ele>212.0</ele><time>2026-04-14T15:03:11.987Z</time></trkpt><trkpt lat="44.1262067" lon="9.811295"><ele>212.0</ele><time>2026-04-14T15:03:13.987Z</time></trkpt><trkpt lat="44.12623" lon="9.8114283"><ele>211.0</ele><time>2026-04-14T15:03:16.987Z</time></trkpt><trkpt lat="44.1262317" lon="9.8115317"><ele>210.0</ele><time>2026-04-14T15:03:18.987Z</time></trkpt><trkpt lat="44.1262233" lon="9.81163"><ele>209.0</ele><time>2026-04-14T15:03:20.987Z</time></trkpt><trkpt lat="44.1262083" lon="9.8117283"><ele>208.0</ele><time>2026-04-14T15:03:22.988Z</time></trkpt><trkpt lat="44.1261883" lon="9.811815"><ele>207.0</ele><time>2026-04-14T15:03:24.987Z</time></trkpt><trkpt lat="44.126175" lon="9.811905"><ele>206.0</ele><time>2026-04-14T15:03:26.988Z</time></trkpt><trkpt lat="44.1261617" lon="9.8119917"><ele>205.0</ele><time>2026-04-14T15:03:28.988Z</time></trkpt><trkpt lat="44.126145" lon="9.81208"><ele>204.85714285714286</ele><time>2026-04-14T15:03:30.987Z</time></trkpt><trkpt lat="44.1261567" lon="9.812175"><ele>204.7142857142857</ele><time>2026-04-14T15:03:32.987Z</time></trkpt><trkpt lat="44.1261983" lon="9.812255"><ele>204.57142857142856</ele><time>2026-04-14T15:03:34.988Z</time></trkpt><trkpt lat="44.126255" lon="9.812325"><ele>204.42857142857144</ele><time>2026-04-14T15:03:36.987Z</time></trkpt><trkpt lat="44.1263067" lon="9.8123883"><ele>204.28571428571428</ele><time>2026-04-14T15:03:38.987Z</time></trkpt><trkpt lat="44.12637" lon="9.8124767"><ele>204.14285714285714</ele><time>2026-04-14T15:03:41.987Z</time></trkpt><trkpt lat="44.1264133" lon="9.8125517"><ele>204.0</ele><time>2026-04-14T15:03:43.987Z</time></trkpt><trkpt lat="44.126475" lon="9.8126367"><ele>204.83333333333334</ele><time>2026-04-14T15:03:46.988Z</time></trkpt><trkpt lat="44.1265233" lon="9.8126933"><ele>205.66666666666669</ele><time>2026-04-14T15:03:48.988Z</time></trkpt><trkpt lat="44.1265833" lon="9.8127567"><ele>206.5</ele><time>2026-04-14T15:03:50.988Z</time></trkpt><trkpt lat="44.1266333" lon="9.8128183"><ele>207.33333333333334</ele><time>2026-04-14T15:03:52.988Z</time></trkpt><trkpt lat="44.1266717" lon="9.8129067"><ele>208.16666666666669</ele><time>2026-04-14T15:03:54.987Z</time></trkpt><trkpt lat="44.126695" lon="9.81301"><ele>209.0</ele><time>2026-04-14T15:03:56.987Z</time></trkpt><trkpt lat="44.1266933" lon="9.81314"><ele>212.33333333333334</ele><time>2026-04-14T15:03:58.987Z</time></trkpt><trkpt lat="44.1266867" lon="9.81324"><ele>215.66666666666669</ele><time>2026-04-14T15:04:00.987Z</time></trkpt><trkpt lat="44.12668" lon="9.8133383"><ele>219.0</ele><time>2026-04-14T15:04:02.988Z</time></trkpt><trkpt lat="44.1266883" lon="9.8134433"><ele>222.33333333333331</ele><time>2026-04-14T15:04:04.988Z</time></trkpt><trkpt lat="44.126685" lon="9.8135433"><ele>225.66666666666666</ele><time>2026-04-14T15:04:06.987Z</time></trkpt><trkpt lat="44.1266883" lon="9.8136433"><ele>229.0</ele><time>2026-04-14T15:04:08.987Z</time></trkpt><trkpt lat="44.1267083" lon="9.8137617"><ele>229.33333333333331</ele><time>2026-04-14T15:04:10.987Z</time></trkpt><trkpt lat="44.1267333" lon="9.813915"><ele>229.66666666666666</ele><time>2026-04-14T15:04:12.987Z</time></trkpt><trkpt lat="44.1267467" lon="9.8140117"><ele>230.0</ele><time>2026-04-14T15:04:13.987Z</time></trkpt><trkpt lat="44.1267533" lon="9.8141067"><ele>230.33333333333331</ele><time>2026-04-14T15:04:14.987Z</time></trkpt><trkpt lat="44.1267583" lon="9.814215"><ele>230.66666666666666</ele><time>2026-04-14T15:04:15.987Z</time></trkpt><trkpt lat="44.1267467" lon="9.8143167"><ele>231.0</ele><time>2026-04-14T15:04:16.987Z</time></trkpt><trkpt lat="44.12671" lon="9.814405"><ele>229.20000000000002</ele><time>2026-04-14T15:04:17.988Z</time></trkpt><trkpt lat="44.12665" lon="9.81446"><ele>227.40000000000003</ele><time>2026-04-14T15:04:18.987Z</time></trkpt><trkpt lat="44.1265733" lon="9.8144817"><ele>225.6</ele><time>2026-04-14T15:04:19.987Z</time></trkpt><trkpt lat="44.1264867" lon="9.8144617"><ele>223.8</ele><time>2026-04-14T15:04:20.987Z</time></trkpt><trkpt lat="44.126385" lon="9.8143883"><ele>222.0</ele><time>2026-04-14T15:04:21.987Z</time></trkpt><trkpt lat="44.1262933" lon="9.814325"><ele>221.39999999999998</ele><time>2026-04-14T15:04:22.988Z</time></trkpt><trkpt lat="44.1262067" lon="9.8142683"><ele>220.79999999999998</ele><time>2026-04-14T15:04:23.988Z</time></trkpt><trkpt lat="44.12611" lon="9.814225"><ele>220.2</ele><time>2026-04-14T15:04:24.987Z</time></trkpt><trkpt lat="44.1260167" lon="9.8141717"><ele>219.6</ele><time>2026-04-14T15:04:25.988Z</time></trkpt><trkpt lat="44.1259267" lon="9.8141017"><ele>219.0</ele><time>2026-04-14T15:04:26.987Z</time></trkpt><trkpt lat="44.1258433" lon="9.8140467"><ele>219.0</ele><time>2026-04-14T15:04:27.987Z</time></trkpt><trkpt lat="44.1257633" lon="9.81401"><ele>219.0</ele><time>2026-04-14T15:04:28.987Z</time></trkpt><trkpt lat="44.1256833" lon="9.8139833"><ele>219.0</ele><time>2026-04-14T15:04:29.988Z</time></trkpt><trkpt lat="44.1256017" lon="9.814"><ele>219.0</ele><time>2026-04-14T15:04:30.987Z</time></trkpt><trkpt lat="44.12552" lon="9.814055"><ele>219.0</ele><time>2026-04-14T15:04:31.988Z</time></trkpt><trkpt lat="44.125435" lon="9.81413"><ele>219.0</ele><time>2026-04-14T15:04:32.987Z</time></trkpt><trkpt lat="44.1253617" lon="9.8142267"><ele>217.83333333333334</ele><time>2026-04-14T15:04:33.987Z</time></trkpt><trkpt lat="44.1253017" lon="9.814345"><ele>216.66666666666669</ele><time>2026-04-14T15:04:34.987Z</time></trkpt><trkpt lat="44.1252733" lon="9.8144517"><ele>215.5</ele><time>2026-04-14T15:04:35.987Z</time></trkpt><trkpt lat="44.1252633" lon="9.8145767"><ele>214.33333333333334</ele><time>2026-04-14T15:04:36.988Z</time></trkpt><trkpt lat="44.1252417" lon="9.8146933"><ele>213.16666666666669</ele><time>2026-04-14T15:04:37.988Z</time></trkpt><trkpt lat="44.1251867" lon="9.8147817"><ele>212.0</ele><time>2026-04-14T15:04:38.987Z</time></trkpt><trkpt lat="44.1251133" lon="9.8148367"><ele>212.00000000000003</ele><time>2026-04-14T15:04:39.987Z</time></trkpt><trkpt lat="44.125035" lon="9.81485"><ele>212.0</ele><time>2026-04-14T15:04:40.987Z</time></trkpt><trkpt lat="44.12495" lon="9.8148433"><ele>212.0</ele><time>2026-04-14T15:04:41.987Z</time></trkpt><trkpt lat="44.1248583" lon="9.8148417"><ele>212.0</ele><time>2026-04-14T15:04:42.987Z</time></trkpt><trkpt lat="44.1247717" lon="9.8148517"><ele>212.00000000000003</ele><time>2026-04-14T15:04:43.987Z</time></trkpt><trkpt lat="44.1246867" lon="9.81489"><ele>212.0</ele><time>2026-04-14T15:04:44.987Z</time></trkpt><trkpt lat="44.1245983" lon="9.8149633"><ele>209.2</ele><time>2026-04-14T15:04:45.987Z</time></trkpt><trkpt lat="44.1245383" lon="9.8150933"><ele>206.39999999999998</ele><time>2026-04-14T15:04:46.987Z</time></trkpt><trkpt lat="44.12448" lon="9.8152183"><ele>203.60000000000002</ele><time>2026-04-14T15:04:47.988Z</time></trkpt><trkpt lat="44.1244417" lon="9.8153317"><ele>200.8</ele><time>2026-04-14T15:04:48.987Z</time></trkpt><trkpt lat="44.12442" lon="9.8154367"><ele>198.0</ele><time>2026-04-14T15:04:49.987Z</time></trkpt><trkpt lat="44.124405" lon="9.8155233"><ele>198.0</ele><time>2026-04-14T15:04:50.988Z</time></trkpt><trkpt lat="44.12438" lon="9.815625"><ele>198.0</ele><time>2026-04-14T15:04:52.988Z</time></trkpt><trkpt lat="44.1243117" lon="9.815605"><ele>198.0</ele><time>2026-04-14T15:04:54.987Z</time></trkpt><trkpt lat="44.1243" lon="9.81545"><ele>198.0</ele><time>2026-04-14T15:04:56.988Z</time></trkpt><trkpt lat="44.1243217" lon="9.8153433"><ele>198.0</ele><time>2026-04-14T15:04:57.988Z</time></trkpt><trkpt lat="44.124345" lon="9.8152033"><ele>198.0</ele><time>2026-04-14T15:04:58.987Z</time></trkpt><trkpt lat="44.1243667" lon="9.815085"><ele>197.0</ele><time>2026-04-14T15:04:59.987Z</time></trkpt><trkpt lat="44.1243817" lon="9.8149617"><ele>196.0</ele><time>2026-04-14T15:05:00.988Z</time></trkpt><trkpt lat="44.1244017" lon="9.8148383"><ele>195.0</ele><time>2026-04-14T15:05:01.987Z</time></trkpt><trkpt lat="44.1244183" lon="9.81471"><ele>194.0</ele><time>2026-04-14T15:05:02.988Z</time></trkpt><trkpt lat="44.1244367" lon="9.8145867"><ele>193.0</ele><time>2026-04-14T15:05:03.988Z</time></trkpt><trkpt lat="44.124465" lon="9.8144833"><ele>192.0</ele><time>2026-04-14T15:05:04.987Z</time></trkpt><trkpt lat="44.124505" lon="9.8144"><ele>192.0</ele><time>2026-04-14T15:05:05.988Z</time></trkpt><trkpt lat="44.1245617" lon="9.8143383"><ele>192.0</ele><time>2026-04-14T15:05:06.987Z</time></trkpt><trkpt lat="44.12461" lon="9.8142783"><ele>192.0</ele><time>2026-04-14T15:05:07.987Z</time></trkpt><trkpt lat="44.12462" lon="9.81414"><ele>192.0</ele><time>2026-04-14T15:05:09.987Z</time></trkpt><trkpt lat="44.124525" lon="9.8141"><ele>192.0</ele><time>2026-04-14T15:05:11.987Z</time></trkpt><trkpt lat="44.1244567" lon="9.8141633"><ele>192.0</ele><time>2026-04-14T15:05:12.987Z</time></trkpt><trkpt lat="44.1243817" lon="9.814255"><ele>192.0</ele><time>2026-04-14T15:05:13.987Z</time></trkpt><trkpt lat="44.1243133" lon="9.8143567"><ele>192.0</ele><time>2026-04-14T15:05:14.987Z</time></trkpt><trkpt lat="44.1242433" lon="9.81447"><ele>192.0</ele><time>2026-04-14T15:05:15.987Z</time></trkpt><trkpt lat="44.1241867" lon="9.8145817"><ele>192.0</ele><time>2026-04-14T15:05:16.987Z</time></trkpt><trkpt lat="44.1241317" lon="9.8147"><ele>192.0</ele><time>2026-04-14T15:05:17.987Z</time></trkpt><trkpt lat="44.1240783" lon="9.8148067"><ele>190.6</ele><time>2026-04-14T15:05:18.988Z</time></trkpt><trkpt lat="44.1240133" lon="9.8149117"><ele>189.2</ele><time>2026-04-14T15:05:19.987Z</time></trkpt><trkpt lat="44.1239367" lon="9.81501"><ele>187.8</ele><time>2026-04-14T15:05:20.987Z</time></trkpt><trkpt lat="44.1238467" lon="9.8150817"><ele>186.4</ele><time>2026-04-14T15:05:21.987Z</time></trkpt><trkpt lat="44.1237517" lon="9.8151533"><ele>185.0</ele><time>2026-04-14T15:05:22.987Z</time></trkpt><trkpt lat="44.123655" lon="9.8152317"><ele>185.0</ele><time>2026-04-14T15:05:23.987Z</time></trkpt><trkpt lat="44.123575" lon="9.8153017"><ele>185.0</ele><time>2026-04-14T15:05:24.987Z</time></trkpt><trkpt lat="44.1234833" lon="9.8153567"><ele>185.0</ele><time>2026-04-14T15:05:25.988Z</time></trkpt><trkpt lat="44.1233867" lon="9.8153833"><ele>185.0</ele><time>2026-04-14T15:05:26.987Z</time></trkpt><trkpt lat="44.1232867" lon="9.815375"><ele>185.0</ele><time>2026-04-14T15:05:27.987Z</time></trkpt><trkpt lat="44.1231867" lon="9.81534"><ele>182.0</ele><time>2026-04-14T15:05:28.987Z</time></trkpt><trkpt lat="44.123085" lon="9.8152917"><ele>179.0</ele><time>2026-04-14T15:05:29.987Z</time></trkpt><trkpt lat="44.1229767" lon="9.815245"><ele>176.0</ele><time>2026-04-14T15:05:30.987Z</time></trkpt><trkpt lat="44.1228617" lon="9.8151933"><ele>173.0</ele><time>2026-04-14T15:05:31.987Z</time></trkpt><trkpt lat="44.1227467" lon="9.81519"><ele>173.0</ele><time>2026-04-14T15:05:32.987Z</time></trkpt><trkpt lat="44.1226433" lon="9.8151783"><ele>173.0</ele><time>2026-04-14T15:05:33.987Z</time></trkpt><trkpt lat="44.1225467" lon="9.8151883"><ele>173.0</ele><time>2026-04-14T15:05:34.987Z</time></trkpt><trkpt lat="44.1224533" lon="9.81522"><ele>173.0</ele><time>2026-04-14T15:05:35.987Z</time></trkpt><trkpt lat="44.1223767" lon="9.8152967"><ele>173.0</ele><time>2026-04-14T15:05:36.987Z</time></trkpt><trkpt lat="44.122325" lon="9.8154183"><ele>171.83333333333331</ele><time>2026-04-14T15:05:37.987Z</time></trkpt><trkpt lat="44.1222667" lon="9.8155383"><ele>170.66666666666666</ele><time>2026-04-14T15:05:38.987Z</time></trkpt><trkpt lat="44.1222217" lon="9.81565"><ele>169.5</ele><time>2026-04-14T15:05:39.987Z</time></trkpt><trkpt lat="44.1221717" lon="9.8157317"><ele>168.33333333333334</ele><time>2026-04-14T15:05:40.987Z</time></trkpt><trkpt lat="44.1221133" lon="9.8158517"><ele>167.16666666666669</ele><time>2026-04-14T15:05:42.987Z</time></trkpt><trkpt lat="44.1220467" lon="9.8158167"><ele>166.0</ele><time>2026-04-14T15:05:44.988Z</time></trkpt><trkpt lat="44.122065" lon="9.8156633"><ele>166.0</ele><time>2026-04-14T15:05:46.987Z</time></trkpt><trkpt lat="44.1221083" lon="9.8155933"><ele>166.0</ele><time>2026-04-14T15:05:47.987Z</time></trkpt><trkpt lat="44.122155" lon="9.8155233"><ele>166.0</ele><time>2026-04-14T15:05:48.988Z</time></trkpt><trkpt lat="44.1222" lon="9.8154417"><ele>166.0</ele><time>2026-04-14T15:05:49.987Z</time></trkpt><trkpt lat="44.122235" lon="9.8153567"><ele>166.0</ele><time>2026-04-14T15:05:50.988Z</time></trkpt><trkpt lat="44.12226" lon="9.81527"><ele>166.0</ele><time>2026-04-14T15:05:51.987Z</time></trkpt><trkpt lat="44.1222883" lon="9.8151767"><ele>166.0</ele><time>2026-04-14T15:05:52.987Z</time></trkpt><trkpt lat="44.1223217" lon="9.81508"><ele>165.83333333333334</ele><time>2026-04-14T15:05:53.987Z</time></trkpt><trkpt lat="44.1223617" lon="9.814985"><ele>165.66666666666669</ele><time>2026-04-14T15:05:54.988Z</time></trkpt><trkpt lat="44.122405" lon="9.8149117"><ele>165.5</ele><time>2026-04-14T15:05:55.987Z</time></trkpt><trkpt lat="44.12246" lon="9.8148567"><ele>165.33333333333334</ele><time>2026-04-14T15:05:56.987Z</time></trkpt><trkpt lat="44.1225233" lon="9.814825"><ele>165.16666666666666</ele><time>2026-04-14T15:05:57.988Z</time></trkpt><trkpt lat="44.12261" lon="9.8148167"><ele>165.0</ele><time>2026-04-14T15:05:58.988Z</time></trkpt><trkpt lat="44.1226967" lon="9.814815"><ele>165.0</ele><time>2026-04-14T15:05:59.987Z</time></trkpt><trkpt lat="44.1227783" lon="9.8148183"><ele>165.0</ele><time>2026-04-14T15:06:00.988Z</time></trkpt><trkpt lat="44.1228483" lon="9.8148067"><ele>165.0</ele><time>2026-04-14T15:06:01.988Z</time></trkpt><trkpt lat="44.1229383" lon="9.814725"><ele>165.0</ele><time>2026-04-14T15:06:03.987Z</time></trkpt><trkpt lat="44.12285" lon="9.8146767"><ele>165.0</ele><time>2026-04-14T15:06:06.988Z</time></trkpt><trkpt lat="44.1227367" lon="9.8147183"><ele>165.0</ele><time>2026-04-14T15:06:07.988Z</time></trkpt><trkpt lat="44.12265" lon="9.8147333"><ele>165.0</ele><time>2026-04-14T15:06:08.988Z</time></trkpt><trkpt lat="44.1225633" lon="9.81473"><ele>165.0</ele><time>2026-04-14T15:06:09.988Z</time></trkpt><trkpt lat="44.1224783" lon="9.8147183"><ele>165.0</ele><time>2026-04-14T15:06:10.988Z</time></trkpt><trkpt lat="44.122405" lon="9.8147033"><ele>165.0</ele><time>2026-04-14T15:06:11.987Z</time></trkpt><trkpt lat="44.12233" lon="9.8147167"><ele>165.0</ele><time>2026-04-14T15:06:12.987Z</time></trkpt><trkpt lat="44.122255" lon="9.8147533"><ele>165.2</ele><time>2026-04-14T15:06:13.987Z</time></trkpt><trkpt lat="44.1221867" lon="9.8148217"><ele>165.4</ele><time>2026-04-14T15:06:14.988Z</time></trkpt><trkpt lat="44.122125" lon="9.8149133"><ele>165.60000000000002</ele><time>2026-04-14T15:06:15.987Z</time></trkpt><trkpt lat="44.12207" lon="9.8150367"><ele>165.8</ele><time>2026-04-14T15:06:16.987Z</time></trkpt><trkpt lat="44.1220117" lon="9.8151567"><ele>166.0</ele><time>2026-04-14T15:06:17.987Z</time></trkpt><trkpt lat="44.1219383" lon="9.815255"><ele>166.0</ele><time>2026-04-14T15:06:18.988Z</time></trkpt><trkpt lat="44.12185" lon="9.8153183"><ele>166.0</ele><time>2026-04-14T15:06:19.987Z</time></trkpt><trkpt lat="44.1217533" lon="9.8153317"><ele>166.0</ele><time>2026-04-14T15:06:20.987Z</time></trkpt><trkpt lat="44.1216567" lon="9.8152833"><ele>166.0</ele><time>2026-04-14T15:06:21.987Z</time></trkpt><trkpt lat="44.1215717" lon="9.81521"><ele>166.0</ele><time>2026-04-14T15:06:22.987Z</time></trkpt><trkpt lat="44.1215167" lon="9.81509"><ele>161.0</ele><time>2026-04-14T15:06:23.987Z</time></trkpt><trkpt lat="44.1214867" lon="9.8149467"><ele>156.0</ele><time>2026-04-14T15:06:24.988Z</time></trkpt><trkpt lat="44.121495" lon="9.8147433"><ele>151.0</ele><time>2026-04-14T15:06:25.987Z</time></trkpt><trkpt lat="44.1214867" lon="9.814565"><ele>146.0</ele><time>2026-04-14T15:06:26.987Z</time></trkpt><trkpt lat="44.1214717" lon="9.814405"><ele>144.2</ele><time>2026-04-14T15:06:27.987Z</time></trkpt><trkpt lat="44.1214333" lon="9.8142717"><ele>142.39999999999998</ele><time>2026-04-14T15:06:28.987Z</time></trkpt><trkpt lat="44.1213867" lon="9.814155"><ele>140.6</ele><time>2026-04-14T15:06:29.988Z</time></trkpt><trkpt lat="44.1213083" lon="9.8140583"><ele>138.79999999999998</ele><time>2026-04-14T15:06:30.988Z</time></trkpt><trkpt lat="44.1212333" lon="9.813995"><ele>137.0</ele><time>2026-04-14T15:06:31.987Z</time></trkpt><trkpt lat="44.121145" lon="9.813965"><ele>137.0</ele><time>2026-04-14T15:06:32.987Z</time></trkpt><trkpt lat="44.1210383" lon="9.8139917"><ele>137.0</ele><time>2026-04-14T15:06:33.987Z</time></trkpt><trkpt lat="44.1209233" lon="9.8140583"><ele>137.0</ele><time>2026-04-14T15:06:34.988Z</time></trkpt><trkpt lat="44.1208117" lon="9.8142267"><ele>137.0</ele><time>2026-04-14T15:06:35.987Z</time></trkpt><trkpt lat="44.12071" lon="9.81437"><ele>135.0</ele><time>2026-04-14T15:06:36.987Z</time></trkpt><trkpt lat="44.1206267" lon="9.8144933"><ele>133.0</ele><time>2026-04-14T15:06:37.987Z</time></trkpt><trkpt lat="44.120555" lon="9.8146333"><ele>131.0</ele><time>2026-04-14T15:06:38.987Z</time></trkpt><trkpt lat="44.1204883" lon="9.8147483"><ele>129.0</ele><time>2026-04-14T15:06:39.987Z</time></trkpt><trkpt lat="44.1204217" lon="9.814875"><ele>129.0</ele><time>2026-04-14T15:06:40.988Z</time></trkpt><trkpt lat="44.1203517" lon="9.815005"><ele>129.0</ele><time>2026-04-14T15:06:41.988Z</time></trkpt><trkpt lat="44.1202667" lon="9.8151133"><ele>129.0</ele><time>2026-04-14T15:06:42.987Z</time></trkpt><trkpt lat="44.12016" lon="9.815185"><ele>129.0</ele><time>2026-04-14T15:06:43.987Z</time></trkpt><trkpt lat="44.12004" lon="9.815235"><ele>128.0</ele><time>2026-04-14T15:06:44.988Z</time></trkpt><trkpt lat="44.119935" lon="9.8152833"><ele>127.0</ele><time>2026-04-14T15:06:45.987Z</time></trkpt><trkpt lat="44.1198367" lon="9.8153533"><ele>126.0</ele><time>2026-04-14T15:06:46.987Z</time></trkpt><trkpt lat="44.1197533" lon="9.8154333"><ele>125.0</ele><time>2026-04-14T15:06:47.987Z</time></trkpt><trkpt lat="44.1196667" lon="9.8155067"><ele>124.0</ele><time>2026-04-14T15:06:48.987Z</time></trkpt><trkpt lat="44.1195633" lon="9.8155417"><ele>124.0</ele><time>2026-04-14T15:06:49.987Z</time></trkpt><trkpt lat="44.119455" lon="9.8155417"><ele>124.0</ele><time>2026-04-14T15:06:50.987Z</time></trkpt><trkpt lat="44.1193483" lon="9.8155033"><ele>124.0</ele><time>2026-04-14T15:06:51.987Z</time></trkpt><trkpt lat="44.11925" lon="9.8154733"><ele>124.0</ele><time>2026-04-14T15:06:52.987Z</time></trkpt><trkpt lat="44.1191517" lon="9.81547"><ele>124.0</ele><time>2026-04-14T15:06:53.987Z</time></trkpt><trkpt lat="44.119055" lon="9.8155067"><ele>122.80000000000001</ele><time>2026-04-14T15:06:54.987Z</time></trkpt><trkpt lat="44.11897" lon="9.815585"><ele>121.60000000000001</ele><time>2026-04-14T15:06:55.987Z</time></trkpt><trkpt lat="44.1189283" lon="9.8157083"><ele>120.4</ele><time>2026-04-14T15:06:56.987Z</time></trkpt><trkpt lat="44.11889" lon="9.8158517"><ele>119.2</ele><time>2026-04-14T15:06:57.987Z</time></trkpt><trkpt lat="44.1188333" lon="9.81598"><ele>118.0</ele><time>2026-04-14T15:06:58.987Z</time></trkpt><trkpt lat="44.118765" lon="9.8160983"><ele>118.0</ele><time>2026-04-14T15:06:59.987Z</time></trkpt><trkpt lat="44.1186817" lon="9.816195"><ele>118.0</ele><time>2026-04-14T15:07:00.987Z</time></trkpt><trkpt lat="44.11858" lon="9.8162733"><ele>118.0</ele><time>2026-04-14T15:07:01.988Z</time></trkpt><trkpt lat="44.1184717" lon="9.816325"><ele>118.0</ele><time>2026-04-14T15:07:02.987Z</time></trkpt><trkpt lat="44.1183583" lon="9.81636"><ele>116.0</ele><time>2026-04-14T15:07:03.987Z</time></trkpt><trkpt lat="44.1182333" lon="9.8163933"><ele>114.0</ele><time>2026-04-14T15:07:04.987Z</time></trkpt><trkpt lat="44.1181167" lon="9.8164067"><ele>112.0</ele><time>2026-04-14T15:07:05.987Z</time></trkpt><trkpt lat="44.1180033" lon="9.8164333"><ele>110.0</ele><time>2026-04-14T15:07:06.986Z</time></trkpt><trkpt lat="44.1178933" lon="9.8164517"><ele>110.0</ele><time>2026-04-14T15:07:07.986Z</time></trkpt><trkpt lat="44.1177933" lon="9.8164717"><ele>110.0</ele><time>2026-04-14T15:07:08.986Z</time></trkpt><trkpt lat="44.1176933" lon="9.8165017"><ele>110.0</ele><time>2026-04-14T15:07:09.986Z</time></trkpt><trkpt lat="44.1176" lon="9.816535"><ele>110.0</ele><time>2026-04-14T15:07:10.986Z</time></trkpt><trkpt lat="44.1175267" lon="9.81656"><ele>110.0</ele><time>2026-04-14T15:07:11.987Z</time></trkpt><trkpt lat="44.1174017" lon="9.8165767"><ele>109.83333333333333</ele><time>2026-04-14T15:07:13.986Z</time></trkpt><trkpt lat="44.1173333" lon="9.8165983"><ele>109.66666666666666</ele><time>2026-04-14T15:07:14.986Z</time></trkpt><trkpt lat="44.1172683" lon="9.8166017"><ele>109.5</ele><time>2026-04-14T15:07:15.986Z</time></trkpt><trkpt lat="44.1171883" lon="9.8166167"><ele>109.33333333333334</ele><time>2026-04-14T15:07:16.986Z</time></trkpt><trkpt lat="44.117105" lon="9.8166133"><ele>109.16666666666667</ele><time>2026-04-14T15:07:17.986Z</time></trkpt><trkpt lat="44.117025" lon="9.816605"><ele>109.0</ele><time>2026-04-14T15:07:18.987Z</time></trkpt><trkpt lat="44.1169383" lon="9.8166033"><ele>109.00000000000001</ele><time>2026-04-14T15:07:19.986Z</time></trkpt><trkpt lat="44.11686" lon="9.8166083"><ele>109.0</ele><time>2026-04-14T15:07:20.987Z</time></trkpt><trkpt lat="44.1167833" lon="9.816605"><ele>109.0</ele><time>2026-04-14T15:07:21.986Z</time></trkpt><trkpt lat="44.116705" lon="9.816595"><ele>109.0</ele><time>2026-04-14T15:07:22.986Z</time></trkpt><trkpt lat="44.11663" lon="9.8165867"><ele>109.00000000000001</ele><time>2026-04-14T15:07:23.986Z</time></trkpt><trkpt lat="44.1165483" lon="9.8165817"><ele>109.0</ele><time>2026-04-14T15:07:24.986Z</time></trkpt><trkpt lat="44.116465" lon="9.8165683"><ele>109.83333333333334</ele><time>2026-04-14T15:07:25.986Z</time></trkpt><trkpt lat="44.1163833" lon="9.8165467"><ele>110.66666666666667</ele><time>2026-04-14T15:07:26.986Z</time></trkpt><trkpt lat="44.1163067" lon="9.8165217"><ele>111.5</ele><time>2026-04-14T15:07:27.986Z</time></trkpt><trkpt lat="44.1162317" lon="9.8165033"><ele>112.33333333333334</ele><time>2026-04-14T15:07:28.986Z</time></trkpt><trkpt lat="44.1161483" lon="9.8164867"><ele>113.16666666666667</ele><time>2026-04-14T15:07:29.987Z</time></trkpt><trkpt lat="44.116075" lon="9.81647"><ele>114.0</ele><time>2026-04-14T15:07:30.986Z</time></trkpt><trkpt lat="44.115995" lon="9.81645"><ele>114.0</ele><time>2026-04-14T15:07:31.986Z</time></trkpt><trkpt lat="44.1159167" lon="9.8164333"><ele>114.0</ele><time>2026-04-14T15:07:32.986Z</time></trkpt><trkpt lat="44.1158367" lon="9.8164083"><ele>114.0</ele><time>2026-04-14T15:07:33.986Z</time></trkpt><trkpt lat="44.11576" lon="9.8163817"><ele>114.0</ele><time>2026-04-14T15:07:34.986Z</time></trkpt><trkpt lat="44.1156867" lon="9.8163517"><ele>114.0</ele><time>2026-04-14T15:07:35.986Z</time></trkpt><trkpt lat="44.115615" lon="9.81634"><ele>114.0</ele><time>2026-04-14T15:07:36.986Z</time></trkpt><trkpt lat="44.1155417" lon="9.8163233"><ele>111.42857142857142</ele><time>2026-04-14T15:07:37.986Z</time></trkpt><trkpt lat="44.1154667" lon="9.8163017"><ele>108.85714285714285</ele><time>2026-04-14T15:07:38.987Z</time></trkpt><trkpt lat="44.1154" lon="9.8162817"><ele>106.28571428571428</ele><time>2026-04-14T15:07:39.986Z</time></trkpt><trkpt lat="44.1153433" lon="9.81624"><ele>103.71428571428571</ele><time>2026-04-14T15:07:40.986Z</time></trkpt><trkpt lat="44.11528" lon="9.8162033"><ele>101.14285714285714</ele><time>2026-04-14T15:07:41.986Z</time></trkpt><trkpt lat="44.1152167" lon="9.81615"><ele>98.57142857142856</ele><time>2026-04-14T15:07:42.986Z</time></trkpt><trkpt lat="44.1151467" lon="9.8160883"><ele>96.0</ele><time>2026-04-14T15:07:43.986Z</time></trkpt><trkpt lat="44.1150917" lon="9.8160283"><ele>96.0</ele><time>2026-04-14T15:07:44.986Z</time></trkpt><trkpt lat="44.1150317" lon="9.815975"><ele>96.0</ele><time>2026-04-14T15:07:45.986Z</time></trkpt><trkpt lat="44.1149783" lon="9.81592"><ele>96.0</ele><time>2026-04-14T15:07:46.986Z</time></trkpt><trkpt lat="44.1148917" lon="9.81583"><ele>96.0</ele><time>2026-04-14T15:07:48.986Z</time></trkpt><trkpt lat="44.1148417" lon="9.8157683"><ele>96.0</ele><time>2026-04-14T15:07:49.986Z</time></trkpt><trkpt lat="44.1147383" lon="9.815705"><ele>96.0</ele><time>2026-04-14T15:07:51.986Z</time></trkpt><trkpt lat="44.1146383" lon="9.8157683"><ele>93.4</ele><time>2026-04-14T15:07:53.986Z</time></trkpt><trkpt lat="44.1145883" lon="9.8159017"><ele>90.8</ele><time>2026-04-14T15:07:55.987Z</time></trkpt><trkpt lat="44.11464" lon="9.8160817"><ele>88.2</ele><time>2026-04-14T15:07:57.986Z</time></trkpt><trkpt lat="44.1147" lon="9.81618"><ele>85.60000000000001</ele><time>2026-04-14T15:07:58.987Z</time></trkpt><trkpt lat="44.114755" lon="9.8162617"><ele>83.0</ele><time>2026-04-14T15:07:59.986Z</time></trkpt><trkpt lat="44.1148067" lon="9.816325"><ele>84.85714285714285</ele><time>2026-04-14T15:08:00.986Z</time></trkpt><trkpt lat="44.11486" lon="9.8163733"><ele>86.71428571428572</ele><time>2026-04-14T15:08:01.987Z</time></trkpt><trkpt lat="44.1149233" lon="9.8164183"><ele>88.57142857142857</ele><time>2026-04-14T15:08:02.987Z</time></trkpt><trkpt lat="44.1149867" lon="9.8164783"><ele>90.42857142857142</ele><time>2026-04-14T15:08:03.986Z</time></trkpt><trkpt lat="44.11504" lon="9.8165417"><ele>92.28571428571428</ele><time>2026-04-14T15:08:04.986Z</time></trkpt><trkpt lat="44.115085" lon="9.8166167"><ele>94.14285714285714</ele><time>2026-04-14T15:08:05.986Z</time></trkpt><trkpt lat="44.1151167" lon="9.8166967"><ele>96.0</ele><time>2026-04-14T15:08:06.987Z</time></trkpt><trkpt lat="44.1151467" lon="9.8167867"><ele>95.99999999999999</ele><time>2026-04-14T15:08:07.986Z</time></trkpt><trkpt lat="44.11518" lon="9.816875"><ele>96.0</ele><time>2026-04-14T15:08:08.986Z</time></trkpt><trkpt lat="44.115205" lon="9.8169583"><ele>96.0</ele><time>2026-04-14T15:08:09.986Z</time></trkpt><trkpt lat="44.115225" lon="9.81705"><ele>96.0</ele><time>2026-04-14T15:08:10.986Z</time></trkpt><trkpt lat="44.1152467" lon="9.817145"><ele>96.0</ele><time>2026-04-14T15:08:11.986Z</time></trkpt><trkpt lat="44.115255" lon="9.8172433"><ele>95.99999999999999</ele><time>2026-04-14T15:08:12.986Z</time></trkpt><trkpt lat="44.1152533" lon="9.8173517"><ele>96.0</ele><time>2026-04-14T15:08:13.986Z</time></trkpt><trkpt lat="44.1152333" lon="9.8174567"><ele>96.0</ele><time>2026-04-14T15:08:14.986Z</time></trkpt><trkpt lat="44.1151883" lon="9.8175517"><ele>96.0</ele><time>2026-04-14T15:08:15.986Z</time></trkpt><trkpt lat="44.11512" lon="9.81762"><ele>96.0</ele><time>2026-04-14T15:08:16.986Z</time></trkpt><trkpt lat="44.1150317" lon="9.8176633"><ele>96.0</ele><time>2026-04-14T15:08:17.986Z</time></trkpt><trkpt lat="44.1149367" lon="9.817705"><ele>96.0</ele><time>2026-04-14T15:08:18.986Z</time></trkpt><trkpt lat="44.1148517" lon="9.8177533"><ele>94.8</ele><time>2026-04-14T15:08:19.986Z</time></trkpt><trkpt lat="44.114765" lon="9.8177983"><ele>93.6</ele><time>2026-04-14T15:08:20.986Z</time></trkpt><trkpt lat="44.1146783" lon="9.8178467"><ele>92.4</ele><time>2026-04-14T15:08:21.986Z</time></trkpt><trkpt lat="44.1145917" lon="9.8178967"><ele>91.2</ele><time>2026-04-14T15:08:22.987Z</time></trkpt><trkpt lat="44.1145083" lon="9.817955"><ele>90.0</ele><time>2026-04-14T15:08:23.986Z</time></trkpt><trkpt lat="44.114435" lon="9.81802"><ele>90.0</ele><time>2026-04-14T15:08:24.986Z</time></trkpt><trkpt lat="44.1143667" lon="9.8181167"><ele>90.0</ele><time>2026-04-14T15:08:25.986Z</time></trkpt><trkpt lat="44.1143033" lon="9.818225"><ele>90.0</ele><time>2026-04-14T15:08:26.987Z</time></trkpt><trkpt lat="44.1142417" lon="9.81832"><ele>90.0</ele><time>2026-04-14T15:08:27.987Z</time></trkpt><trkpt lat="44.11418" lon="9.8184183"><ele>90.0</ele><time>2026-04-14T15:08:28.986Z</time></trkpt><trkpt lat="44.1141167" lon="9.8184883"><ele>88.83333333333333</ele><time>2026-04-14T15:08:29.986Z</time></trkpt><trkpt lat="44.1140517" lon="9.81856"><ele>87.66666666666667</ele><time>2026-04-14T15:08:30.986Z</time></trkpt><trkpt lat="44.113975" lon="9.8186217"><ele>86.5</ele><time>2026-04-14T15:08:31.987Z</time></trkpt><trkpt lat="44.1138983" lon="9.81867"><ele>85.33333333333334</ele><time>2026-04-14T15:08:32.986Z</time></trkpt><trkpt lat="44.11381" lon="9.8187117"><ele>84.16666666666667</ele><time>2026-04-14T15:08:33.986Z</time></trkpt><trkpt lat="44.1137233" lon="9.81876"><ele>83.0</ele><time>2026-04-14T15:08:34.986Z</time></trkpt><trkpt lat="44.1136317" lon="9.8188133"><ele>83.0</ele><time>2026-04-14T15:08:35.986Z</time></trkpt><trkpt lat="44.1135367" lon="9.8188733"><ele>83.0</ele><time>2026-04-14T15:08:36.987Z</time></trkpt><trkpt lat="44.1134483" lon="9.8189367"><ele>83.0</ele><time>2026-04-14T15:08:37.986Z</time></trkpt><trkpt lat="44.1133567" lon="9.8189783"><ele>83.0</ele><time>2026-04-14T15:08:38.986Z</time></trkpt><trkpt lat="44.113265" lon="9.819035"><ele>83.0</ele><time>2026-04-14T15:08:39.986Z</time></trkpt><trkpt lat="44.1131833" lon="9.8190933"><ele>80.60000000000001</ele><time>2026-04-14T15:08:40.987Z</time></trkpt><trkpt lat="44.1131" lon="9.8191433"><ele>78.2</ele><time>2026-04-14T15:08:41.987Z</time></trkpt><trkpt lat="44.1130167" lon="9.8191983"><ele>75.8</ele><time>2026-04-14T15:08:42.987Z</time></trkpt><trkpt lat="44.1129317" lon="9.8192433"><ele>73.4</ele><time>2026-04-14T15:08:43.987Z</time></trkpt><trkpt lat="44.1128483" lon="9.8193"><ele>71.0</ele><time>2026-04-14T15:08:44.986Z</time></trkpt><trkpt lat="44.112765" lon="9.8193667"><ele>71.0</ele><time>2026-04-14T15:08:45.986Z</time></trkpt><trkpt lat="44.1126933" lon="9.8194633"><ele>71.0</ele><time>2026-04-14T15:08:46.986Z</time></trkpt><trkpt lat="44.11263" lon="9.81956"><ele>71.0</ele><time>2026-04-14T15:08:47.986Z</time></trkpt><trkpt lat="44.1125617" lon="9.81965"><ele>71.0</ele><time>2026-04-14T15:08:48.986Z</time></trkpt><trkpt lat="44.1124767" lon="9.8197317"><ele>71.0</ele><time>2026-04-14T15:08:49.986Z</time></trkpt><trkpt lat="44.1123967" lon="9.8197933"><ele>71.0</ele><time>2026-04-14T15:08:50.987Z</time></trkpt><trkpt lat="44.112315" lon="9.819845"><ele>71.0</ele><time>2026-04-14T15:08:51.986Z</time></trkpt><trkpt lat="44.1122283" lon="9.8198917"><ele>71.0</ele><time>2026-04-14T15:08:52.987Z</time></trkpt><trkpt lat="44.1121483" lon="9.8199383"><ele>71.0</ele><time>2026-04-14T15:08:53.986Z</time></trkpt><trkpt lat="44.1120733" lon="9.8199683"><ele>71.0</ele><time>2026-04-14T15:08:54.986Z</time></trkpt><trkpt lat="44.112005" lon="9.8200017"><ele>71.0</ele><time>2026-04-14T15:08:55.986Z</time></trkpt><trkpt lat="44.1119383" lon="9.8200367"><ele>71.0</ele><time>2026-04-14T15:08:56.986Z</time></trkpt><trkpt lat="44.111865" lon="9.8200667"><ele>71.0</ele><time>2026-04-14T15:08:57.986Z</time></trkpt><trkpt lat="44.11179" lon="9.820095"><ele>71.0</ele><time>2026-04-14T15:08:58.986Z</time></trkpt><trkpt lat="44.1117217" lon="9.82012"><ele>71.0</ele><time>2026-04-14T15:08:59.986Z</time></trkpt><trkpt lat="44.1116483" lon="9.8201633"><ele>71.0</ele><time>2026-04-14T15:09:00.986Z</time></trkpt><trkpt lat="44.1115783" lon="9.8201967"><ele>71.0</ele><time>2026-04-14T15:09:01.986Z</time></trkpt><trkpt lat="44.1115117" lon="9.8202317"><ele>72.0</ele><time>2026-04-14T15:09:02.986Z</time></trkpt><trkpt lat="44.1114" lon="9.8203017"><ele>73.0</ele><time>2026-04-14T15:09:04.986Z</time></trkpt><trkpt lat="44.1112933" lon="9.8203717"><ele>74.0</ele><time>2026-04-14T15:09:06.986Z</time></trkpt><trkpt lat="44.1111817" lon="9.8204317"><ele>75.0</ele><time>2026-04-14T15:09:08.987Z</time></trkpt><trkpt lat="44.11107" lon="9.8204617"><ele>75.0</ele><time>2026-04-14T15:09:10.986Z</time></trkpt><trkpt lat="44.1109767" lon="9.82048"><ele>75.0</ele><time>2026-04-14T15:09:12.986Z</time></trkpt><trkpt lat="44.1108817" lon="9.8205"><ele>75.0</ele><time>2026-04-14T15:09:14.987Z</time></trkpt><trkpt lat="44.11079" lon="9.820515"><ele>75.0</ele><time>2026-04-14T15:09:16.986Z</time></trkpt><trkpt lat="44.1106833" lon="9.8205333"><ele>75.0</ele><time>2026-04-14T15:09:18.986Z</time></trkpt><trkpt lat="44.11062" lon="9.820525"><ele>75.8</ele><time>2026-04-14T15:09:19.986Z</time></trkpt><trkpt lat="44.1104967" lon="9.8204917"><ele>76.6</ele><time>2026-04-14T15:09:21.986Z</time></trkpt><trkpt lat="44.1103833" lon="9.8204817"><ele>77.4</ele><time>2026-04-14T15:09:23.986Z</time></trkpt><trkpt lat="44.1102933" lon="9.820475"><ele>78.2</ele><time>2026-04-14T15:09:25.986Z</time></trkpt><trkpt lat="44.1102083" lon="9.8204833"><ele>79.0</ele><time>2026-04-14T15:09:27.987Z</time></trkpt><trkpt lat="44.1101067" lon="9.82045"><ele>79.0</ele><time>2026-04-14T15:09:29.986Z</time></trkpt><trkpt lat="44.109985" lon="9.8204233"><ele>79.0</ele><time>2026-04-14T15:09:31.987Z</time></trkpt><trkpt lat="44.1098867" lon="9.8204683"><ele>79.0</ele><time>2026-04-14T15:09:33.987Z</time></trkpt><trkpt lat="44.1098267" lon="9.8205233"><ele>79.0</ele><time>2026-04-14T15:09:34.986Z</time></trkpt><trkpt lat="44.109775" lon="9.8205867"><ele>79.0</ele><time>2026-04-14T15:09:35.987Z</time></trkpt><trkpt lat="44.1096817" lon="9.820715"><ele>79.33333333333333</ele><time>2026-04-14T15:09:37.987Z</time></trkpt><trkpt lat="44.109635" lon="9.8207867"><ele>79.66666666666666</ele><time>2026-04-14T15:09:38.986Z</time></trkpt><trkpt lat="44.1095717" lon="9.8208533"><ele>80.0</ele><time>2026-04-14T15:09:39.986Z</time></trkpt><trkpt lat="44.1095183" lon="9.82091"><ele>80.33333333333333</ele><time>2026-04-14T15:09:40.986Z</time></trkpt><trkpt lat="44.1094217" lon="9.8209917"><ele>80.66666666666667</ele><time>2026-04-14T15:09:42.986Z</time></trkpt><trkpt lat="44.1093517" lon="9.8210783"><ele>81.0</ele><time>2026-04-14T15:09:44.986Z</time></trkpt><trkpt lat="44.109265" lon="9.8211717"><ele>81.0</ele><time>2026-04-14T15:09:46.986Z</time></trkpt><trkpt lat="44.1091533" lon="9.82123"><ele>81.0</ele><time>2026-04-14T15:09:48.987Z</time></trkpt><trkpt lat="44.1090883" lon="9.8212383"><ele>81.0</ele><time>2026-04-14T15:09:49.986Z</time></trkpt><trkpt lat="44.108975" lon="9.821225"><ele>81.0</ele><time>2026-04-14T15:09:51.986Z</time></trkpt><trkpt lat="44.1088633" lon="9.821185"><ele>81.0</ele><time>2026-04-14T15:09:53.986Z</time></trkpt><trkpt lat="44.1087433" lon="9.8211733"><ele>80.2</ele><time>2026-04-14T15:09:55.987Z</time></trkpt><trkpt lat="44.108635" lon="9.8211267"><ele>79.39999999999999</ele><time>2026-04-14T15:09:57.986Z</time></trkpt><trkpt lat="44.108515" lon="9.8211233"><ele>78.6</ele><time>2026-04-14T15:09:59.986Z</time></trkpt><trkpt lat="44.1084517" lon="9.821145"><ele>77.8</ele><time>2026-04-14T15:10:00.987Z</time></trkpt><trkpt lat="44.1083467" lon="9.8212183"><ele>77.0</ele><time>2026-04-14T15:10:02.986Z</time></trkpt><trkpt lat="44.1082467" lon="9.8213167"><ele>73.6</ele><time>2026-04-14T15:10:04.986Z</time></trkpt><trkpt lat="44.1081517" lon="9.82141"><ele>70.2</ele><time>2026-04-14T15:10:06.986Z</time></trkpt><trkpt lat="44.1080567" lon="9.8215217"><ele>66.8</ele><time>2026-04-14T15:10:08.986Z</time></trkpt><trkpt lat="44.1080033" lon="9.821575"><ele>63.4</ele><time>2026-04-14T15:10:09.986Z</time></trkpt><trkpt lat="44.1079117" lon="9.82167"><ele>60.0</ele><time>2026-04-14T15:10:11.987Z</time></trkpt><trkpt lat="44.1078583" lon="9.82172"><ele>60.0</ele><time>2026-04-14T15:10:12.986Z</time></trkpt><trkpt lat="44.10777" lon="9.8218067"><ele>60.0</ele><time>2026-04-14T15:10:14.986Z</time></trkpt><trkpt lat="44.10772" lon="9.8219117"><ele>60.0</ele><time>2026-04-14T15:10:16.987Z</time></trkpt><trkpt lat="44.107725" lon="9.8220467"><ele>60.0</ele><time>2026-04-14T15:10:18.986Z</time></trkpt><trkpt lat="44.1077633" lon="9.82218"><ele>60.0</ele><time>2026-04-14T15:10:20.987Z</time></trkpt><trkpt lat="44.107795" lon="9.8223017"><ele>58.833333333333336</ele><time>2026-04-14T15:10:22.986Z</time></trkpt><trkpt lat="44.1078367" lon="9.8224217"><ele>57.66666666666667</ele><time>2026-04-14T15:10:24.986Z</time></trkpt><trkpt lat="44.1078867" lon="9.82254"><ele>56.5</ele><time>2026-04-14T15:10:26.986Z</time></trkpt><trkpt lat="44.107935" lon="9.8226933"><ele>55.333333333333336</ele><time>2026-04-14T15:10:28.986Z</time></trkpt><trkpt lat="44.107945" lon="9.822785"><ele>54.16666666666667</ele><time>2026-04-14T15:10:29.987Z</time></trkpt><trkpt lat="44.10795" lon="9.822875"><ele>53.0</ele><time>2026-04-14T15:10:30.987Z</time></trkpt><trkpt lat="44.1079333" lon="9.82297"><ele>52.42857142857143</ele><time>2026-04-14T15:10:31.987Z</time></trkpt><trkpt lat="44.1079217" lon="9.82307"><ele>51.857142857142854</ele><time>2026-04-14T15:10:32.986Z</time></trkpt><trkpt lat="44.10791" lon="9.8231633"><ele>51.285714285714285</ele><time>2026-04-14T15:10:33.986Z</time></trkpt><trkpt lat="44.1079067" lon="9.82326"><ele>50.714285714285715</ele><time>2026-04-14T15:10:34.986Z</time></trkpt><trkpt lat="44.1079217" lon="9.82335"><ele>50.14285714285714</ele><time>2026-04-14T15:10:35.987Z</time></trkpt><trkpt lat="44.107955" lon="9.8234333"><ele>49.57142857142857</ele><time>2026-04-14T15:10:36.986Z</time></trkpt><trkpt lat="44.1080017" lon="9.8234983"><ele>49.0</ele><time>2026-04-14T15:10:37.987Z</time></trkpt><trkpt lat="44.10806" lon="9.8235467"><ele>47.83333333333333</ele><time>2026-04-14T15:10:38.986Z</time></trkpt><trkpt lat="44.108135" lon="9.823575"><ele>46.666666666666664</ele><time>2026-04-14T15:10:39.986Z</time></trkpt><trkpt lat="44.108215" lon="9.82358"><ele>45.5</ele><time>2026-04-14T15:10:40.987Z</time></trkpt><trkpt lat="44.10831" lon="9.8235617"><ele>44.33333333333333</ele><time>2026-04-14T15:10:41.987Z</time></trkpt><trkpt lat="44.1084067" lon="9.8235433"><ele>43.166666666666664</ele><time>2026-04-14T15:10:42.986Z</time></trkpt><trkpt lat="44.1085033" lon="9.8235467"><ele>42.0</ele><time>2026-04-14T15:10:43.986Z</time></trkpt><trkpt lat="44.1086" lon="9.8235817"><ele>42.0</ele><time>2026-04-14T15:10:44.987Z</time></trkpt><trkpt lat="44.1086917" lon="9.82363"><ele>42.0</ele><time>2026-04-14T15:10:45.986Z</time></trkpt><trkpt lat="44.1087767" lon="9.8236833"><ele>42.0</ele><time>2026-04-14T15:10:46.986Z</time></trkpt><trkpt lat="44.1088467" lon="9.8237517"><ele>42.0</ele><time>2026-04-14T15:10:47.986Z</time></trkpt><trkpt lat="44.10892" lon="9.8238367"><ele>42.0</ele><time>2026-04-14T15:10:48.987Z</time></trkpt><trkpt lat="44.1089733" lon="9.8239417"><ele>42.0</ele><time>2026-04-14T15:10:49.987Z</time></trkpt><trkpt lat="44.109015" lon="9.824065"><ele>42.0</ele><time>2026-04-14T15:10:50.986Z</time></trkpt><trkpt lat="44.1090367" lon="9.824195"><ele>42.0</ele><time>2026-04-14T15:10:51.986Z</time></trkpt><trkpt lat="44.10905" lon="9.8243217"><ele>42.0</ele><time>2026-04-14T15:10:52.986Z</time></trkpt><trkpt lat="44.1090633" lon="9.8244417"><ele>42.0</ele><time>2026-04-14T15:10:53.986Z</time></trkpt><trkpt lat="44.1090733" lon="9.8245467"><ele>42.0</ele><time>2026-04-14T15:10:54.986Z</time></trkpt><trkpt lat="44.109065" lon="9.8246567"><ele>40.166666666666664</ele><time>2026-04-14T15:10:55.987Z</time></trkpt><trkpt lat="44.1090367" lon="9.8247717"><ele>38.333333333333336</ele><time>2026-04-14T15:10:56.986Z</time></trkpt><trkpt lat="44.1090267" lon="9.8248767"><ele>36.5</ele><time>2026-04-14T15:10:57.986Z</time></trkpt><trkpt lat="44.1090083" lon="9.8249617"><ele>34.66666666666667</ele><time>2026-04-14T15:10:58.986Z</time></trkpt><trkpt lat="44.10893" lon="9.8250733"><ele>32.833333333333336</ele><time>2026-04-14T15:11:00.986Z</time></trkpt><trkpt lat="44.10887" lon="9.8251017"><ele>31.0</ele><time>2026-04-14T15:11:01.986Z</time></trkpt><trkpt lat="44.1087967" lon="9.8250083"><ele>31.0</ele><time>2026-04-14T15:11:03.986Z</time></trkpt><trkpt lat="44.1087917" lon="9.8249067"><ele>31.0</ele><time>2026-04-14T15:11:04.986Z</time></trkpt><trkpt lat="44.108805" lon="9.8247733"><ele>31.0</ele><time>2026-04-14T15:11:05.986Z</time></trkpt><trkpt lat="44.1088333" lon="9.8246167"><ele>31.0</ele><time>2026-04-14T15:11:06.986Z</time></trkpt><trkpt lat="44.108845" lon="9.8245033"><ele>31.0</ele><time>2026-04-14T15:11:07.986Z</time></trkpt><trkpt lat="44.1088433" lon="9.8243833"><ele>33.2</ele><time>2026-04-14T15:11:08.986Z</time></trkpt><trkpt lat="44.108825" lon="9.8242667"><ele>35.400000000000006</ele><time>2026-04-14T15:11:09.986Z</time></trkpt><trkpt lat="44.1087883" lon="9.82415"><ele>37.6</ele><time>2026-04-14T15:11:10.986Z</time></trkpt><trkpt lat="44.1087367" lon="9.8240517"><ele>39.800000000000004</ele><time>2026-04-14T15:11:11.986Z</time></trkpt><trkpt lat="44.10868" lon="9.8239733"><ele>42.0</ele><time>2026-04-14T15:11:12.986Z</time></trkpt><trkpt lat="44.10858" lon="9.8239167"><ele>42.0</ele><time>2026-04-14T15:11:14.986Z</time></trkpt><trkpt lat="44.1085033" lon="9.8239617"><ele>42.0</ele><time>2026-04-14T15:11:16.986Z</time></trkpt><trkpt lat="44.1084333" lon="9.8240133"><ele>42.0</ele><time>2026-04-14T15:11:18.986Z</time></trkpt><trkpt lat="44.108355" lon="9.8240567"><ele>42.0</ele><time>2026-04-14T15:11:20.986Z</time></trkpt><trkpt lat="44.1082767" lon="9.8241033"><ele>42.0</ele><time>2026-04-14T15:11:22.987Z</time></trkpt><trkpt lat="44.108175" lon="9.8240783"><ele>42.0</ele><time>2026-04-14T15:11:24.986Z</time></trkpt><trkpt lat="44.1080633" lon="9.8240167"><ele>41.6</ele><time>2026-04-14T15:11:26.986Z</time></trkpt><trkpt lat="44.107955" lon="9.82397"><ele>41.2</ele><time>2026-04-14T15:11:28.986Z</time></trkpt><trkpt lat="44.10784" lon="9.8239417"><ele>40.8</ele><time>2026-04-14T15:11:30.986Z</time></trkpt><trkpt lat="44.1077417" lon="9.8239483"><ele>40.4</ele><time>2026-04-14T15:11:32.987Z</time></trkpt><trkpt lat="44.1076567" lon="9.8239733"><ele>40.0</ele><time>2026-04-14T15:11:34.986Z</time></trkpt><trkpt lat="44.10756" lon="9.8240033"><ele>40.0</ele><time>2026-04-14T15:11:36.987Z</time></trkpt><trkpt lat="44.1074583" lon="9.824035"><ele>40.0</ele><time>2026-04-14T15:11:38.986Z</time></trkpt><trkpt lat="44.1073783" lon="9.8240933"><ele>40.0</ele><time>2026-04-14T15:11:40.986Z</time></trkpt><trkpt lat="44.1072917" lon="9.824165"><ele>40.0</ele><time>2026-04-14T15:11:42.986Z</time></trkpt><trkpt lat="44.1071983" lon="9.82418"><ele>40.0</ele><time>2026-04-14T15:11:44.986Z</time></trkpt><trkpt lat="44.107105" lon="9.8241583"><ele>37.0</ele><time>2026-04-14T15:11:46.986Z</time></trkpt><trkpt lat="44.1070117" lon="9.8240767"><ele>34.0</ele><time>2026-04-14T15:11:48.986Z</time></trkpt><trkpt lat="44.10697" lon="9.8239417"><ele>31.0</ele><time>2026-04-14T15:11:50.986Z</time></trkpt><trkpt lat="44.1069967" lon="9.8238083"><ele>28.0</ele><time>2026-04-14T15:11:52.986Z</time></trkpt><trkpt lat="44.1070717" lon="9.8236967"><ele>25.0</ele><time>2026-04-14T15:11:54.986Z</time></trkpt><trkpt lat="44.1071483" lon="9.8236"><ele>25.0</ele><time>2026-04-14T15:11:56.986Z</time></trkpt><trkpt lat="44.1072067" lon="9.823495"><ele>25.0</ele><time>2026-04-14T15:11:58.986Z</time></trkpt><trkpt lat="44.1072633" lon="9.8234033"><ele>25.0</ele><time>2026-04-14T15:12:00.986Z</time></trkpt><trkpt lat="44.10731" lon="9.82328"><ele>25.0</ele><time>2026-04-14T15:12:02.986Z</time></trkpt><trkpt lat="44.1073567" lon="9.823165"><ele>25.0</ele><time>2026-04-14T15:12:04.986Z</time></trkpt><trkpt lat="44.1074017" lon="9.8230333"><ele>25.0</ele><time>2026-04-14T15:12:06.987Z</time></trkpt><trkpt lat="44.1074333" lon="9.822895"><ele>25.0</ele><time>2026-04-14T15:12:08.986Z</time></trkpt><trkpt lat="44.1074167" lon="9.8227667"><ele>25.0</ele><time>2026-04-14T15:12:10.986Z</time></trkpt><trkpt lat="44.1073517" lon="9.822665"><ele>25.0</ele><time>2026-04-14T15:12:12.986Z</time></trkpt><trkpt lat="44.1072733" lon="9.822575"><ele>25.0</ele><time>2026-04-14T15:12:14.986Z</time></trkpt><trkpt lat="44.1071967" lon="9.8225"><ele>25.6</ele><time>2026-04-14T15:12:16.986Z</time></trkpt><trkpt lat="44.1071067" lon="9.82244"><ele>26.2</ele><time>2026-04-14T15:12:18.986Z</time></trkpt><trkpt lat="44.1070033" lon="9.8224"><ele>26.799999999999997</ele><time>2026-04-14T15:12:20.987Z</time></trkpt><trkpt lat="44.1069083" lon="9.82236"><ele>27.4</ele><time>2026-04-14T15:12:22.986Z</time></trkpt><trkpt lat="44.1068033" lon="9.82231"><ele>28.0</ele><time>2026-04-14T15:12:24.986Z</time></trkpt><trkpt lat="44.1067067" lon="9.8222233"><ele>28.0</ele><time>2026-04-14T15:12:26.986Z</time></trkpt><trkpt lat="44.1066217" lon="9.8221167"><ele>27.999999999999996</ele><time>2026-04-14T15:12:28.986Z</time></trkpt><trkpt lat="44.1065433" lon="9.8220333"><ele>27.999999999999996</ele><time>2026-04-14T15:12:30.987Z</time></trkpt><trkpt lat="44.1064467" lon="9.821965"><ele>28.0</ele><time>2026-04-14T15:12:32.986Z</time></trkpt><trkpt lat="44.1063433" lon="9.82189"><ele>28.0</ele><time>2026-04-14T15:12:34.986Z</time></trkpt><trkpt lat="44.1062467" lon="9.8217733"><ele>27.0</ele><time>2026-04-14T15:12:36.986Z</time></trkpt><trkpt lat="44.10619" lon="9.8216583"><ele>25.999999999999996</ele><time>2026-04-14T15:12:38.986Z</time></trkpt><trkpt lat="44.1061617" lon="9.821555"><ele>25.0</ele><time>2026-04-14T15:12:40.986Z</time></trkpt><trkpt lat="44.10618" lon="9.8214233"><ele>24.0</ele><time>2026-04-14T15:12:42.986Z</time></trkpt><trkpt lat="44.1062517" lon="9.8212933"><ele>23.0</ele><time>2026-04-14T15:12:44.986Z</time></trkpt><trkpt lat="44.10634" lon="9.82119"><ele>23.0</ele><time>2026-04-14T15:12:46.986Z</time></trkpt><trkpt lat="44.1064283" lon="9.8210967"><ele>23.0</ele><time>2026-04-14T15:12:48.986Z</time></trkpt><trkpt lat="44.1065067" lon="9.8210083"><ele>23.0</ele><time>2026-04-14T15:12:50.986Z</time></trkpt><trkpt lat="44.1065783" lon="9.8209117"><ele>23.0</ele><time>2026-04-14T15:12:52.987Z</time></trkpt><trkpt lat="44.1066617" lon="9.8208333"><ele>23.0</ele><time>2026-04-14T15:12:54.987Z</time></trkpt><trkpt lat="44.1067667" lon="9.8207967"><ele>25.0</ele><time>2026-04-14T15:12:56.986Z</time></trkpt><trkpt lat="44.10687" lon="9.8207717"><ele>27.0</ele><time>2026-04-14T15:12:58.986Z</time></trkpt><trkpt lat="44.106975" lon="9.82075"><ele>28.999999999999996</ele><time>2026-04-14T15:13:00.985Z</time></trkpt><trkpt lat="44.1070783" lon="9.8207167"><ele>31.0</ele><time>2026-04-14T15:13:02.985Z</time></trkpt><trkpt lat="44.1071717" lon="9.8206933"><ele>33.0</ele><time>2026-04-14T15:13:04.985Z</time></trkpt><trkpt lat="44.1072617" lon="9.8206467"><ele>33.0</ele><time>2026-04-14T15:13:06.985Z</time></trkpt><trkpt lat="44.1073617" lon="9.820605"><ele>33.0</ele><time>2026-04-14T15:13:08.985Z</time></trkpt><trkpt lat="44.1074633" lon="9.82058"><ele>33.0</ele><time>2026-04-14T15:13:10.985Z</time></trkpt><trkpt lat="44.1075783" lon="9.8205433"><ele>33.0</ele><time>2026-04-14T15:13:12.985Z</time></trkpt><trkpt lat="44.1076783" lon="9.820485"><ele>33.0</ele><time>2026-04-14T15:13:14.985Z</time></trkpt><trkpt lat="44.1077767" lon="9.82041"><ele>36.0</ele><time>2026-04-14T15:13:16.986Z</time></trkpt><trkpt lat="44.107875" lon="9.82034"><ele>39.0</ele><time>2026-04-14T15:13:18.986Z</time></trkpt><trkpt lat="44.1079533" lon="9.820275"><ele>42.0</ele><time>2026-04-14T15:13:20.985Z</time></trkpt><trkpt lat="44.108045" lon="9.8202567"><ele>45.0</ele><time>2026-04-14T15:13:22.986Z</time></trkpt><trkpt lat="44.10815" lon="9.8202417"><ele>48.0</ele><time>2026-04-14T15:13:24.985Z</time></trkpt><trkpt lat="44.1082483" lon="9.8202217"><ele>50.0</ele><time>2026-04-14T15:13:26.985Z</time></trkpt><trkpt lat="44.1083517" lon="9.82018"><ele>52.0</ele><time>2026-04-14T15:13:28.985Z</time></trkpt><trkpt lat="44.1084567" lon="9.820165"><ele>54.0</ele><time>2026-04-14T15:13:30.985Z</time></trkpt><trkpt lat="44.10856" lon="9.8201533"><ele>56.0</ele><time>2026-04-14T15:13:32.985Z</time></trkpt><trkpt lat="44.1086667" lon="9.8201317"><ele>58.0</ele><time>2026-04-14T15:13:34.985Z</time></trkpt><trkpt lat="44.1087717" lon="9.8201267"><ele>55.8</ele><time>2026-04-14T15:13:36.985Z</time></trkpt><trkpt lat="44.10886" lon="9.8201117"><ele>53.599999999999994</ele><time>2026-04-14T15:13:38.986Z</time></trkpt><trkpt lat="44.1089467" lon="9.820075"><ele>51.400000000000006</ele><time>2026-04-14T15:13:40.985Z</time></trkpt><trkpt lat="44.109035" lon="9.8200117"><ele>49.2</ele><time>2026-04-14T15:13:42.985Z</time></trkpt><trkpt lat="44.1091117" lon="9.8199183"><ele>47.0</ele><time>2026-04-14T15:13:44.985Z</time></trkpt><trkpt lat="44.1091917" lon="9.8198117"><ele>47.0</ele><time>2026-04-14T15:13:46.985Z</time></trkpt><trkpt lat="44.1092633" lon="9.8197"><ele>47.0</ele><time>2026-04-14T15:13:48.985Z</time></trkpt><trkpt lat="44.109325" lon="9.819585"><ele>47.0</ele><time>2026-04-14T15:13:50.986Z</time></trkpt><trkpt lat="44.1093883" lon="9.8194733"><ele>47.0</ele><time>2026-04-14T15:13:52.985Z</time></trkpt><trkpt lat="44.1094483" lon="9.8193617"><ele>47.0</ele><time>2026-04-14T15:13:54.986Z</time></trkpt><trkpt lat="44.1095117" lon="9.81926"><ele>43.0</ele><time>2026-04-14T15:13:56.985Z</time></trkpt><trkpt lat="44.1095867" lon="9.819165"><ele>39.0</ele><time>2026-04-14T15:13:58.986Z</time></trkpt><trkpt lat="44.109665" lon="9.8190767"><ele>35.0</ele><time>2026-04-14T15:14:00.985Z</time></trkpt><trkpt lat="44.1097683" lon="9.8190083"><ele>31.0</ele><time>2026-04-14T15:14:02.985Z</time></trkpt><trkpt lat="44.1098883" lon="9.81892"><ele>32.833333333333336</ele><time>2026-04-14T15:14:04.986Z</time></trkpt><trkpt lat="44.1099567" lon="9.8188917"><ele>34.66666666666667</ele><time>2026-04-14T15:14:05.985Z</time></trkpt><trkpt lat="44.11008" lon="9.818855"><ele>36.5</ele><time>2026-04-14T15:14:07.985Z</time></trkpt><trkpt lat="44.11015" lon="9.81885"><ele>38.333333333333336</ele><time>2026-04-14T15:14:08.985Z</time></trkpt><trkpt lat="44.110215" lon="9.8188617"><ele>40.166666666666664</ele><time>2026-04-14T15:14:09.985Z</time></trkpt><trkpt lat="44.1102817" lon="9.81891"><ele>42.0</ele><time>2026-04-14T15:14:10.985Z</time></trkpt><trkpt lat="44.110335" lon="9.818965"><ele>42.0</ele><time>2026-04-14T15:14:11.985Z</time></trkpt><trkpt lat="44.1103867" lon="9.8190317"><ele>42.0</ele><time>2026-04-14T15:14:12.986Z</time></trkpt><trkpt lat="44.11044" lon="9.8191117"><ele>42.0</ele><time>2026-04-14T15:14:13.985Z</time></trkpt><trkpt lat="44.1105" lon="9.8191767"><ele>42.0</ele><time>2026-04-14T15:14:14.985Z</time></trkpt><trkpt lat="44.11058" lon="9.819275"><ele>42.0</ele><time>2026-04-14T15:14:16.986Z</time></trkpt><trkpt lat="44.1106533" lon="9.819275"><ele>42.0</ele><time>2026-04-14T15:14:18.985Z</time></trkpt><trkpt lat="44.1106867" lon="9.8191"><ele>42.0</ele><time>2026-04-14T15:14:20.985Z</time></trkpt><trkpt lat="44.11071" lon="9.818985"><ele>42.0</ele><time>2026-04-14T15:14:21.985Z</time></trkpt><trkpt lat="44.11076" lon="9.8188867"><ele>42.0</ele><time>2026-04-14T15:14:22.985Z</time></trkpt><trkpt lat="44.1108267" lon="9.818815"><ele>42.0</ele><time>2026-04-14T15:14:23.985Z</time></trkpt><trkpt lat="44.1109017" lon="9.8187433"><ele>42.0</ele><time>2026-04-14T15:14:24.985Z</time></trkpt><trkpt lat="44.1109683" lon="9.818665"><ele>42.0</ele><time>2026-04-14T15:14:25.986Z</time></trkpt><trkpt lat="44.1110183" lon="9.8185867"><ele>41.5</ele><time>2026-04-14T15:14:26.985Z</time></trkpt><trkpt lat="44.1110583" lon="9.818495"><ele>41.0</ele><time>2026-04-14T15:14:27.985Z</time></trkpt><trkpt lat="44.1110733" lon="9.818405"><ele>40.5</ele><time>2026-04-14T15:14:28.985Z</time></trkpt><trkpt lat="44.111095" lon="9.8183217"><ele>40.0</ele><time>2026-04-14T15:14:29.985Z</time></trkpt><trkpt lat="44.1111233" lon="9.8182417"><ele>39.5</ele><time>2026-04-14T15:14:30.986Z</time></trkpt><trkpt lat="44.1111817" lon="9.8181117"><ele>39.0</ele><time>2026-04-14T15:14:32.985Z</time></trkpt><trkpt lat="44.1112633" lon="9.818045"><ele>39.666666666666664</ele><time>2026-04-14T15:14:34.985Z</time></trkpt><trkpt lat="44.111345" lon="9.8180217"><ele>40.333333333333336</ele><time>2026-04-14T15:14:36.986Z</time></trkpt><trkpt lat="44.11141" lon="9.8180283"><ele>41.0</ele><time>2026-04-14T15:14:38.985Z</time></trkpt><trkpt lat="44.11148" lon="9.818015"><ele>41.66666666666667</ele><time>2026-04-14T15:14:40.985Z</time></trkpt><trkpt lat="44.111545" lon="9.8180067"><ele>42.333333333333336</ele><time>2026-04-14T15:14:42.986Z</time></trkpt><trkpt lat="44.11163" lon="9.8179667"><ele>43.0</ele><time>2026-04-14T15:14:45.985Z</time></trkpt><trkpt lat="44.1117083" lon="9.8179133"><ele>43.0</ele><time>2026-04-14T15:14:48.986Z</time></trkpt><trkpt lat="44.1117783" lon="9.8178683"><ele>43.0</ele><time>2026-04-14T15:14:50.985Z</time></trkpt><trkpt lat="44.11186" lon="9.8178233"><ele>43.0</ele><time>2026-04-14T15:14:52.985Z</time></trkpt><trkpt lat="44.111945" lon="9.8177833"><ele>43.0</ele><time>2026-04-14T15:14:54.986Z</time></trkpt><trkpt lat="44.1120133" lon="9.817745"><ele>43.0</ele><time>2026-04-14T15:14:56.985Z</time></trkpt><trkpt lat="44.11208" lon="9.8177283"><ele>43.0</ele><time>2026-04-14T15:14:58.985Z</time></trkpt><trkpt lat="44.112165" lon="9.8177133"><ele>43.00000000000001</ele><time>2026-04-14T15:15:00.986Z</time></trkpt><trkpt lat="44.1122483" lon="9.817695"><ele>43.0</ele><time>2026-04-14T15:15:02.985Z</time></trkpt><trkpt lat="44.11232" lon="9.8176783"><ele>43.0</ele><time>2026-04-14T15:15:04.985Z</time></trkpt><trkpt lat="44.1123817" lon="9.81764"><ele>43.0</ele><time>2026-04-14T15:15:06.985Z</time></trkpt><trkpt lat="44.1124517" lon="9.817595"><ele>43.0</ele><time>2026-04-14T15:15:08.985Z</time></trkpt><trkpt lat="44.1125083" lon="9.8175417"><ele>43.00000000000001</ele><time>2026-04-14T15:15:10.985Z</time></trkpt><trkpt lat="44.11258" lon="9.817525"><ele>43.0</ele><time>2026-04-14T15:15:12.986Z</time></trkpt><trkpt lat="44.1126533" lon="9.8174783"><ele>42.333333333333336</ele><time>2026-04-14T15:15:14.985Z</time></trkpt><trkpt lat="44.112735" lon="9.8174333"><ele>41.66666666666667</ele><time>2026-04-14T15:15:16.986Z</time></trkpt><trkpt lat="44.11281" lon="9.8173683"><ele>41.0</ele><time>2026-04-14T15:15:18.986Z</time></trkpt><trkpt lat="44.1128833" lon="9.817295"><ele>40.333333333333336</ele><time>2026-04-14T15:15:20.985Z</time></trkpt><trkpt lat="44.112945" lon="9.8172117"><ele>39.666666666666664</ele><time>2026-04-14T15:15:22.985Z</time></trkpt><trkpt lat="44.1129917" lon="9.8171267"><ele>39.0</ele><time>2026-04-14T15:15:24.986Z</time></trkpt><trkpt lat="44.11305" lon="9.817045"><ele>39.0</ele><time>2026-04-14T15:15:26.985Z</time></trkpt><trkpt lat="44.113115" lon="9.8169767"><ele>39.0</ele><time>2026-04-14T15:15:28.985Z</time></trkpt><trkpt lat="44.1131783" lon="9.8168967"><ele>39.0</ele><time>2026-04-14T15:15:30.986Z</time></trkpt><trkpt lat="44.1132433" lon="9.816825"><ele>39.0</ele><time>2026-04-14T15:15:32.985Z</time></trkpt><trkpt lat="44.1133017" lon="9.8167317"><ele>39.0</ele><time>2026-04-14T15:15:34.985Z</time></trkpt><trkpt lat="44.11334" lon="9.8166133"><ele>39.0</ele><time>2026-04-14T15:15:36.985Z</time></trkpt><trkpt lat="44.1133867" lon="9.8164983"><ele>40.0</ele><time>2026-04-14T15:15:38.985Z</time></trkpt><trkpt lat="44.1134017" lon="9.8164067"><ele>41.0</ele><time>2026-04-14T15:15:40.985Z</time></trkpt><trkpt lat="44.1133017" lon="9.8165133"><ele>42.0</ele><time>2026-04-14T15:15:46.985Z</time></trkpt><trkpt lat="44.1132367" lon="9.8165817"><ele>43.0</ele><time>2026-04-14T15:15:47.985Z</time></trkpt><trkpt lat="44.1131783" lon="9.816625"><ele>44.0</ele><time>2026-04-14T15:15:48.985Z</time></trkpt><trkpt lat="44.113115" lon="9.816655"><ele>45.0</ele><time>2026-04-14T15:15:49.986Z</time></trkpt><trkpt lat="44.113" lon="9.81671"><ele>43.8</ele><time>2026-04-14T15:15:51.985Z</time></trkpt><trkpt lat="44.112935" lon="9.81675"><ele>42.6</ele><time>2026-04-14T15:15:52.985Z</time></trkpt><trkpt lat="44.1128433" lon="9.8167783"><ele>41.4</ele><time>2026-04-14T15:15:54.985Z</time></trkpt><trkpt lat="44.1127333" lon="9.8168483"><ele>40.2</ele><time>2026-04-14T15:15:56.985Z</time></trkpt><trkpt lat="44.1126283" lon="9.8169533"><ele>39.0</ele><time>2026-04-14T15:15:58.985Z</time></trkpt><trkpt lat="44.1125267" lon="9.8170483"><ele>39.0</ele><time>2026-04-14T15:16:00.985Z</time></trkpt><trkpt lat="44.112455" lon="9.8170783"><ele>39.0</ele><time>2026-04-14T15:16:01.985Z</time></trkpt><trkpt lat="44.1123717" lon="9.8170817"><ele>39.0</ele><time>2026-04-14T15:16:02.985Z</time></trkpt><trkpt lat="44.11229" lon="9.8170817"><ele>39.0</ele><time>2026-04-14T15:16:03.986Z</time></trkpt><trkpt lat="44.1122217" lon="9.8170633"><ele>39.0</ele><time>2026-04-14T15:16:04.985Z</time></trkpt><trkpt lat="44.11214" lon="9.8170617"><ele>39.0</ele><time>2026-04-14T15:16:05.986Z</time></trkpt><trkpt lat="44.1120583" lon="9.8170117"><ele>37.333333333333336</ele><time>2026-04-14T15:16:06.986Z</time></trkpt><trkpt lat="44.111985" lon="9.8169483"><ele>35.666666666666664</ele><time>2026-04-14T15:16:07.985Z</time></trkpt><trkpt lat="44.1119183" lon="9.8169"><ele>34.0</ele><time>2026-04-14T15:16:08.985Z</time></trkpt><trkpt lat="44.1118517" lon="9.8168717"><ele>32.33333333333333</ele><time>2026-04-14T15:16:09.985Z</time></trkpt><trkpt lat="44.1117767" lon="9.8168617"><ele>30.666666666666664</ele><time>2026-04-14T15:16:10.986Z</time></trkpt><trkpt lat="44.1117067" lon="9.8168467"><ele>29.0</ele><time>2026-04-14T15:16:11.985Z</time></trkpt><trkpt lat="44.1116283" lon="9.8167883"><ele>26.999999999999996</ele><time>2026-04-14T15:16:12.986Z</time></trkpt><trkpt lat="44.1115517" lon="9.816755"><ele>25.0</ele><time>2026-04-14T15:16:13.985Z</time></trkpt><trkpt lat="44.1114783" lon="9.816715"><ele>23.0</ele><time>2026-04-14T15:16:14.986Z</time></trkpt><trkpt lat="44.1113883" lon="9.8167333"><ele>21.0</ele><time>2026-04-14T15:16:17.985Z</time></trkpt><trkpt lat="44.111315" lon="9.8167817"><ele>19.0</ele><time>2026-04-14T15:16:20.986Z</time></trkpt><trkpt lat="44.1112517" lon="9.816815"><ele>17.0</ele><time>2026-04-14T15:16:22.985Z</time></trkpt><trkpt lat="44.1111933" lon="9.8168483"><ele>14.0</ele><time>2026-04-14T15:16:24.985Z</time></trkpt><trkpt lat="44.1102483" lon="9.8167467"><ele>14.000000000000002</ele><time>2026-04-14T15:16:40.986Z</time></trkpt><trkpt lat="44.110315" lon="9.816685"><ele>14.0</ele><time>2026-04-14T15:16:41.985Z</time></trkpt><trkpt lat="44.11025" lon="9.8166283"><ele>14.0</ele><time>2026-04-14T15:16:43.986Z</time></trkpt><trkpt lat="44.1102017" lon="9.8165133"><ele>14.0</ele><time>2026-04-14T15:16:45.985Z</time></trkpt><trkpt lat="44.1101883" lon="9.816425"><ele>14.000000000000002</ele><time>2026-04-14T15:16:46.985Z</time></trkpt><trkpt lat="44.1101767" lon="9.8162917"><ele>14.0</ele><time>2026-04-14T15:16:48.985Z</time></trkpt><trkpt lat="44.1101583" lon="9.816195"><ele>14.000000000000002</ele><time>2026-04-14T15:16:50.985Z</time></trkpt><trkpt lat="44.1101183" lon="9.81607"><ele>14.0</ele><time>2026-04-14T15:16:53.986Z</time></trkpt><trkpt lat="44.1101033" lon="9.81597"><ele>14.0</ele><time>2026-04-14T15:16:55.985Z</time></trkpt><trkpt lat="44.1100967" lon="9.8158617"><ele>14.0</ele><time>2026-04-14T15:16:57.986Z</time></trkpt><trkpt lat="44.1100767" lon="9.815745"><ele>14.000000000000002</ele><time>2026-04-14T15:16:59.986Z</time></trkpt><trkpt lat="44.1100767" lon="9.8156167"><ele>14.0</ele><time>2026-04-14T15:17:01.985Z</time></trkpt><trkpt lat="44.1101" lon="9.81549"><ele>14.0</ele><time>2026-04-14T15:17:03.985Z</time></trkpt><trkpt lat="44.110135" lon="9.81538"><ele>13.999999999999998</ele><time>2026-04-14T15:17:05.986Z</time></trkpt><trkpt lat="44.1101733" lon="9.81525"><ele>13.999999999999998</ele><time>2026-04-14T15:17:07.985Z</time></trkpt><trkpt lat="44.11022" lon="9.815135"><ele>14.0</ele><time>2026-04-14T15:17:09.986Z</time></trkpt><trkpt lat="44.1102667" lon="9.8150167"><ele>14.0</ele><time>2026-04-14T15:17:11.985Z</time></trkpt><trkpt lat="44.1103133" lon="9.8148983"><ele>14.000000000000002</ele><time>2026-04-14T15:17:13.985Z</time></trkpt><trkpt lat="44.110355" lon="9.81478"><ele>14.0</ele><time>2026-04-14T15:17:15.985Z</time></trkpt><trkpt lat="44.1104083" lon="9.8146733"><ele>14.0</ele><time>2026-04-14T15:17:17.985Z</time></trkpt><trkpt lat="44.1104483" lon="9.8145583"><ele>14.0</ele><time>2026-04-14T15:17:19.985Z</time></trkpt><trkpt lat="44.1105" lon="9.8144667"><ele>14.000000000000002</ele><time>2026-04-14T15:17:21.985Z</time></trkpt><trkpt lat="44.11055" lon="9.81437"><ele>14.0</ele><time>2026-04-14T15:17:23.985Z</time></trkpt><trkpt lat="44.11058" lon="9.8142717"><ele>13.799999999999999</ele><time>2026-04-14T15:17:25.986Z</time></trkpt><trkpt lat="44.1106117" lon="9.8141483"><ele>13.599999999999998</ele><time>2026-04-14T15:17:27.985Z</time></trkpt><trkpt lat="44.1106517" lon="9.8140217"><ele>13.4</ele><time>2026-04-14T15:17:29.985Z</time></trkpt><trkpt lat="44.1106933" lon="9.8138983"><ele>13.2</ele><time>2026-04-14T15:17:31.985Z</time></trkpt><trkpt lat="44.1107467" lon="9.8137783"><ele>13.0</ele><time>2026-04-14T15:17:33.985Z</time></trkpt><trkpt lat="44.11079" lon="9.81366"><ele>13.0</ele><time>2026-04-14T15:17:35.986Z</time></trkpt><trkpt lat="44.1108417" lon="9.8135383"><ele>13.0</ele><time>2026-04-14T15:17:37.985Z</time></trkpt><trkpt lat="44.11088" lon="9.8134017"><ele>13.0</ele><time>2026-04-14T15:17:39.985Z</time></trkpt><trkpt lat="44.1109283" lon="9.8132833"><ele>13.0</ele><time>2026-04-14T15:17:41.985Z</time></trkpt><trkpt lat="44.11098" lon="9.8131667"><ele>13.0</ele><time>2026-04-14T15:17:43.986Z</time></trkpt><trkpt lat="44.1110317" lon="9.8130433"><ele>13.2</ele><time>2026-04-14T15:17:45.985Z</time></trkpt><trkpt lat="44.11108" lon="9.81292"><ele>13.4</ele><time>2026-04-14T15:17:47.985Z</time></trkpt><trkpt lat="44.1111233" lon="9.8128017"><ele>13.599999999999998</ele><time>2026-04-14T15:17:49.985Z</time></trkpt><trkpt lat="44.1111933" lon="9.812715"><ele>13.799999999999999</ele><time>2026-04-14T15:17:51.985Z</time></trkpt><trkpt lat="44.1112433" lon="9.8126183"><ele>14.0</ele><time>2026-04-14T15:17:53.985Z</time></trkpt><trkpt lat="44.1112917" lon="9.8125133"><ele>13.399999999999999</ele><time>2026-04-14T15:17:55.985Z</time></trkpt><trkpt lat="44.1113567" lon="9.8124"><ele>12.799999999999999</ele><time>2026-04-14T15:17:57.985Z</time></trkpt><trkpt lat="44.11139" lon="9.8123183"><ele>12.2</ele><time>2026-04-14T15:17:58.985Z</time></trkpt><trkpt lat="44.11144" lon="9.8121717"><ele>11.600000000000001</ele><time>2026-04-14T15:18:00.985Z</time></trkpt><trkpt lat="44.1115033" lon="9.8120433"><ele>11.0</ele><time>2026-04-14T15:18:02.986Z</time></trkpt><trkpt lat="44.111565" lon="9.8119283"><ele>11.200000000000001</ele><time>2026-04-14T15:18:04.985Z</time></trkpt><trkpt lat="44.1116083" lon="9.8117883"><ele>11.4</ele><time>2026-04-14T15:18:06.986Z</time></trkpt><trkpt lat="44.1116433" lon="9.8116517"><ele>11.6</ele><time>2026-04-14T15:18:08.985Z</time></trkpt><trkpt lat="44.1117067" lon="9.811535"><ele>11.8</ele><time>2026-04-14T15:18:10.985Z</time></trkpt><trkpt lat="44.111765" lon="9.8114317"><ele>12.0</ele><time>2026-04-14T15:18:12.986Z</time></trkpt><trkpt lat="44.1118267" lon="9.8113483"><ele>12.0</ele><time>2026-04-14T15:18:14.986Z</time></trkpt><trkpt lat="44.1118883" lon="9.8112817"><ele>12.0</ele><time>2026-04-14T15:18:16.985Z</time></trkpt><trkpt lat="44.111955" lon="9.8112283"><ele>12.0</ele><time>2026-04-14T15:18:18.985Z</time></trkpt><trkpt lat="44.1120217" lon="9.811175"><ele>12.0</ele><time>2026-04-14T15:18:21.985Z</time></trkpt><trkpt lat="44.11206" lon="9.811095"><ele>12.0</ele><time>2026-04-14T15:18:31.985Z</time></trkpt><trkpt lat="44.1120667" lon="9.8110017"><ele>12.0</ele><time>2026-04-14T15:18:34.986Z</time></trkpt><trkpt lat="44.112" lon="9.810925"><ele>12.0</ele><time>2026-04-14T15:18:37.984Z</time></trkpt><trkpt lat="44.1119317" lon="9.8108567"><ele>12.0</ele><time>2026-04-14T15:18:39.984Z</time></trkpt><trkpt lat="44.1118617" lon="9.8107817"><ele>12.0</ele><time>2026-04-14T15:18:41.984Z</time></trkpt><trkpt lat="44.111795" lon="9.8107"><ele>12.0</ele><time>2026-04-14T15:18:43.984Z</time></trkpt><trkpt lat="44.1117217" lon="9.81062"><ele>12.0</ele><time>2026-04-14T15:18:45.984Z</time></trkpt><trkpt lat="44.11166" lon="9.8105517"><ele>12.0</ele><time>2026-04-14T15:18:47.984Z</time></trkpt><trkpt lat="44.1115817" lon="9.8104883"><ele>11.4</ele><time>2026-04-14T15:18:49.985Z</time></trkpt><trkpt lat="44.111505" lon="9.810435"><ele>10.799999999999999</ele><time>2026-04-14T15:18:51.984Z</time></trkpt><trkpt lat="44.11142" lon="9.81038"><ele>10.2</ele><time>2026-04-14T15:18:53.984Z</time></trkpt><trkpt lat="44.1113433" lon="9.810315"><ele>9.6</ele><time>2026-04-14T15:18:55.984Z</time></trkpt><trkpt lat="44.111265" lon="9.8102517"><ele>9.0</ele><time>2026-04-14T15:18:57.984Z</time></trkpt><trkpt lat="44.1111783" lon="9.81018"><ele>9.6</ele><time>2026-04-14T15:18:59.984Z</time></trkpt><trkpt lat="44.1111017" lon="9.8101"><ele>10.2</ele><time>2026-04-14T15:19:01.984Z</time></trkpt><trkpt lat="44.1110217" lon="9.8099833"><ele>10.799999999999999</ele><time>2026-04-14T15:19:03.984Z</time></trkpt><trkpt lat="44.11093" lon="9.80989"><ele>11.4</ele><time>2026-04-14T15:19:05.985Z</time></trkpt><trkpt lat="44.1108733" lon="9.8098517"><ele>12.0</ele><time>2026-04-14T15:19:06.985Z</time></trkpt><trkpt lat="44.1107833" lon="9.809755"><ele>12.0</ele><time>2026-04-14T15:19:08.985Z</time></trkpt><trkpt lat="44.11072" lon="9.8096483"><ele>12.0</ele><time>2026-04-14T15:19:10.984Z</time></trkpt><trkpt lat="44.110655" lon="9.809555"><ele>12.0</ele><time>2026-04-14T15:19:12.984Z</time></trkpt><trkpt lat="44.1105967" lon="9.8094433"><ele>12.0</ele><time>2026-04-14T15:19:14.984Z</time></trkpt><trkpt lat="44.1105283" lon="9.809355"><ele>12.0</ele><time>2026-04-14T15:19:16.984Z</time></trkpt><trkpt lat="44.1104533" lon="9.8092667"><ele>11.833333333333334</ele><time>2026-04-14T15:19:18.984Z</time></trkpt><trkpt lat="44.110385" lon="9.8091783"><ele>11.666666666666666</ele><time>2026-04-14T15:19:20.984Z</time></trkpt><trkpt lat="44.1103167" lon="9.8091083"><ele>11.5</ele><time>2026-04-14T15:19:22.984Z</time></trkpt><trkpt lat="44.1102567" lon="9.8090333"><ele>11.333333333333332</ele><time>2026-04-14T15:19:24.984Z</time></trkpt><trkpt lat="44.1102133" lon="9.8089683"><ele>11.166666666666666</ele><time>2026-04-14T15:19:26.984Z</time></trkpt><trkpt lat="44.1102033" lon="9.8088417"><ele>11.0</ele><time>2026-04-14T15:19:32.984Z</time></trkpt><trkpt lat="44.1102467" lon="9.8087417"><ele>11.0</ele><time>2026-04-14T15:19:35.984Z</time></trkpt><trkpt lat="44.1102967" lon="9.8086467"><ele>11.0</ele><time>2026-04-14T15:19:37.984Z</time></trkpt><trkpt lat="44.1103467" lon="9.8085317"><ele>11.0</ele><time>2026-04-14T15:19:39.984Z</time></trkpt><trkpt lat="44.1104033" lon="9.8084067"><ele>11.0</ele><time>2026-04-14T15:19:41.985Z</time></trkpt><trkpt lat="44.1104717" lon="9.80831"><ele>11.0</ele><time>2026-04-14T15:19:43.985Z</time></trkpt><trkpt lat="44.11053" lon="9.8081933"><ele>11.200000000000001</ele><time>2026-04-14T15:19:45.984Z</time></trkpt><trkpt lat="44.1105817" lon="9.8080783"><ele>11.4</ele><time>2026-04-14T15:19:47.984Z</time></trkpt><trkpt lat="44.1106533" lon="9.8079717"><ele>11.6</ele><time>2026-04-14T15:19:49.984Z</time></trkpt><trkpt lat="44.110715" lon="9.8078717"><ele>11.8</ele><time>2026-04-14T15:19:51.984Z</time></trkpt><trkpt lat="44.1107833" lon="9.80777"><ele>12.0</ele><time>2026-04-14T15:19:53.984Z</time></trkpt><trkpt lat="44.1108267" lon="9.8076783"><ele>12.0</ele><time>2026-04-14T15:19:55.984Z</time></trkpt><trkpt lat="44.1108583" lon="9.807575"><ele>12.0</ele><time>2026-04-14T15:19:57.985Z</time></trkpt><trkpt lat="44.1108433" lon="9.8074667"><ele>12.0</ele><time>2026-04-14T15:19:59.984Z</time></trkpt><trkpt lat="44.1108183" lon="9.80734"><ele>12.0</ele><time>2026-04-14T15:20:01.984Z</time></trkpt><trkpt lat="44.1108183" lon="9.8072183"><ele>12.0</ele><time>2026-04-14T15:20:03.985Z</time></trkpt><trkpt lat="44.1108317" lon="9.8071233"><ele>12.0</ele><time>2026-04-14T15:20:05.985Z</time></trkpt><trkpt lat="44.1108" lon="9.80704"><ele>11.999999999999998</ele><time>2026-04-14T15:20:08.984Z</time></trkpt><trkpt lat="44.1107367" lon="9.8070517"><ele>12.0</ele><time>2026-04-14T15:20:11.985Z</time></trkpt><trkpt lat="44.1106683" lon="9.8070817"><ele>12.0</ele><time>2026-04-14T15:20:14.984Z</time></trkpt><trkpt lat="44.110605" lon="9.8071117"><ele>12.0</ele><time>2026-04-14T15:20:16.984Z</time></trkpt><trkpt lat="44.1105367" lon="9.80712"><ele>12.0</ele><time>2026-04-14T15:20:18.984Z</time></trkpt><trkpt lat="44.110465" lon="9.8071117"><ele>11.999999999999998</ele><time>2026-04-14T15:20:20.984Z</time></trkpt><trkpt lat="44.110385" lon="9.8070983"><ele>12.0</ele><time>2026-04-14T15:20:22.984Z</time></trkpt><trkpt lat="44.110305" lon="9.80705"><ele>12.0</ele><time>2026-04-14T15:20:24.985Z</time></trkpt><trkpt lat="44.110235" lon="9.8070033"><ele>12.0</ele><time>2026-04-14T15:20:26.984Z</time></trkpt><trkpt lat="44.110165" lon="9.8069617"><ele>12.0</ele><time>2026-04-14T15:20:28.984Z</time></trkpt><trkpt lat="44.1100933" lon="9.8069117"><ele>12.0</ele><time>2026-04-14T15:20:30.984Z</time></trkpt><trkpt lat="44.1100267" lon="9.80686"><ele>12.0</ele><time>2026-04-14T15:20:32.984Z</time></trkpt><trkpt lat="44.1099467" lon="9.806805"><ele>12.0</ele><time>2026-04-14T15:20:34.984Z</time></trkpt><trkpt lat="44.1098733" lon="9.8067517"><ele>11.999999999999998</ele><time>2026-04-14T15:20:36.984Z</time></trkpt><trkpt lat="44.1098167" lon="9.8067033"><ele>12.0</ele><time>2026-04-14T15:20:38.985Z</time></trkpt><trkpt lat="44.1097583" lon="9.8066433"><ele>12.0</ele><time>2026-04-14T15:20:40.984Z</time></trkpt><trkpt lat="44.1097067" lon="9.80657"><ele>12.0</ele><time>2026-04-14T15:20:42.985Z</time></trkpt><trkpt lat="44.1096567" lon="9.80649"><ele>12.0</ele><time>2026-04-14T15:20:44.984Z</time></trkpt><trkpt lat="44.1095917" lon="9.8064333"><ele>11.999999999999998</ele><time>2026-04-14T15:20:46.984Z</time></trkpt><trkpt lat="44.1095283" lon="9.806375"><ele>12.0</ele><time>2026-04-14T15:20:48.984Z</time></trkpt><trkpt lat="44.1094683" lon="9.806305"><ele>12.0</ele><time>2026-04-14T15:20:50.984Z</time></trkpt><trkpt lat="44.1094133" lon="9.8062433"><ele>12.0</ele><time>2026-04-14T15:20:52.984Z</time></trkpt><trkpt lat="44.1093567" lon="9.8061883"><ele>12.0</ele><time>2026-04-14T15:20:54.984Z</time></trkpt><trkpt lat="44.109295" lon="9.8061183"><ele>12.0</ele><time>2026-04-14T15:20:56.984Z</time></trkpt><trkpt lat="44.1092417" lon="9.8060367"><ele>12.0</ele><time>2026-04-14T15:20:58.984Z</time></trkpt><trkpt lat="44.109195" lon="9.8059717"><ele>12.0</ele><time>2026-04-14T15:21:00.984Z</time></trkpt><trkpt lat="44.109125" lon="9.805895"><ele>12.5</ele><time>2026-04-14T15:21:03.985Z</time></trkpt><trkpt lat="44.1090517" lon="9.805825"><ele>13.0</ele><time>2026-04-14T15:21:06.984Z</time></trkpt><trkpt lat="44.108985" lon="9.8057467"><ele>13.5</ele><time>2026-04-14T15:21:09.985Z</time></trkpt><trkpt lat="44.1090083" lon="9.8056117"><ele>14.0</ele><time>2026-04-14T15:21:12.984Z</time></trkpt><trkpt lat="44.10904" lon="9.80552"><ele>14.5</ele><time>2026-04-14T15:21:14.984Z</time></trkpt><trkpt lat="44.1090883" lon="9.805425"><ele>15.0</ele><time>2026-04-14T15:21:16.984Z</time></trkpt><trkpt lat="44.1091433" lon="9.80533"><ele>15.0</ele><time>2026-04-14T15:21:18.985Z</time></trkpt><trkpt lat="44.109195" lon="9.8052383"><ele>15.0</ele><time>2026-04-14T15:21:20.984Z</time></trkpt><trkpt lat="44.1092417" lon="9.8051483"><ele>15.0</ele><time>2026-04-14T15:21:22.984Z</time></trkpt><trkpt lat="44.1092883" lon="9.80505"><ele>15.0</ele><time>2026-04-14T15:21:24.984Z</time></trkpt><trkpt lat="44.109335" lon="9.804965"><ele>15.0</ele><time>2026-04-14T15:21:26.984Z</time></trkpt><trkpt lat="44.1093783" lon="9.8048967"><ele>15.0</ele><time>2026-04-14T15:21:28.984Z</time></trkpt><trkpt lat="44.1094267" lon="9.80478"><ele>15.0</ele><time>2026-04-14T15:21:30.984Z</time></trkpt><trkpt lat="44.1094867" lon="9.8046667"><ele>15.0</ele><time>2026-04-14T15:21:32.985Z</time></trkpt><trkpt lat="44.1095517" lon="9.8045583"><ele>15.0</ele><time>2026-04-14T15:21:34.984Z</time></trkpt><trkpt lat="44.1096167" lon="9.8044467"><ele>15.0</ele><time>2026-04-14T15:21:36.984Z</time></trkpt><trkpt lat="44.1096817" lon="9.8043467"><ele>15.0</ele><time>2026-04-14T15:21:38.984Z</time></trkpt><trkpt lat="44.1097467" lon="9.8042483"><ele>15.0</ele><time>2026-04-14T15:21:40.984Z</time></trkpt><trkpt lat="44.1098083" lon="9.8041417"><ele>15.0</ele><time>2026-04-14T15:21:42.985Z</time></trkpt><trkpt lat="44.1098767" lon="9.8040383"><ele>15.0</ele><time>2026-04-14T15:21:44.985Z</time></trkpt><trkpt lat="44.109935" lon="9.803925"><ele>15.0</ele><time>2026-04-14T15:21:46.984Z</time></trkpt><trkpt lat="44.1099867" lon="9.8038"><ele>15.0</ele><time>2026-04-14T15:21:48.985Z</time></trkpt><trkpt lat="44.1100267" lon="9.803695"><ele>15.0</ele><time>2026-04-14T15:21:50.984Z</time></trkpt><trkpt lat="44.1100567" lon="9.8035667"><ele>15.0</ele><time>2026-04-14T15:21:52.985Z</time></trkpt><trkpt lat="44.1100983" lon="9.803435"><ele>15.0</ele><time>2026-04-14T15:21:54.984Z</time></trkpt><trkpt lat="44.1101583" lon="9.8033267"><ele>15.0</ele><time>2026-04-14T15:21:56.984Z</time></trkpt><trkpt lat="44.1102267" lon="9.803225"><ele>15.0</ele><time>2026-04-14T15:21:58.984Z</time></trkpt><trkpt lat="44.1103017" lon="9.8031267"><ele>14.8</ele><time>2026-04-14T15:22:00.984Z</time></trkpt><trkpt lat="44.1103667" lon="9.8030283"><ele>14.6</ele><time>2026-04-14T15:22:02.984Z</time></trkpt><trkpt lat="44.110425" lon="9.80293"><ele>14.399999999999999</ele><time>2026-04-14T15:22:04.984Z</time></trkpt><trkpt lat="44.11048" lon="9.8028117"><ele>14.2</ele><time>2026-04-14T15:22:06.985Z</time></trkpt><trkpt lat="44.11055" lon="9.8027133"><ele>14.0</ele><time>2026-04-14T15:22:08.985Z</time></trkpt><trkpt lat="44.1106083" lon="9.8026083"><ele>14.6</ele><time>2026-04-14T15:22:10.984Z</time></trkpt><trkpt lat="44.1106533" lon="9.8024933"><ele>15.2</ele><time>2026-04-14T15:22:12.985Z</time></trkpt><trkpt lat="44.11071" lon="9.802385"><ele>15.799999999999999</ele><time>2026-04-14T15:22:14.985Z</time></trkpt><trkpt lat="44.1107717" lon="9.80228"><ele>16.4</ele><time>2026-04-14T15:22:16.985Z</time></trkpt><trkpt lat="44.1108317" lon="9.80217"><ele>17.0</ele><time>2026-04-14T15:22:18.984Z</time></trkpt><trkpt lat="44.1109033" lon="9.802085"><ele>17.2</ele><time>2026-04-14T15:22:20.984Z</time></trkpt><trkpt lat="44.11099" lon="9.80202"><ele>17.4</ele><time>2026-04-14T15:22:22.984Z</time></trkpt><trkpt lat="44.1110783" lon="9.8019717"><ele>17.6</ele><time>2026-04-14T15:22:24.985Z</time></trkpt><trkpt lat="44.1111683" lon="9.8019483"><ele>17.8</ele><time>2026-04-14T15:22:26.984Z</time></trkpt><trkpt lat="44.1112583" lon="9.801935"><ele>18.0</ele><time>2026-04-14T15:22:28.985Z</time></trkpt><trkpt lat="44.1113533" lon="9.80194"><ele>18.0</ele><time>2026-04-14T15:22:30.984Z</time></trkpt><trkpt lat="44.111445" lon="9.8019617"><ele>18.0</ele><time>2026-04-14T15:22:32.984Z</time></trkpt><trkpt lat="44.11154" lon="9.8019783"><ele>18.0</ele><time>2026-04-14T15:22:34.984Z</time></trkpt><trkpt lat="44.1116267" lon="9.8020183"><ele>18.0</ele><time>2026-04-14T15:22:36.984Z</time></trkpt><trkpt lat="44.1117083" lon="9.8020633"><ele>18.0</ele><time>2026-04-14T15:22:38.984Z</time></trkpt><trkpt lat="44.11179" lon="9.802105"><ele>18.333333333333332</ele><time>2026-04-14T15:22:40.984Z</time></trkpt><trkpt lat="44.1118667" lon="9.8021533"><ele>18.666666666666668</ele><time>2026-04-14T15:22:42.984Z</time></trkpt><trkpt lat="44.1119433" lon="9.8022017"><ele>19.0</ele><time>2026-04-14T15:22:44.984Z</time></trkpt><trkpt lat="44.1120233" lon="9.802245"><ele>19.333333333333336</ele><time>2026-04-14T15:22:46.984Z</time></trkpt><trkpt lat="44.1121017" lon="9.8022917"><ele>19.666666666666668</ele><time>2026-04-14T15:22:48.984Z</time></trkpt><trkpt lat="44.1121783" lon="9.8023333"><ele>20.0</ele><time>2026-04-14T15:22:50.984Z</time></trkpt><trkpt lat="44.1122517" lon="9.8023817"><ele>20.0</ele><time>2026-04-14T15:22:52.984Z</time></trkpt><trkpt lat="44.112325" lon="9.80241"><ele>20.0</ele><time>2026-04-14T15:22:54.984Z</time></trkpt><trkpt lat="44.1124117" lon="9.8024333"><ele>20.0</ele><time>2026-04-14T15:22:56.985Z</time></trkpt><trkpt lat="44.11249" lon="9.8024767"><ele>20.0</ele><time>2026-04-14T15:22:58.984Z</time></trkpt><trkpt lat="44.112565" lon="9.8024983"><ele>20.0</ele><time>2026-04-14T15:23:00.984Z</time></trkpt><trkpt lat="44.1126367" lon="9.80253"><ele>20.0</ele><time>2026-04-14T15:23:02.984Z</time></trkpt><trkpt lat="44.11271" lon="9.802565"><ele>20.166666666666668</ele><time>2026-04-14T15:23:04.984Z</time></trkpt><trkpt lat="44.11278" lon="9.80261"><ele>20.333333333333336</ele><time>2026-04-14T15:23:06.984Z</time></trkpt><trkpt lat="44.1128733" lon="9.8026367"><ele>20.5</ele><time>2026-04-14T15:23:08.985Z</time></trkpt><trkpt lat="44.112965" lon="9.8026583"><ele>20.666666666666668</ele><time>2026-04-14T15:23:10.985Z</time></trkpt><trkpt lat="44.1130533" lon="9.802675"><ele>20.833333333333332</ele><time>2026-04-14T15:23:12.984Z</time></trkpt><trkpt lat="44.113145" lon="9.8026967"><ele>21.0</ele><time>2026-04-14T15:23:14.985Z</time></trkpt><trkpt lat="44.1132367" lon="9.8027217"><ele>21.666666666666668</ele><time>2026-04-14T15:23:16.984Z</time></trkpt><trkpt lat="44.1133267" lon="9.8027433"><ele>22.333333333333336</ele><time>2026-04-14T15:23:18.984Z</time></trkpt><trkpt lat="44.1134083" lon="9.80275"><ele>23.0</ele><time>2026-04-14T15:23:20.984Z</time></trkpt><trkpt lat="44.1134933" lon="9.8027567"><ele>23.666666666666668</ele><time>2026-04-14T15:23:22.984Z</time></trkpt><trkpt lat="44.113585" lon="9.80278"><ele>24.333333333333336</ele><time>2026-04-14T15:23:24.984Z</time></trkpt><trkpt lat="44.1136733" lon="9.8027967"><ele>25.0</ele><time>2026-04-14T15:23:26.985Z</time></trkpt><trkpt lat="44.1137767" lon="9.8028283"><ele>25.0</ele><time>2026-04-14T15:23:28.984Z</time></trkpt><trkpt lat="44.113875" lon="9.802855"><ele>25.0</ele><time>2026-04-14T15:23:30.984Z</time></trkpt><trkpt lat="44.1139717" lon="9.8028717"><ele>25.0</ele><time>2026-04-14T15:23:32.985Z</time></trkpt><trkpt lat="44.114075" lon="9.8028783"><ele>25.0</ele><time>2026-04-14T15:23:34.984Z</time></trkpt><trkpt lat="44.1141817" lon="9.802885"><ele>25.0</ele><time>2026-04-14T15:23:36.984Z</time></trkpt><trkpt lat="44.1142783" lon="9.802905"><ele>25.0</ele><time>2026-04-14T15:23:38.984Z</time></trkpt><trkpt lat="44.114375" lon="9.8029267"><ele>25.0</ele><time>2026-04-14T15:23:40.984Z</time></trkpt><trkpt lat="44.114465" lon="9.8029433"><ele>25.0</ele><time>2026-04-14T15:23:42.985Z</time></trkpt><trkpt lat="44.11456" lon="9.8029767"><ele>25.0</ele><time>2026-04-14T15:23:44.985Z</time></trkpt><trkpt lat="44.1146567" lon="9.8030233"><ele>25.0</ele><time>2026-04-14T15:23:46.984Z</time></trkpt><trkpt lat="44.1147467" lon="9.803065"><ele>25.0</ele><time>2026-04-14T15:23:48.985Z</time></trkpt><trkpt lat="44.1148317" lon="9.8031133"><ele>25.0</ele><time>2026-04-14T15:23:50.985Z</time></trkpt><trkpt lat="44.1149117" lon="9.803185"><ele>25.0</ele><time>2026-04-14T15:23:52.984Z</time></trkpt><trkpt lat="44.1150083" lon="9.8032383"><ele>25.0</ele><time>2026-04-14T15:23:54.985Z</time></trkpt><trkpt lat="44.1150933" lon="9.8032983"><ele>25.0</ele><time>2026-04-14T15:23:56.983Z</time></trkpt><trkpt lat="44.1151767" lon="9.8033567"><ele>25.4</ele><time>2026-04-14T15:23:58.983Z</time></trkpt><trkpt lat="44.115255" lon="9.8034133"><ele>25.8</ele><time>2026-04-14T15:24:00.983Z</time></trkpt><trkpt lat="44.1153417" lon="9.80347"><ele>26.200000000000003</ele><time>2026-04-14T15:24:02.983Z</time></trkpt><trkpt lat="44.1154267" lon="9.803525"><ele>26.6</ele><time>2026-04-14T15:24:04.984Z</time></trkpt><trkpt lat="44.1155067" lon="9.80358"><ele>27.0</ele><time>2026-04-14T15:24:06.984Z</time></trkpt><trkpt lat="44.1155933" lon="9.80361"><ele>27.0</ele><time>2026-04-14T15:24:08.983Z</time></trkpt><trkpt lat="44.1156767" lon="9.80363"><ele>27.0</ele><time>2026-04-14T15:24:10.983Z</time></trkpt><trkpt lat="44.1157633" lon="9.80363"><ele>27.0</ele><time>2026-04-14T15:24:12.983Z</time></trkpt><trkpt lat="44.1158483" lon="9.8036417"><ele>27.0</ele><time>2026-04-14T15:24:14.983Z</time></trkpt><trkpt lat="44.115935" lon="9.803655"><ele>27.0</ele><time>2026-04-14T15:24:16.984Z</time></trkpt><trkpt lat="44.1160233" lon="9.8036583"><ele>27.0</ele><time>2026-04-14T15:24:18.983Z</time></trkpt><trkpt lat="44.1161" lon="9.803635"><ele>27.333333333333332</ele><time>2026-04-14T15:24:20.984Z</time></trkpt><trkpt lat="44.116175" lon="9.8036067"><ele>27.666666666666664</ele><time>2026-04-14T15:24:22.983Z</time></trkpt><trkpt lat="44.1162483" lon="9.8035833"><ele>28.0</ele><time>2026-04-14T15:24:24.984Z</time></trkpt><trkpt lat="44.1163283" lon="9.8035483"><ele>28.333333333333332</ele><time>2026-04-14T15:24:26.983Z</time></trkpt><trkpt lat="44.1164033" lon="9.8035133"><ele>28.666666666666664</ele><time>2026-04-14T15:24:28.983Z</time></trkpt><trkpt lat="44.1164917" lon="9.803505"><ele>29.0</ele><time>2026-04-14T15:24:31.983Z</time></trkpt><trkpt lat="44.1165633" lon="9.8034567"><ele>29.571428571428577</ele><time>2026-04-14T15:24:34.984Z</time></trkpt><trkpt lat="44.1166317" lon="9.803375"><ele>30.142857142857146</ele><time>2026-04-14T15:24:37.983Z</time></trkpt><trkpt lat="44.11667" lon="9.803295"><ele>30.714285714285715</ele><time>2026-04-14T15:24:39.984Z</time></trkpt><trkpt lat="44.1167067" lon="9.80321"><ele>31.28571428571429</ele><time>2026-04-14T15:24:41.983Z</time></trkpt><trkpt lat="44.1167467" lon="9.80313"><ele>31.85714285714286</ele><time>2026-04-14T15:24:43.983Z</time></trkpt><trkpt lat="44.116805" lon="9.8030933"><ele>32.42857142857143</ele><time>2026-04-14T15:24:45.983Z</time></trkpt><trkpt lat="44.1168783" lon="9.8030883"><ele>33.0</ele><time>2026-04-14T15:24:47.983Z</time></trkpt><trkpt lat="44.1169567" lon="9.803115"><ele>33.0</ele><time>2026-04-14T15:24:49.983Z</time></trkpt><trkpt lat="44.1170333" lon="9.80317"><ele>33.0</ele><time>2026-04-14T15:24:51.984Z</time></trkpt><trkpt lat="44.1171133" lon="9.8032533"><ele>33.0</ele><time>2026-04-14T15:24:53.983Z</time></trkpt><trkpt lat="44.1171833" lon="9.8033433"><ele>33.0</ele><time>2026-04-14T15:24:55.983Z</time></trkpt><trkpt lat="44.1172617" lon="9.8033967"><ele>33.0</ele><time>2026-04-14T15:24:57.983Z</time></trkpt><trkpt lat="44.1173467" lon="9.80339"><ele>33.666666666666664</ele><time>2026-04-14T15:24:59.983Z</time></trkpt><trkpt lat="44.1174167" lon="9.8033083"><ele>34.333333333333336</ele><time>2026-04-14T15:25:01.983Z</time></trkpt><trkpt lat="44.1174817" lon="9.8032133"><ele>35.0</ele><time>2026-04-14T15:25:03.984Z</time></trkpt><trkpt lat="44.1175417" lon="9.8031283"><ele>35.66666666666667</ele><time>2026-04-14T15:25:05.983Z</time></trkpt><trkpt lat="44.1176117" lon="9.8030633"><ele>36.333333333333336</ele><time>2026-04-14T15:25:07.983Z</time></trkpt><trkpt lat="44.11767" lon="9.8030083"><ele>37.0</ele><time>2026-04-14T15:25:09.983Z</time></trkpt><trkpt lat="44.117725" lon="9.80296"><ele>37.0</ele><time>2026-04-14T15:25:11.983Z</time></trkpt><trkpt lat="44.1177867" lon="9.8029133"><ele>37.0</ele><time>2026-04-14T15:25:13.983Z</time></trkpt><trkpt lat="44.11787" lon="9.80285"><ele>37.0</ele><time>2026-04-14T15:25:16.983Z</time></trkpt><trkpt lat="44.1179383" lon="9.8027833"><ele>37.0</ele><time>2026-04-14T15:25:19.984Z</time></trkpt><trkpt lat="44.118005" lon="9.802745"><ele>37.0</ele><time>2026-04-14T15:25:22.984Z</time></trkpt><trkpt lat="44.1180717" lon="9.8027933"><ele>37.0</ele><time>2026-04-14T15:25:25.983Z</time></trkpt><trkpt lat="44.1181217" lon="9.8028617"><ele>37.0</ele><time>2026-04-14T15:25:28.983Z</time></trkpt><trkpt lat="44.1181517" lon="9.8029533"><ele>37.0</ele><time>2026-04-14T15:25:32.984Z</time></trkpt></trkseg></trk></gpx>